GMI26KG / D-ASTF 7700 Squawk Report (18th of October, 2018)

Aircraft A319 Reg No. D-ASTF Age 8 years old
Model A319 Jet engines 2 First flight 31-03-10
Registered 05-04-17 Rollout 03-10 Delivered 14-04-10
Construction No. 4268 Line No. N/A Series 112
ADSHEX 3C09E0 Airline name Germania Owner N/A
Airfield based Koln-Bonn~Nordrhein-Westfalen~D First tracked 2017-04-22 03:51:01

Flight history for D-ASTF

Route Flight No Date Playback
???? N/A 2018-11-16 03:48:00
???? N/A 2018-11-16 00:50:00
Son Sant Joan (PMI) - Munster Osnabruck (FMO) ST4213 2018-11-15 21:01:00
Munster Osnabruck (FMO) - Son Sant Joan (PMI) ST4212 2018-11-15 16:36:00
Gran Canaria (LPA) - Munster Osnabruck (FMO) ST4303 2018-11-14 22:30:00
Munster Osnabruck (FMO) - Gran Canaria (LPA) ST4302 2018-11-14 18:11:00
???? N/A 2018-11-13 21:31:00
???? N/A 2018-11-13 18:20:00
???? N/A 2018-11-12 23:51:00
Munster Osnabruck (FMO) - Tenerife Sur (TFS) ST2962 2018-11-12 18:38:00
???? N/A 2018-11-12 12:38:00
???? N/A 2018-11-12 07:45:00
???? N/A 2018-11-12 03:18:00
???? N/A 2018-11-11 23:54:00
???? N/A 2018-11-11 00:39:00
Dusseldorf (DUS) - Gran Canaria (LPA) ST4966 2018-11-10 20:42:00
???? N/A 2018-11-09 20:58:00
???? N/A 2018-11-09 17:45:00
???? N/A 2018-11-09 13:35:00
???? N/A 2018-11-08 23:22:00
Time Lat Lon Altitude Heading Speed Vertical Rate
2018-10-18 19:06:30 GMT 27.846222 33.391907 35,025 145 462 0
2018-10-18 19:06:21 GMT 27.864120 33.377811 35,025 145 463 0
2018-10-18 19:06:09 GMT 27.883440 33.362625 35,025 145 463 64
2018-10-18 19:05:58 GMT 27.902664 33.347443 35,000 145 463 64
2018-10-18 19:05:47 GMT 27.921705 33.332466 35,000 145 464 -64
2018-10-18 19:05:39 GMT 27.938095 33.319565 35,000 145 464 0
2018-10-18 19:05:27 GMT 27.956573 33.305000 35,000 144 465 0
2018-10-18 19:05:18 GMT 27.975334 33.290134 35,000 144 464 0
2018-10-18 19:05:06 GMT 27.994080 33.275318 35,000 144 465 64
2018-10-18 19:04:56 GMT 28.012619 33.260685 35,000 144 465 0
2018-10-18 19:04:45 GMT 28.033218 33.244366 35,000 144 465 0
2018-10-18 19:04:35 GMT 28.049957 33.231167 35,000 144 465 0
2018-10-18 19:04:25 GMT 28.069061 33.216053 35,000 144 465 0
2018-10-18 19:04:14 GMT 28.087189 33.201687 35,000 144 465 0
2018-10-18 19:04:02 GMT 28.115784 33.179035 35,000 144 464 0
2018-10-18 19:03:48 GMT 28.133427 33.165031 35,000 144 465 0
2018-10-18 19:03:37 GMT 28.152281 33.150112 35,000 144 464 0
2018-10-18 19:03:24 GMT 28.176254 33.131104 35,000 144 465 0
2018-10-18 19:03:15 GMT 28.191011 33.119362 35,025 144 465 64
2018-10-18 19:03:05 GMT 28.208748 33.105251 35,000 144 465 64
2018-10-18 19:02:48 GMT 28.240356 33.080212 35,000 145 466 64
2018-10-18 19:02:41 GMT 28.250923 33.071865 35,000 144 466 0
2018-10-18 19:02:32 GMT 28.267962 33.057968 34,975 143 467 0
2018-10-18 19:02:23 GMT 28.283569 33.044338 34,975 141 467 -64
2018-10-18 19:02:12 GMT 28.300964 33.027966 35,000 139 468 -64
2018-10-18 19:02:02 GMT 28.318563 33.010685 35,000 138 467 -128
2018-10-18 19:01:50 GMT 28.336624 32.993000 35,025 138 467 -64
2018-10-18 19:01:40 GMT 28.354643 32.975246 35,050 138 469 -512
2018-10-18 19:01:29 GMT 28.370470 32.959633 35,175 138 471 -960
2018-10-18 19:01:20 GMT 28.387508 32.942719 35,350 138 472 -960
2018-10-18 19:01:08 GMT 28.404785 32.925495 35,525 138 473 -960
2018-10-18 19:00:58 GMT 28.423027 32.907337 35,700 138 474 -1088
2018-10-18 19:00:48 GMT 28.440485 32.889942 35,875 138 474 -1024
2018-10-18 19:00:37 GMT 28.457611 32.872944 36,050 138 474 -1024
2018-10-18 19:00:26 GMT 28.475281 32.855457 36,250 138 473 -1024
2018-10-18 19:00:13 GMT 28.495377 32.835651 36,450 139 471 -960
2018-10-18 19:00:06 GMT 28.510126 32.821117 36,575 139 471 -960
2018-10-18 19:00:00 GMT 28.516691 32.814709 36,625 139 471 -960
2018-10-18 18:59:54 GMT 28.526979 32.804638 36,725 138 472 -960
2018-10-18 18:59:44 GMT 28.545090 32.786690 36,900 138 473 -896
2018-10-18 18:59:33 GMT 28.562126 32.769848 37,000 138 472 -128
2018-10-18 18:59:23 GMT 28.579256 32.752831 37,000 138 473 64
2018-10-18 18:59:11 GMT 28.597870 32.734398 37,025 138 474 -64
2018-10-18 18:59:03 GMT 28.611610 32.720787 37,025 138 474 -64
2018-10-18 18:58:56 GMT 28.623871 32.708622 37,025 138 473 0
2018-10-18 18:58:47 GMT 28.640350 32.692356 37,025 139 474 64
2018-10-18 18:58:32 GMT 28.663605 32.669483 37,000 139 474 0
2018-10-18 18:58:26 GMT 28.675060 32.658207 37,025 139 474 64
2018-10-18 18:58:21 GMT 28.682043 32.651367 37,025 139 474 0
2018-10-18 18:58:14 GMT 28.692993 32.640591 37,025 139 474 64
2018-10-18 18:58:09 GMT 28.701317 32.632465 37,025 139 474 64
2018-10-18 18:58:04 GMT 28.709976 32.623955 37,025 139 474 0
2018-10-18 18:57:58 GMT 28.719360 32.614765 37,000 139 475 64
2018-10-18 18:57:54 GMT 28.728130 32.606129 37,000 139 474 64
2018-10-18 18:57:46 GMT 28.740005 32.594482 37,000 139 474 64
2018-10-18 18:57:43 GMT 28.745169 32.589382 37,000 139 474 0
2018-10-18 18:57:37 GMT 28.753922 32.580799 37,000 139 474 0
2018-10-18 18:57:33 GMT 28.772217 32.562832 37,000 139 475 64
2018-10-18 18:57:27 GMT 28.772217 32.562832 37,000 139 475 64
2018-10-18 18:57:22 GMT 28.780792 32.554394 37,000 139 475 0
2018-10-18 18:57:12 GMT 28.798752 32.536713 37,000 139 475 0
2018-10-18 18:57:09 GMT 28.801916 32.533588 37,000 139 475 0
2018-10-18 18:57:06 GMT 28.807205 32.528404 37,000 139 475 0
2018-10-18 18:57:00 GMT 28.818815 32.516945 37,000 139 475 0
2018-10-18 18:56:53 GMT 28.828173 32.507736 37,000 139 475 0
2018-10-18 18:56:49 GMT 28.835154 32.500790 37,000 139 475 0
2018-10-18 18:56:43 GMT 28.844976 32.491096 37,000 139 475 0
2018-10-18 18:56:39 GMT 28.853348 32.482822 37,000 138 475 64
2018-10-18 18:56:32 GMT 28.862595 32.473682 37,000 138 474 64
2018-10-18 18:56:27 GMT 28.871046 32.465302 37,000 139 475 0
2018-10-18 18:56:18 GMT 28.888084 32.448551 37,000 139 475 0
2018-10-18 18:56:07 GMT 28.906952 32.429951 37,000 139 474 0
2018-10-18 18:55:56 GMT 28.924767 32.412415 37,000 139 474 0
2018-10-18 18:55:45 GMT 28.942085 32.395290 37,000 138 474 0
2018-10-18 18:55:35 GMT 28.959869 32.377659 36,975 138 474 64
2018-10-18 18:55:30 GMT 28.966873 32.370689 36,975 138 474 0
2018-10-18 18:55:24 GMT 28.977219 32.360390 36,975 139 475 -64
2018-10-18 18:55:18 GMT 28.985332 32.352367 37,000 139 475 -64
2018-10-18 18:55:13 GMT 28.995434 32.342403 37,000 139 475 -64
2018-10-18 18:55:09 GMT 29.001764 32.336159 37,000 139 475 0
2018-10-18 18:55:06 GMT 29.007294 32.330704 37,000 138 474 0
2018-10-18 18:55:02 GMT 29.014194 32.323879 37,000 138 474 0
2018-10-18 18:54:58 GMT 29.020157 32.317974 37,000 139 474 64
2018-10-18 18:54:51 GMT 29.031511 32.306751 36,975 139 474 0
2018-10-18 18:54:43 GMT 29.043594 32.294842 36,975 139 475 0
2018-10-18 18:54:35 GMT 29.058092 32.280685 37,000 139 475 0
2018-10-18 18:54:25 GMT 29.074665 32.264477 37,000 139 475 0
2018-10-18 18:54:15 GMT 29.095474 32.244011 37,000 139 475 0
2018-10-18 18:54:03 GMT 29.111534 32.228233 37,000 139 474 0
2018-10-18 18:53:59 GMT 29.117249 32.222584 37,000 139 475 64
2018-10-18 18:53:52 GMT 29.131926 32.208038 37,000 138 475 64
2018-10-18 18:53:42 GMT 29.145611 32.194359 36,975 138 476 0
2018-10-18 18:53:39 GMT 29.151569 32.188488 36,975 138 476 0
2018-10-18 18:53:23 GMT 29.178896 32.162045 37,000 141 476 0
2018-10-18 18:53:07 GMT 29.206827 32.137810 37,000 143 474 64
2018-10-18 18:52:57 GMT 29.224098 32.123268 37,000 143 475 0
2018-10-18 18:52:48 GMT 29.240616 32.109444 37,000 143 475 -64
2018-10-18 18:52:37 GMT 29.259060 32.094025 37,000 143 475 -64
2018-10-18 18:52:26 GMT 29.279022 32.077385 37,025 143 475 0
2018-10-18 18:52:16 GMT 29.296829 32.062435 37,025 143 475 0
2018-10-18 18:52:07 GMT 29.314636 32.047436 37,000 143 476 0
2018-10-18 18:51:55 GMT 29.334381 32.030800 37,000 143 477 0
2018-10-18 18:51:44 GMT 29.353281 32.015022 37,025 143 477 -64
2018-10-18 18:51:34 GMT 29.372635 31.998791 37,025 143 477 64
2018-10-18 18:51:29 GMT 29.381071 31.991703 37,025 143 477 64
2018-10-18 18:51:21 GMT 29.395550 31.979479 37,025 143 477 64
2018-10-18 18:51:14 GMT 29.408772 31.968330 37,000 143 477 0
2018-10-18 18:51:09 GMT 29.416174 31.962084 37,025 143 477 -64
2018-10-18 18:51:02 GMT 29.428345 31.951834 37,025 143 477 -64
2018-10-18 18:50:53 GMT 29.445314 31.937578 37,025 143 477 0
2018-10-18 18:50:50 GMT 29.449596 31.933971 37,025 143 477 0
2018-10-18 18:50:41 GMT 29.465698 31.920406 37,025 143 478 0
2018-10-18 18:50:31 GMT 29.486069 31.903189 37,025 143 478 64
2018-10-18 18:50:20 GMT 29.502853 31.889002 37,025 143 479 64
2018-10-18 18:50:10 GMT 29.522141 31.872711 37,000 143 479 64
2018-10-18 18:50:00 GMT 29.540451 31.857288 37,000 143 478 64
2018-10-18 18:49:49 GMT 29.559925 31.840857 37,000 143 478 64
2018-10-18 18:49:37 GMT 29.580734 31.823353 37,000 143 479 64
2018-10-18 18:49:28 GMT 29.596802 31.809752 37,000 143 479 0
2018-10-18 18:49:17 GMT 29.616859 31.792765 37,000 143 479 0
2018-10-18 18:49:06 GMT 29.635529 31.777056 37,000 143 478 64
2018-10-18 18:48:55 GMT 29.656057 31.759644 37,000 143 478 0
2018-10-18 18:48:45 GMT 29.673933 31.744511 37,000 143 477 -64
2018-10-18 18:48:34 GMT 29.693115 31.728252 37,000 143 477 0
2018-10-18 18:48:23 GMT 29.711792 31.712406 37,000 143 476 0
2018-10-18 18:48:15 GMT 29.727608 31.699003 37,000 143 476 64
2018-10-18 18:48:05 GMT 29.746078 31.683304 37,000 143 476 0
2018-10-18 18:47:59 GMT 29.755959 31.674875 37,000 143 476 0
2018-10-18 18:47:56 GMT 29.760498 31.671049 37,000 143 477 0
2018-10-18 18:47:52 GMT 29.767456 31.665186 37,000 143 477 0
2018-10-18 18:47:44 GMT 29.783157 31.651823 37,000 143 477 0
2018-10-18 18:47:40 GMT 29.789749 31.646276 37,000 143 477 -64
2018-10-18 18:47:32 GMT 29.802555 31.635401 37,000 143 476 -64
2018-10-18 18:47:27 GMT 29.812193 31.627214 37,000 143 476 -64
2018-10-18 18:47:23 GMT 29.820433 31.620214 37,025 143 476 0
2018-10-18 18:47:13 GMT 29.837006 31.606104 37,000 143 476 64
2018-10-18 18:47:09 GMT 29.844360 31.599857 37,000 143 476 0
2018-10-18 18:47:02 GMT 29.858093 31.588171 37,000 143 477 0
2018-10-18 18:46:50 GMT 29.877731 31.571432 37,000 143 476 64
2018-10-18 18:46:41 GMT 29.895309 31.556433 37,000 143 477 64
2018-10-18 18:46:30 GMT 29.914307 31.540295 37,000 143 477 64
2018-10-18 18:46:20 GMT 29.932762 31.524664 37,000 143 477 0
2018-10-18 18:46:09 GMT 29.951384 31.508900 37,000 143 477 0
2018-10-18 18:45:58 GMT 29.971115 31.492041 37,000 143 477 0
2018-10-18 18:45:47 GMT 29.989836 31.476049 37,000 143 476 0
2018-10-18 18:45:43 GMT 29.996864 31.470118 37,000 144 476 -64
2018-10-18 18:45:37 GMT 30.007479 31.461384 37,000 145 476 -64
2018-10-18 18:45:32 GMT 30.016663 31.454182 37,000 146 475 0
2018-10-18 18:45:27 GMT 30.026285 31.447046 37,000 147 475 0
2018-10-18 18:45:19 GMT 30.042208 31.435949 37,000 157 469 64
2018-10-18 18:45:16 GMT 30.046118 31.433369 37,000 150 473 0
2018-10-18 18:45:07 GMT 30.066284 31.420898 37,000 153 472 64
2018-10-18 18:44:55 GMT 30.089493 31.408190 37,000 158 469 64
2018-10-18 18:44:49 GMT 30.099243 31.403341 37,000 157 469 64
2018-10-18 18:44:46 GMT 30.108265 31.399092 37,000 159 468 64
2018-10-18 18:44:37 GMT 30.123413 31.392517 37,000 159 468 0
2018-10-18 18:44:34 GMT 30.130508 31.389717 37,000 161 468 0
2018-10-18 18:44:24 GMT 30.152863 31.381622 37,000 164 466 0
2018-10-18 18:44:13 GMT 30.174322 31.375086 37,000 166 464 64
2018-10-18 18:44:03 GMT 30.196388 31.369646 37,000 169 463 64
2018-10-18 18:43:52 GMT 30.217756 31.365417 37,000 171 461 0
2018-10-18 18:43:45 GMT 30.233723 31.362507 37,000 171 461 0
2018-10-18 18:43:42 GMT 30.240143 31.361336 37,000 171 461 0
2018-10-18 18:43:31 GMT 30.263330 31.357067 37,000 171 461 0
2018-10-18 18:43:21 GMT 30.284605 31.353224 37,000 171 461 64
2018-10-18 18:43:10 GMT 30.307022 31.349163 37,000 171 461 0
2018-10-18 18:43:00 GMT 30.350510 31.341194 37,000 170 461 0
2018-10-18 18:42:50 GMT 30.350510 31.341194 37,000 170 461 64
2018-10-18 18:42:39 GMT 30.371796 31.337208 36,975 171 461 64
2018-10-18 18:42:29 GMT 30.393864 31.333174 37,000 171 462 -64
2018-10-18 18:42:18 GMT 30.416256 31.329107 37,000 171 462 -64
2018-10-18 18:42:09 GMT 30.438217 31.325090 37,000 170 462 64
2018-10-18 18:41:58 GMT 30.460556 31.320944 37,000 170 462 64
2018-10-18 18:41:48 GMT 30.482498 31.316914 37,000 170 463 0
2018-10-18 18:41:36 GMT 30.506470 31.312435 37,000 170 463 0
2018-10-18 18:41:27 GMT 30.527002 31.308727 37,000 171 463 0
2018-10-18 18:41:15 GMT 30.550232 31.304520 37,000 171 463 0
2018-10-18 18:41:05 GMT 30.572809 31.300379 37,000 170 463 0
2018-10-18 18:40:54 GMT 30.596283 31.296009 37,000 170 463 64
2018-10-18 18:40:44 GMT 30.616470 31.292240 36,975 170 463 0
2018-10-18 18:40:35 GMT 30.637098 31.288403 36,975 171 464 0
2018-10-18 18:40:31 GMT 30.644314 31.287085 37,000 171 464 0
2018-10-18 18:40:23 GMT 30.661585 31.283899 37,000 171 464 0
2018-10-18 18:40:20 GMT 30.668793 31.282600 37,000 171 464 0
2018-10-18 18:40:14 GMT 30.682627 31.280054 37,000 171 464 0
2018-10-18 18:40:00 GMT 30.710999 31.274845 37,000 170 464 64
2018-10-18 18:39:52 GMT 30.730156 31.271320 37,000 170 464 0
2018-10-18 18:39:49 GMT 30.733416 31.270716 37,000 170 464 0
2018-10-18 18:39:39 GMT 30.755434 31.266649 37,000 171 464 -64
2018-10-18 18:39:32 GMT 30.771332 31.263750 37,000 171 464 -64
2018-10-18 18:39:28 GMT 30.777452 31.262640 37,000 170 464 -64
2018-10-18 18:39:21 GMT 30.793653 31.259619 37,025 170 464 0
2018-10-18 18:39:17 GMT 30.801178 31.258259 37,000 170 464 64
2018-10-18 18:39:09 GMT 30.819817 31.254786 37,000 170 464 0
2018-10-18 18:39:06 GMT 30.825485 31.253735 37,000 170 464 0
2018-10-18 18:39:00 GMT 30.839035 31.251204 37,025 170 464 0
2018-10-18 18:38:55 GMT 30.848166 31.249512 37,025 170 464 0
2018-10-18 18:38:50 GMT 30.861109 31.247095 37,025 170 465 0
2018-10-18 18:38:45 GMT 30.869440 31.245558 37,025 170 465 -64
2018-10-18 18:38:38 GMT 30.885498 31.242586 37,025 170 465 -64
2018-10-18 18:38:30 GMT 30.901840 31.239515 37,025 170 465 0
2018-10-18 18:38:27 GMT 30.907379 31.238440 37,025 170 465 0
2018-10-18 18:38:17 GMT 30.928619 31.234509 37,025 170 465 64
2018-10-18 18:38:07 GMT 30.952070 31.230122 37,025 170 466 64
2018-10-18 18:37:58 GMT 30.970413 31.226645 37,025 170 466 0
2018-10-18 18:37:53 GMT 30.981167 31.224628 37,025 170 466 0
2018-10-18 18:37:45 GMT 30.999182 31.221277 37,025 170 466 0
2018-10-18 18:37:36 GMT 31.018295 31.217705 37,025 170 466 64
2018-10-18 18:37:25 GMT 31.043106 31.213020 37,025 170 466 64
2018-10-18 18:37:11 GMT 31.069931 31.208065 37,025 171 466 0
2018-10-18 18:37:02 GMT 31.088888 31.204523 37,025 171 466 64
2018-10-18 18:36:52 GMT 31.110395 31.200567 37,025 171 466 64
2018-10-18 18:36:41 GMT 31.135393 31.196009 37,025 171 466 0
2018-10-18 18:36:32 GMT 31.153316 31.192766 37,025 171 465 0
2018-10-18 18:36:26 GMT 31.167389 31.190132 37,025 170 465 0
2018-10-18 18:35:56 GMT 31.231522 31.178122 37,000 170 464 64
2018-10-18 18:35:49 GMT 31.245722 31.175520 37,000 170 464 64
2018-10-18 18:35:43 GMT 31.257614 31.173275 37,000 170 464 64
2018-10-18 18:35:32 GMT 31.282288 31.168697 37,000 170 464 64
2018-10-18 18:35:23 GMT 31.301025 31.165192 36,975 170 463 0
2018-10-18 18:35:12 GMT 31.323324 31.160961 36,975 170 463 -64
2018-10-18 18:35:02 GMT 31.346466 31.156689 37,000 171 462 64
2018-10-18 18:34:51 GMT 31.368620 31.152557 36,975 171 462 64
2018-10-18 18:34:39 GMT 31.393295 31.147964 36,975 170 462 0
2018-10-18 18:34:30 GMT 31.413712 31.144140 36,975 170 461 0
2018-10-18 18:34:19 GMT 31.438030 31.139648 37,000 171 461 0
2018-10-18 18:34:09 GMT 31.458233 31.135859 37,000 171 461 0
2018-10-18 18:33:58 GMT 31.480637 31.131645 37,000 170 460 0
2018-10-18 18:33:47 GMT 31.504786 31.127069 37,000 170 460 0
2018-10-18 18:33:36 GMT 31.527283 31.123190 37,000 172 459 0
2018-10-18 18:33:25 GMT 31.550825 31.120148 37,000 174 457 0
2018-10-18 18:33:07 GMT 31.606594 31.114216 37,000 174 458 0
2018-10-18 18:32:54 GMT 31.617096 31.113119 37,000 174 458 -64
2018-10-18 18:32:44 GMT 31.638016 31.110912 37,000 174 458 0
2018-10-18 18:32:33 GMT 31.660782 31.108501 37,025 174 458 0
2018-10-18 18:32:23 GMT 31.682337 31.106195 37,025 174 458 0
2018-10-18 18:32:13 GMT 31.703283 31.103943 37,025 174 458 0
2018-10-18 18:31:57 GMT 31.738245 31.100208 37,025 174 458 -64
2018-10-18 18:31:52 GMT 31.748199 31.099117 37,025 174 458 0
2018-10-18 18:31:35 GMT 31.802628 31.093342 37,025 174 458 0
2018-10-18 18:31:21 GMT 31.813753 31.092093 37,025 174 459 0
2018-10-18 18:31:06 GMT 31.844788 31.088728 37,025 174 458 0
2018-10-18 18:31:00 GMT 31.857239 31.087408 37,025 174 458 0
2018-10-18 18:30:51 GMT 31.876459 31.085312 37,025 174 458 64
2018-10-18 18:30:39 GMT 31.901831 31.082621 37,025 174 458 128
2018-10-18 18:30:30 GMT 31.920959 31.080542 37,000 174 458 64
2018-10-18 18:30:20 GMT 31.943481 31.078125 37,000 174 458 0
2018-10-18 18:30:08 GMT 31.967560 31.075542 37,000 174 458 64
2018-10-18 18:29:57 GMT 31.990540 31.073126 37,000 174 458 64
2018-10-18 18:29:47 GMT 32.011459 31.070873 36,975 174 458 64
2018-10-18 18:29:36 GMT 32.035721 31.068237 36,975 174 457 64
2018-10-18 18:29:25 GMT 32.058479 31.065693 36,975 174 458 0
2018-10-18 18:29:15 GMT 32.081333 31.063169 36,975 174 458 64
2018-10-18 18:29:05 GMT 32.102188 31.060816 36,975 174 457 64
2018-10-18 18:28:54 GMT 32.125854 31.058186 36,950 174 456 0
2018-10-18 18:28:34 GMT 32.169086 31.053530 36,950 174 456 64
2018-10-18 18:28:23 GMT 32.190407 31.051231 36,950 174 455 0
2018-10-18 18:28:12 GMT 32.212692 31.048792 36,950 174 455 0
2018-10-18 18:28:02 GMT 32.235580 31.046265 36,950 174 455 0
2018-10-18 18:27:50 GMT 32.259155 31.043682 36,950 174 456 64
2018-10-18 18:27:38 GMT 32.284561 31.040827 36,950 174 456 -64
2018-10-18 18:27:29 GMT 32.301224 31.039015 36,975 174 456 -128
2018-10-18 18:27:18 GMT 32.326492 31.036213 37,000 174 455 -64
2018-10-18 18:27:09 GMT 32.345333 31.034136 37,000 174 456 0
2018-10-18 18:26:59 GMT 32.367584 31.031670 37,000 174 458 0
2018-10-18 18:26:56 GMT 32.374008 31.030939 37,000 174 457 0
2018-10-18 18:26:45 GMT 32.395660 31.028578 37,000 174 458 0
2018-10-18 18:26:35 GMT 32.417767 31.026119 37,025 174 459 -64
2018-10-18 18:26:23 GMT 32.442215 31.023413 37,050 174 460 -64
2018-10-18 18:26:17 GMT 32.457104 31.021803 37,050 174 460 0
2018-10-18 18:26:13 GMT 32.464787 31.020962 37,050 174 460 0
2018-10-18 18:26:03 GMT 32.485130 31.018721 37,050 174 460 64
2018-10-18 18:25:47 GMT 32.520416 31.014797 37,050 174 463 0
2018-10-18 18:25:44 GMT 32.526855 31.014074 37,050 174 463 0
2018-10-18 18:25:37 GMT 32.541180 31.012442 37,050 174 463 0
2018-10-18 18:25:34 GMT 32.547272 31.011768 37,050 174 463 0
2018-10-18 18:25:25 GMT 32.567898 31.009472 37,050 174 463 64
2018-10-18 18:25:14 GMT 32.591217 31.006824 37,050 174 463 0
2018-10-18 18:25:04 GMT 32.612091 31.004517 37,050 174 463 0
2018-10-18 18:24:53 GMT 32.635632 31.001961 37,050 174 464 64
2018-10-18 18:24:50 GMT 32.641296 31.001331 37,050 174 464 64
2018-10-18 18:24:42 GMT 32.659103 30.999353 37,050 174 464 64
2018-10-18 18:24:31 GMT 32.682652 30.996693 37,025 174 465 64
2018-10-18 18:24:20 GMT 32.705181 30.994114 37,025 174 465 0
2018-10-18 18:24:10 GMT 32.727402 30.991608 37,025 174 464 64
2018-10-18 18:24:00 GMT 32.749603 30.989136 37,000 174 464 64
2018-10-18 18:23:48 GMT 32.774368 30.986389 37,000 174 464 0
2018-10-18 18:23:38 GMT 32.795746 30.984028 37,000 174 463 0
2018-10-18 18:23:27 GMT 32.836926 30.979427 36,975 174 463 0
2018-10-18 18:23:16 GMT 32.843262 30.978699 36,975 174 463 0
2018-10-18 18:23:04 GMT 32.868622 30.975842 36,975 174 463 0
2018-10-18 18:22:53 GMT 32.891602 30.973206 36,975 174 462 64
2018-10-18 18:22:45 GMT 32.909687 30.971132 36,975 174 462 0
2018-10-18 18:22:34 GMT 32.932892 30.968536 36,950 174 460 64
2018-10-18 18:22:19 GMT 32.964756 30.965021 36,950 174 460 64
2018-10-18 18:22:16 GMT 32.972305 30.964142 36,950 174 461 0
2018-10-18 18:22:12 GMT 32.978863 30.963451 36,950 174 461 -64
2018-10-18 18:22:01 GMT 33.002743 30.960201 36,975 172 462 0
2018-10-18 18:21:55 GMT 33.016384 30.957848 36,975 170 462 0
2018-10-18 18:21:51 GMT 33.024574 30.956223 36,975 170 463 0
2018-10-18 18:21:45 GMT 33.038635 30.953211 36,975 168 464 0
2018-10-18 18:21:38 GMT 33.050926 30.950169 36,975 167 465 -64
2018-10-18 18:21:28 GMT 33.072060 30.944283 36,975 165 467 -64
2018-10-18 18:21:17 GMT 33.095242 30.936659 37,000 163 468 0
2018-10-18 18:21:13 GMT 33.105560 30.932941 37,000 162 469 0
2018-10-18 18:21:10 GMT 33.116238 30.928812 37,000 161 469 0
2018-10-18 18:21:02 GMT 33.127029 30.924372 37,000 156 473 0
2018-10-18 18:20:57 GMT 33.137653 30.919731 37,000 159 471 0
2018-10-18 18:20:46 GMT 33.159393 30.909430 37,000 155 474 0
2018-10-18 18:20:35 GMT 33.180679 30.898060 37,000 154 475 0
2018-10-18 18:20:27 GMT 33.198357 30.887726 37,000 152 476 0
2018-10-18 18:20:24 GMT 33.203110 30.884821 37,000 152 476 0
2018-10-18 18:20:20 GMT 33.211624 30.879492 37,000 152 476 -64
2018-10-18 18:20:14 GMT 33.222565 30.872625 37,000 152 476 0
2018-10-18 18:20:09 GMT 33.233318 30.865866 37,000 152 477 0
2018-10-18 18:20:05 GMT 33.239227 30.862188 37,025 152 477 0
2018-10-18 18:19:59 GMT 33.252869 30.853588 37,025 152 477 -64
2018-10-18 18:19:55 GMT 33.259621 30.849329 37,025 152 477 -64
2018-10-18 18:19:52 GMT 33.266418 30.845051 37,025 152 477 -64
2018-10-18 18:19:36 GMT 33.297409 30.825548 37,025 152 477 0
2018-10-18 18:19:32 GMT 33.305328 30.820551 37,025 152 477 0
2018-10-18 18:19:28 GMT 33.311756 30.816483 37,025 152 477 0
2018-10-18 18:19:23 GMT 33.322605 30.809645 37,025 152 477 0
2018-10-18 18:19:18 GMT 33.333298 30.802862 37,025 152 477 0
2018-10-18 18:19:06 GMT 33.357937 30.787279 37,025 152 478 64
2018-10-18 18:19:01 GMT 33.366318 30.781954 37,025 152 478 64
2018-10-18 18:18:56 GMT 33.374512 30.776796 37,025 152 478 64
2018-10-18 18:18:46 GMT 33.395233 30.763697 37,025 152 478 64
2018-10-18 18:18:40 GMT 33.406677 30.756500 37,000 152 478 0
2018-10-18 18:18:36 GMT 33.415558 30.750841 37,025 151 479 0
2018-10-18 18:18:30 GMT 33.426956 30.743647 37,025 151 479 0
2018-10-18 18:18:25 GMT 33.437218 30.737112 37,025 151 478 0
2018-10-18 18:18:13 GMT 33.460213 30.722538 37,025 151 476 0
2018-10-18 18:18:07 GMT 33.471058 30.715698 37,000 152 477 64
2018-10-18 18:18:02 GMT 33.481659 30.708984 37,000 152 477 64
2018-10-18 18:17:58 GMT 33.488708 30.704479 37,000 152 477 0
2018-10-18 18:17:52 GMT 33.500473 30.697063 37,000 152 477 0
2018-10-18 18:17:45 GMT 33.513611 30.688715 37,000 151 476 0
2018-10-18 18:17:41 GMT 33.521847 30.683470 37,000 151 476 64
2018-10-18 18:17:35 GMT 33.533298 30.676182 37,000 151 476 0
2018-10-18 18:17:30 GMT 33.542564 30.670280 37,000 151 476 0
2018-10-18 18:17:25 GMT 33.552475 30.663963 37,000 151 476 64
2018-10-18 18:17:19 GMT 33.563919 30.656675 37,000 152 475 0
2018-10-18 18:17:14 GMT 33.573845 30.650368 37,000 152 475 0
2018-10-18 18:17:09 GMT 33.584461 30.643616 37,000 152 475 0
2018-10-18 18:16:58 GMT 33.605942 30.629938 37,000 151 476 0
2018-10-18 18:16:47 GMT 33.626450 30.616879 37,000 151 475 0
2018-10-18 18:16:40 GMT 33.641235 30.607407 37,025 151 474 0
2018-10-18 18:16:36 GMT 33.648697 30.602697 37,025 151 474 0
2018-10-18 18:16:29 GMT 33.662949 30.593605 37,025 151 474 0
2018-10-18 18:16:23 GMT 33.673096 30.587114 37,025 151 474 0
2018-10-18 18:16:20 GMT 33.679321 30.583136 37,000 151 474 64
2018-10-18 18:16:06 GMT 33.707565 30.565199 37,000 152 474 64
2018-10-18 18:16:00 GMT 33.719238 30.557798 37,000 151 474 0
2018-10-18 18:15:55 GMT 33.729675 30.551128 37,000 151 474 0
2018-10-18 18:15:43 GMT 33.751209 30.537357 37,000 151 473 64
2018-10-18 18:15:36 GMT 33.765381 30.528315 37,000 152 473 64
2018-10-18 18:15:32 GMT 33.773575 30.523102 37,000 152 473 64
2018-10-18 18:15:22 GMT 33.791199 30.511837 37,000 151 472 0
2018-10-18 18:15:19 GMT 33.798183 30.507374 37,000 151 472 0
2018-10-18 18:15:12 GMT 33.812393 30.498272 37,000 151 472 0
2018-10-18 18:15:08 GMT 33.819168 30.493956 37,000 151 472 0
2018-10-18 18:14:56 GMT 33.841892 30.479450 37,000 151 472 0
2018-10-18 18:14:51 GMT 33.851303 30.473440 37,000 151 472 0
2018-10-18 18:14:47 GMT 33.859909 30.467892 37,000 151 472 0
2018-10-18 18:14:42 GMT 33.868973 30.462116 37,000 151 472 0
2018-10-18 18:14:34 GMT 33.886276 30.451075 37,000 151 472 0
2018-10-18 18:14:23 GMT 33.906879 30.437908 37,000 151 472 0
2018-10-18 18:14:15 GMT 33.921730 30.428352 37,000 151 472 0
2018-10-18 18:14:11 GMT 33.928993 30.423660 37,000 151 471 0
2018-10-18 18:14:04 GMT 33.941936 30.415363 37,000 151 472 0
2018-10-18 18:13:56 GMT 33.958694 30.404551 37,000 151 471 0
2018-10-18 18:13:53 GMT 33.964375 30.400887 37,000 151 472 0
2018-10-18 18:13:49 GMT 33.971146 30.396536 36,975 151 472 0
2018-10-18 18:13:43 GMT 33.983784 30.388412 36,975 151 472 0
2018-10-18 18:13:40 GMT 33.989594 30.384651 36,975 151 471 0
2018-10-18 18:13:32 GMT 34.003757 30.375538 37,000 151 471 0
2018-10-18 18:13:27 GMT 34.013260 30.369406 37,000 151 471 0
2018-10-18 18:13:21 GMT 34.025635 30.361404 37,000 151 471 0
2018-10-18 18:13:18 GMT 34.033085 30.356598 37,000 151 471 0
2018-10-18 18:13:10 GMT 34.045837 30.348415 36,975 151 470 0
2018-10-18 18:13:07 GMT 34.051575 30.344687 36,975 151 470 0
2018-10-18 18:13:00 GMT 34.066727 30.334934 36,975 151 470 0
2018-10-18 18:12:49 GMT 34.087273 30.321693 37,000 151 469 0
2018-10-18 18:12:38 GMT 34.108337 30.308084 37,000 151 469 0
2018-10-18 18:12:28 GMT 34.128159 30.295303 37,000 151 470 0
2018-10-18 18:12:18 GMT 34.147018 30.283140 37,000 151 470 0
2018-10-18 18:12:07 GMT 34.167759 30.269737 37,000 151 469 0
2018-10-18 18:11:56 GMT 34.187824 30.256805 37,000 151 469 0
2018-10-18 18:11:45 GMT 34.209229 30.243008 37,000 151 469 0
2018-10-18 18:11:35 GMT 34.228603 30.230484 37,000 151 469 -64
2018-10-18 18:11:24 GMT 34.249599 30.216866 37,000 151 469 -64
2018-10-18 18:11:13 GMT 34.271107 30.202961 37,025 151 469 0
2018-10-18 18:11:04 GMT 34.289200 30.191214 37,000 151 469 64
2018-10-18 18:10:53 GMT 34.309113 30.178267 37,000 151 470 0
2018-10-18 18:10:43 GMT 34.328644 30.165596 37,000 151 470 0
2018-10-18 18:10:33 GMT 34.348801 30.152493 37,025 151 470 0
2018-10-18 18:10:21 GMT 34.370914 30.138130 37,000 151 470 0
2018-10-18 18:10:12 GMT 34.389084 30.126305 37,025 151 470 0
2018-10-18 18:10:01 GMT 34.410297 30.112495 37,000 151 470 64
2018-10-18 18:09:50 GMT 34.431152 30.098841 37,000 151 470 0
2018-10-18 18:09:38 GMT 34.452938 30.084629 37,000 151 470 0
2018-10-18 18:09:25 GMT 34.477890 30.068348 37,025 151 470 -64
2018-10-18 18:09:16 GMT 34.496063 30.056520 37,025 151 469 0
2018-10-18 18:09:05 GMT 34.517551 30.042572 37,025 151 469 0
2018-10-18 18:08:55 GMT 34.535709 30.030727 37,025 150 470 0
2018-10-18 18:08:44 GMT 34.556190 30.016479 37,025 148 472 0
2018-10-18 18:08:34 GMT 34.575256 30.002092 37,025 146 473 -64
2018-10-18 18:08:28 GMT 34.587296 29.992395 37,025 146 473 -64
2018-10-18 18:08:24 GMT 34.593384 29.987295 37,025 144 474 0
2018-10-18 18:08:19 GMT 34.601807 29.980007 37,025 143 474 64
2018-10-18 18:08:13 GMT 34.613079 29.969788 37,025 142 475 0
2018-10-18 18:08:08 GMT 34.621086 29.962234 37,025 141 476 0
2018-10-18 18:08:03 GMT 34.630161 29.953423 37,025 140 476 0
2018-10-18 18:07:57 GMT 34.641197 29.942493 37,025 140 476 0
2018-10-18 18:07:50 GMT 34.652573 29.931242 37,025 140 476 0
2018-10-18 18:07:47 GMT 34.658096 29.925728 37,025 140 476 0
2018-10-18 18:07:42 GMT 34.666077 29.917845 37,025 140 476 0
2018-10-18 18:07:36 GMT 34.677017 29.906971 37,025 140 476 64
2018-10-18 18:07:31 GMT 34.684479 29.899628 37,025 140 476 64
2018-10-18 18:07:25 GMT 34.695618 29.888535 37,025 140 476 128
2018-10-18 18:07:20 GMT 34.704071 29.880178 37,000 140 476 128
2018-10-18 18:07:12 GMT 34.719589 29.864731 37,000 140 476 0
2018-10-18 18:07:09 GMT 34.722801 29.861526 37,000 140 476 0
2018-10-18 18:06:59 GMT 34.739090 29.845369 37,000 140 474 0
2018-10-18 18:06:52 GMT 34.751358 29.833206 37,000 140 474 0
2018-10-18 18:06:48 GMT 34.757950 29.826622 37,000 140 474 64
2018-10-18 18:06:43 GMT 34.768433 29.816221 37,000 140 474 64
2018-10-18 18:06:37 GMT 34.776627 29.808039 36,975 140 474 64
2018-10-18 18:06:33 GMT 34.786194 29.798565 36,975 140 473 0
2018-10-18 18:06:27 GMT 34.793842 29.790916 36,975 140 473 0
2018-10-18 18:06:21 GMT 34.804409 29.780445 37,000 140 473 0
2018-10-18 18:06:17 GMT 34.811764 29.773064 36,975 140 473 0
2018-10-18 18:06:10 GMT 34.824703 29.760189 36,975 140 472 64
2018-10-18 18:06:06 GMT 34.829544 29.755348 36,975 140 472 64
2018-10-18 18:05:55 GMT 34.848820 29.736156 36,975 140 472 64
2018-10-18 18:05:44 GMT 34.866531 29.718410 36,975 140 472 0
2018-10-18 18:05:39 GMT 34.877151 29.707815 36,975 140 472 -64
2018-10-18 18:05:34 GMT 34.884338 29.700697 36,975 140 472 -64
2018-10-18 18:05:28 GMT 34.896629 29.688435 36,975 140 472 -64
2018-10-18 18:05:22 GMT 34.903519 29.681568 37,000 140 471 -64
2018-10-18 18:05:14 GMT 34.917755 29.667345 36,975 140 471 64
2018-10-18 18:05:00 GMT 34.940434 29.644604 36,975 140 471 0
2018-10-18 18:04:53 GMT 34.953003 29.632015 37,000 140 471 0
2018-10-18 18:04:50 GMT 34.958313 29.626707 37,000 140 471 0
2018-10-18 18:04:39 GMT 34.977070 29.607983 37,000 140 471 0
2018-10-18 18:04:28 GMT 34.995300 29.589657 37,000 140 471 0
2018-10-18 18:04:20 GMT 35.010960 29.573994 37,000 140 471 0
2018-10-18 18:04:16 GMT 35.016174 29.568748 37,000 140 471 0
2018-10-18 18:04:13 GMT 35.021435 29.563465 37,000 140 472 0
2018-10-18 18:04:08 GMT 35.029541 29.555353 37,000 140 472 0
2018-10-18 18:04:05 GMT 35.033817 29.551048 37,000 140 472 0
2018-10-18 18:03:58 GMT 35.046478 29.538368 37,000 140 472 0
2018-10-18 18:03:54 GMT 35.052979 29.531811 37,000 140 472 0
2018-10-18 18:03:50 GMT 35.059250 29.525534 37,000 140 472 0
2018-10-18 18:03:47 GMT 35.065659 29.519005 37,000 140 472 0
2018-10-18 18:03:42 GMT 35.072128 29.512539 37,000 140 472 -64
2018-10-18 18:03:39 GMT 35.077286 29.507372 37,000 140 473 0
2018-10-18 18:03:36 GMT 35.085117 29.499493 37,025 140 473 0
2018-10-18 18:03:29 GMT 35.094986 29.489594 37,025 140 473 0
2018-10-18 18:03:21 GMT 35.109093 29.475403 37,025 140 472 0
2018-10-18 18:03:18 GMT 35.112724 29.471798 37,025 140 473 0
2018-10-18 18:03:15 GMT 35.119381 29.465160 37,025 140 473 0
2018-10-18 18:03:09 GMT 35.128738 29.455719 37,025 140 472 0
2018-10-18 18:03:05 GMT 35.138744 29.445591 37,025 140 472 0
2018-10-18 18:02:59 GMT 35.145638 29.438667 37,025 140 472 0
2018-10-18 18:02:52 GMT 35.157303 29.426880 37,025 140 472 0
2018-10-18 18:02:46 GMT 35.168106 29.416006 37,025 140 472 0
2018-10-18 18:02:42 GMT 35.174240 29.409784 37,025 140 472 0
2018-10-18 18:02:37 GMT 35.182552 29.401417 37,025 140 473 0
2018-10-18 18:02:33 GMT 35.192139 29.391790 37,025 140 472 0
2018-10-18 18:02:27 GMT 35.199917 29.383965 37,025 140 472 0
2018-10-18 18:02:22 GMT 35.209167 29.374582 37,025 140 472 0
2018-10-18 18:02:15 GMT 35.219238 29.364437 37,025 140 472 0
2018-10-18 18:02:11 GMT 35.227753 29.355812 37,025 140 472 0
2018-10-18 18:02:05 GMT 35.236507 29.346994 37,000 140 472 0
2018-10-18 18:02:01 GMT 35.246338 29.336987 37,000 140 472 0
2018-10-18 18:01:54 GMT 35.255951 29.327316 37,000 140 472 0
2018-10-18 18:01:50 GMT 35.262405 29.320793 37,025 140 472 0
2018-10-18 18:01:44 GMT 35.271652 29.311407 37,000 140 472 0
2018-10-18 18:01:39 GMT 35.280220 29.302757 37,000 140 472 0
2018-10-18 18:01:35 GMT 35.289871 29.292984 37,000 140 472 0
2018-10-18 18:01:29 GMT 35.297535 29.285227 37,000 140 472 0
2018-10-18 18:01:23 GMT 35.308151 29.274414 37,000 140 473 0
2018-10-18 18:01:18 GMT 35.316147 29.266376 37,000 140 472 0
2018-10-18 18:01:13 GMT 35.324909 29.257410 37,025 140 472 0
2018-10-18 18:01:07 GMT 35.334545 29.247650 37,025 140 473 0
2018-10-18 18:01:02 GMT 35.343796 29.238338 37,000 140 472 64
2018-10-18 18:00:56 GMT 35.352951 29.229012 37,025 140 472 0
2018-10-18 18:00:51 GMT 35.361500 29.220360 37,025 140 472 0
2018-10-18 18:00:45 GMT 35.370850 29.210873 37,025 140 472 64
2018-10-18 18:00:40 GMT 35.379868 29.201717 37,025 140 472 64
2018-10-18 18:00:34 GMT 35.390121 29.191303 37,000 140 472 64
2018-10-18 18:00:31 GMT 35.397858 29.183521 37,000 140 472 64
2018-10-18 18:00:24 GMT 35.407242 29.173965 37,000 140 472 64
2018-10-18 18:00:19 GMT 35.414841 29.166241 37,000 140 472 0
2018-10-18 18:00:13 GMT 35.425789 29.155085 37,000 140 472 0
2018-10-18 18:00:09 GMT 35.432446 29.148365 37,000 140 472 0
2018-10-18 18:00:03 GMT 35.442825 29.137789 37,000 140 472 0
2018-10-18 17:59:59 GMT 35.451416 29.129047 37,000 140 472 0
2018-10-18 17:59:52 GMT 35.461304 29.118977 37,000 140 472 64
2018-10-18 17:59:47 GMT 35.468895 29.111258 37,000 140 472 64
2018-10-18 17:59:41 GMT 35.478882 29.101124 37,000 140 472 64
2018-10-18 17:59:37 GMT 35.486259 29.093609 37,000 140 472 0
2018-10-18 17:59:31 GMT 35.496593 29.083090 37,000 140 471 0
2018-10-18 17:59:26 GMT 35.504471 29.075089 37,000 140 472 0
2018-10-18 17:59:19 GMT 35.515594 29.063702 37,000 140 472 -64
2018-10-18 17:59:15 GMT 35.522598 29.056492 37,000 140 471 -64
2018-10-18 17:59:09 GMT 35.533276 29.045572 37,000 140 470 -64
2018-10-18 17:59:04 GMT 35.541004 29.037624 37,000 140 470 -64
2018-10-18 17:58:58 GMT 35.551392 29.027081 37,000 140 470 -64
2018-10-18 17:58:55 GMT 35.557812 29.020502 37,025 140 470 0
2018-10-18 17:58:47 GMT 35.569473 29.008598 37,025 140 470 0
2018-10-18 17:58:44 GMT 35.575653 29.002304 37,025 140 470 -64
2018-10-18 17:58:36 GMT 35.588287 28.989429 37,025 140 470 0
2018-10-18 17:58:33 GMT 35.594788 28.982792 37,025 140 470 0
2018-10-18 17:58:26 GMT 35.604904 28.972492 37,025 140 470 64
2018-10-18 17:58:23 GMT 35.612045 28.965168 37,025 140 470 64
2018-10-18 17:58:15 GMT 35.622803 28.954182 37,000 140 470 0
2018-10-18 17:58:12 GMT 35.629623 28.947144 37,000 140 470 0
2018-10-18 17:58:04 GMT 35.641937 28.934555 37,000 140 470 0
2018-10-18 17:58:01 GMT 35.647797 28.928579 37,000 140 470 0
2018-10-18 17:57:54 GMT 35.658829 28.917217 37,000 140 470 -64
2018-10-18 17:57:51 GMT 35.665741 28.910179 37,000 140 470 0
2018-10-18 17:57:43 GMT 35.676498 28.899136 37,025 140 469 0
2018-10-18 17:57:38 GMT 35.685013 28.890381 37,025 140 469 0
2018-10-18 17:57:32 GMT 35.695496 28.879566 37,025 139 470 64
2018-10-18 17:57:29 GMT 35.701237 28.873648 37,025 140 469 64
2018-10-18 17:57:21 GMT 35.713120 28.861427 37,000 140 469 0
2018-10-18 17:57:18 GMT 35.720184 28.854130 37,000 140 469 0
2018-10-18 17:57:10 GMT 35.732986 28.841000 37,000 140 470 0
2018-10-18 17:57:07 GMT 35.738201 28.835663 37,000 140 470 0
2018-10-18 17:57:00 GMT 35.748917 28.824692 37,000 140 470 0
2018-10-18 17:56:56 GMT 35.755783 28.817654 37,000 140 470 0
2018-10-18 17:56:47 GMT 35.772583 28.800430 37,000 140 469 0
2018-10-18 17:56:36 GMT 35.791130 28.781317 37,000 140 469 0
2018-10-18 17:56:27 GMT 35.803699 28.768400 37,000 140 469 0
2018-10-18 17:56:24 GMT 35.809433 28.762493 37,000 139 469 0
2018-10-18 17:56:15 GMT 35.826553 28.744755 37,000 139 469 0
2018-10-18 17:56:04 GMT 35.844059 28.726677 37,000 139 469 0
2018-10-18 17:55:55 GMT 35.857048 28.713236 37,000 140 469 0
2018-10-18 17:55:52 GMT 35.862122 28.708019 37,000 140 469 0
2018-10-18 17:55:42 GMT 35.880928 28.688635 37,000 139 469 0
2018-10-18 17:55:32 GMT 35.897270 28.671745 37,000 139 469 64
2018-10-18 17:55:20 GMT 35.915451 28.653030 36,975 140 468 64
2018-10-18 17:55:10 GMT 35.933487 28.634403 36,975 139 469 64
2018-10-18 17:55:00 GMT 35.950569 28.616697 36,975 139 469 0
2018-10-18 17:54:48 GMT 35.969788 28.596897 36,975 139 469 0
2018-10-18 17:54:38 GMT 35.986450 28.579617 36,975 139 469 64
2018-10-18 17:54:27 GMT 36.004898 28.560421 36,975 139 469 64
2018-10-18 17:54:16 GMT 36.023071 28.541451 36,950 139 469 0
2018-10-18 17:54:06 GMT 36.040276 28.523605 36,975 139 469 -64
2018-10-18 17:53:54 GMT 36.059189 28.503971 36,975 139 469 0
2018-10-18 17:53:43 GMT 36.077332 28.485094 36,975 139 469 64
2018-10-18 17:53:35 GMT 36.091019 28.470894 36,975 139 469 0
2018-10-18 17:53:31 GMT 36.096176 28.465519 36,975 139 469 0
2018-10-18 17:53:24 GMT 36.109222 28.452015 36,975 139 470 -64
2018-10-18 17:53:18 GMT 36.117882 28.443020 36,975 139 471 0
2018-10-18 17:53:13 GMT 36.129089 28.431358 36,975 139 471 0
2018-10-18 17:53:00 GMT 36.148865 28.410759 36,975 139 471 0
2018-10-18 17:52:51 GMT 36.164291 28.394749 37,000 139 471 -64
2018-10-18 17:52:41 GMT 36.181778 28.376484 37,000 139 471 -64
2018-10-18 17:52:30 GMT 36.198624 28.358860 37,000 139 471 0
2018-10-18 17:52:27 GMT 36.203861 28.353374 37,000 139 472 0
2018-10-18 17:52:20 GMT 36.217175 28.339466 37,000 139 472 -64
2018-10-18 17:52:15 GMT 36.223927 28.332455 37,000 139 473 -64
2018-10-18 17:52:08 GMT 36.235382 28.320408 37,000 139 473 -64
2018-10-18 17:52:03 GMT 36.243664 28.311768 37,000 139 474 -64
2018-10-18 17:51:58 GMT 36.252502 28.302555 37,025 139 474 -64
2018-10-18 17:51:53 GMT 36.260235 28.294470 37,025 139 474 -64
2018-10-18 17:51:47 GMT 36.272095 28.282127 37,025 139 474 0
2018-10-18 17:51:42 GMT 36.278915 28.274975 37,025 139 475 0
2018-10-18 17:51:35 GMT 36.290310 28.263029 37,025 139 475 0
2018-10-18 17:51:30 GMT 36.298782 28.254204 37,025 139 475 0
2018-10-18 17:51:25 GMT 36.307533 28.245090 37,025 139 475 0
2018-10-18 17:51:19 GMT 36.317543 28.234631 37,025 139 476 0
2018-10-18 17:51:14 GMT 36.325882 28.225880 37,025 139 476 0
2018-10-18 17:51:07 GMT 36.337746 28.213417 37,025 139 477 0
2018-10-18 17:51:03 GMT 36.344215 28.206579 37,025 139 477 0
2018-10-18 17:50:52 GMT 36.362511 28.187412 37,025 139 477 64
2018-10-18 17:50:44 GMT 36.378201 28.170933 37,025 139 478 0
2018-10-18 17:50:32 GMT 36.397614 28.150578 37,025 139 478 0
2018-10-18 17:50:22 GMT 36.416374 28.130960 37,025 139 479 -64
2018-10-18 17:50:18 GMT 36.420052 28.127104 37,025 139 479 -64
2018-10-18 17:50:12 GMT 36.433552 28.112963 37,025 139 479 0
2018-10-18 17:50:08 GMT 36.436996 28.109339 37,025 139 479 0
2018-10-18 17:49:58 GMT 36.453754 28.091633 37,025 139 479 0
2018-10-18 17:49:51 GMT 36.469208 28.075333 37,025 139 479 0
2018-10-18 17:49:47 GMT 36.472595 28.071728 37,025 139 479 0
2018-10-18 17:49:37 GMT 36.490482 28.052889 37,025 139 480 0
2018-10-18 17:49:26 GMT 36.509033 28.033390 37,025 139 480 0
2018-10-18 17:49:18 GMT 36.528236 28.013208 37,025 139 480 0
2018-10-18 17:49:08 GMT 36.541504 27.999243 37,025 139 480 64
2018-10-18 17:49:04 GMT 36.546890 27.993565 37,025 139 480 64
2018-10-18 17:48:56 GMT 36.560074 27.979546 37,025 139 480 0
2018-10-18 17:48:53 GMT 36.564503 27.974873 37,000 139 480 0
2018-10-18 17:48:45 GMT 36.578327 27.960381 37,000 141 478 0
2018-10-18 17:48:42 GMT 36.583694 27.954941 37,000 141 478 0
2018-10-18 17:48:36 GMT 36.596298 27.942848 37,000 143 477 64
2018-10-18 17:48:31 GMT 36.603001 27.936831 37,000 144 476 64
2018-10-18 17:48:23 GMT 36.617107 27.924791 37,000 146 475 64
2018-10-18 17:48:20 GMT 36.623245 27.919807 37,000 147 475 64
2018-10-18 17:48:09 GMT 36.642929 27.905102 36,975 150 473 64
2018-10-18 17:48:04 GMT 36.655140 27.896858 36,975 152 472 0
2018-10-18 17:47:58 GMT 36.665085 27.890568 36,975 153 471 0
2018-10-18 17:47:52 GMT 36.676712 27.883358 36,975 153 470 0
2018-10-18 17:47:47 GMT 36.686096 27.877632 36,975 153 470 0
2018-10-18 17:47:43 GMT 36.696350 27.871284 36,975 153 470 64
2018-10-18 17:47:37 GMT 36.705788 27.865477 36,975 153 470 0
2018-10-18 17:47:31 GMT 36.719055 27.857296 36,975 153 469 64
2018-10-18 17:47:25 GMT 36.729111 27.851160 36,975 153 469 64
2018-10-18 17:47:20 GMT 36.738190 27.845608 36,975 153 469 64
2018-10-18 17:47:17 GMT 36.744232 27.841873 36,975 153 469 0
2018-10-18 17:47:09 GMT 36.760254 27.832050 36,975 153 469 0
2018-10-18 17:47:06 GMT 36.766342 27.828369 36,975 153 469 0
2018-10-18 17:46:58 GMT 36.781540 27.818985 36,975 153 469 0
2018-10-18 17:46:55 GMT 36.787720 27.815222 36,975 153 469 0
2018-10-18 17:46:48 GMT 36.806900 27.803474 36,975 153 468 0
2018-10-18 17:46:37 GMT 36.823051 27.793539 36,975 153 467 0
2018-10-18 17:46:34 GMT 36.827847 27.790560 36,975 153 467 0
2018-10-18 17:46:26 GMT 36.843842 27.780704 36,975 153 467 -64
2018-10-18 17:46:14 GMT 36.868195 27.765608 36,975 153 467 -64
2018-10-18 17:46:03 GMT 36.888737 27.752897 37,000 153 466 -64
2018-10-18 17:45:53 GMT 36.927517 27.728834 37,000 153 466 0
2018-10-18 17:45:43 GMT 36.927517 27.728834 37,000 153 466 64
2018-10-18 17:45:40 GMT 36.951164 27.714207 37,000 153 467 64
2018-10-18 17:45:31 GMT 36.951164 27.714207 37,000 153 467 0
2018-10-18 17:45:23 GMT 36.966667 27.704594 37,000 153 466 0
2018-10-18 17:45:20 GMT 36.971600 27.701550 37,000 153 466 0
2018-10-18 17:45:14 GMT 36.985893 27.692713 37,000 153 466 0
2018-10-18 17:45:10 GMT 36.991791 27.688995 37,000 153 465 0
2018-10-18 17:44:59 GMT 37.013592 27.675455 37,000 153 465 0
2018-10-18 17:44:49 GMT 37.032539 27.663694 37,000 153 464 0
2018-10-18 17:44:37 GMT 37.054596 27.650076 37,000 153 463 0
2018-10-18 17:44:27 GMT 37.074295 27.637899 37,000 153 462 0
2018-10-18 17:44:23 GMT 37.083000 27.632465 37,000 153 461 0
2018-10-18 17:44:16 GMT 37.095932 27.624363 37,000 153 461 64
2018-10-18 17:44:05 GMT 37.117168 27.611151 37,000 153 461 0
2018-10-18 17:43:57 GMT 37.133377 27.601105 37,000 153 461 0
2018-10-18 17:43:54 GMT 37.137451 27.598591 37,000 153 461 128
2018-10-18 17:43:49 GMT 37.147846 27.592102 36,975 153 461 320
2018-10-18 17:43:46 GMT 37.152603 27.589184 36,975 153 461 320
2018-10-18 17:43:42 GMT 37.159580 27.584820 36,950 153 461 448
2018-10-18 17:43:37 GMT 37.169174 27.578838 36,925 153 461 512
2018-10-18 17:43:34 GMT 37.175491 27.574865 36,875 153 461 512
2018-10-18 17:43:31 GMT 37.181179 27.571325 36,875 153 461 512
2018-10-18 17:43:26 GMT 37.193005 27.563921 36,800 153 461 512
2018-10-18 17:43:19 GMT 37.203827 27.557159 36,775 153 461 448
2018-10-18 17:43:14 GMT 37.215225 27.550030 36,725 153 462 448
2018-10-18 17:43:09 GMT 37.223053 27.545120 36,700 153 461 512
2018-10-18 17:43:05 GMT 37.232292 27.539322 36,650 153 461 512
2018-10-18 17:43:01 GMT 37.238113 27.535654 36,625 153 461 512
2018-10-18 17:42:58 GMT 37.243977 27.531977 36,600 153 461 512
2018-10-18 17:42:55 GMT 37.252487 27.526653 36,575 153 462 512
2018-10-18 17:42:47 GMT 37.265484 27.518543 36,525 153 461 448
2018-10-18 17:42:43 GMT 37.273632 27.513409 36,475 153 461 512
2018-10-18 17:42:36 GMT 37.286591 27.505323 36,425 153 461 512
2018-10-18 17:42:32 GMT 37.294876 27.500122 36,400 153 460 512
2018-10-18 17:42:25 GMT 37.307327 27.492292 36,325 153 460 512
2018-10-18 17:42:19 GMT 37.320091 27.484329 36,300 153 460 512
2018-10-18 17:42:12 GMT 37.335732 27.474478 36,225 153 460 512
2018-10-18 17:42:04 GMT 37.347885 27.466871 36,150 153 461 512
2018-10-18 17:41:58 GMT 37.358730 27.460089 36,100 153 462 512
2018-10-18 17:41:51 GMT 37.375580 27.449516 36,025 153 462 512
2018-10-18 17:41:43 GMT 37.388756 27.441219 35,975 153 462 512
2018-10-18 17:41:40 GMT 37.396530 27.436384 35,950 153 464 512
2018-10-18 17:41:32 GMT 37.410049 27.427895 35,875 153 464 512
2018-10-18 17:41:24 GMT 37.424286 27.418896 35,825 153 465 448
2018-10-18 17:41:21 GMT 37.430885 27.414770 35,800 153 465 512
2018-10-18 17:41:10 GMT 37.452393 27.401188 35,700 153 465 448
2018-10-18 17:41:03 GMT 37.464294 27.393766 35,650 153 463 448
2018-10-18 17:40:59 GMT 37.472969 27.388319 35,625 153 462 448
2018-10-18 17:40:50 GMT 37.489216 27.378109 35,550 153 461 512
2018-10-18 17:40:47 GMT 37.497894 27.372612 35,525 153 460 512
2018-10-18 17:40:41 GMT 37.508652 27.365833 35,475 153 459 576
2018-10-18 17:40:37 GMT 37.514053 27.362444 35,450 153 459 576
2018-10-18 17:40:30 GMT 37.527832 27.353794 35,375 153 458 512
2018-10-18 17:40:26 GMT 37.535255 27.349150 35,350 153 458 512
2018-10-18 17:40:18 GMT 37.550491 27.339537 35,275 153 457 448
2018-10-18 17:40:14 GMT 37.560394 27.333267 35,225 153 457 448
2018-10-18 17:40:08 GMT 37.570679 27.326797 35,200 153 457 512
2018-10-18 17:40:04 GMT 37.577362 27.322590 35,175 153 457 512
2018-10-18 17:39:54 GMT 37.597229 27.310143 35,075 153 455 576
2018-10-18 17:39:45 GMT 37.612949 27.300188 35,000 153 453 256
2018-10-18 17:39:41 GMT 37.620586 27.295412 34,975 153 453 128
2018-10-18 17:39:35 GMT 37.632736 27.287769 34,975 153 453 0
2018-10-18 17:39:32 GMT 37.638199 27.284254 34,975 153 453 0
2018-10-18 17:39:24 GMT 37.655174 27.273560 34,975 153 453 -64
2018-10-18 17:39:21 GMT 37.658154 27.271709 34,975 153 453 -64
2018-10-18 17:39:10 GMT 37.678574 27.258776 35,000 153 453 -64
2018-10-18 17:39:00 GMT 37.698624 27.246035 35,000 153 452 64
2018-10-18 17:38:49 GMT 37.718250 27.233555 35,000 153 453 -64
2018-10-18 17:38:38 GMT 37.739044 27.220381 35,000 153 453 -64
2018-10-18 17:38:26 GMT 37.761429 27.206121 35,000 153 453 -64
2018-10-18 17:38:16 GMT 37.783009 27.192415 35,025 153 453 0
2018-10-18 17:38:04 GMT 37.804325 27.178862 35,025 153 454 0
2018-10-18 17:37:55 GMT 37.820526 27.168592 35,025 153 454 0
2018-10-18 17:37:44 GMT 37.841263 27.155457 35,025 153 454 0
2018-10-18 17:37:33 GMT 37.861633 27.142441 35,025 153 454 0
2018-10-18 17:37:22 GMT 37.882141 27.129393 35,025 153 454 0
2018-10-18 17:37:17 GMT 37.890823 27.123871 35,025 153 455 0
2018-10-18 17:37:09 GMT 37.905670 27.114374 35,025 153 455 0
2018-10-18 17:36:58 GMT 37.926819 27.100992 35,025 153 455 0
2018-10-18 17:36:52 GMT 37.937805 27.093981 35,025 153 455 0
2018-10-18 17:36:47 GMT 37.950439 27.085915 35,025 153 456 64
2018-10-18 17:36:41 GMT 37.958740 27.080582 35,025 153 456 64
2018-10-18 17:36:37 GMT 37.966003 27.075926 35,025 153 456 64
2018-10-18 17:36:31 GMT 37.977642 27.068462 35,000 153 456 0
2018-10-18 17:36:26 GMT 37.987427 27.062248 35,000 153 456 0
2018-10-18 17:36:20 GMT 37.998642 27.055059 35,000 153 457 0
2018-10-18 17:36:17 GMT 38.004177 27.051563 35,000 153 457 0
2018-10-18 17:36:14 GMT 38.010178 27.047697 35,000 153 457 0
2018-10-18 17:36:11 GMT 38.014938 27.044718 35,000 153 457 0
2018-10-18 17:36:04 GMT 38.028625 27.035952 35,000 153 456 0
2018-10-18 17:35:55 GMT 38.050964 27.021576 35,000 153 456 0
2018-10-18 17:35:47 GMT 38.061527 27.014784 35,000 153 456 64
2018-10-18 17:35:42 GMT 38.070282 27.009129 35,000 153 456 64
2018-10-18 17:35:34 GMT 38.086075 26.999018 35,000 153 456 64
2018-10-18 17:35:30 GMT 38.092159 26.995081 34,975 153 456 64
2018-10-18 17:35:25 GMT 38.103699 26.987680 34,975 153 456 0
2018-10-18 17:35:20 GMT 38.111153 26.982901 34,975 153 456 0
2018-10-18 17:35:12 GMT 38.127136 26.972664 34,975 153 455 0
2018-10-18 17:35:09 GMT 38.131962 26.969585 34,975 153 455 0
2018-10-18 17:35:01 GMT 38.147789 26.959494 34,975 153 455 0
2018-10-18 17:34:57 GMT 38.154236 26.955364 34,975 153 455 0
2018-10-18 17:34:50 GMT 38.167786 26.946657 34,975 153 455 0
2018-10-18 17:34:46 GMT 38.174931 26.942059 34,975 153 455 0
2018-10-18 17:34:39 GMT 38.188709 26.933222 34,975 153 455 64
2018-10-18 17:34:34 GMT 38.199051 26.926556 34,975 153 455 0
2018-10-18 17:34:28 GMT 38.209053 26.920147 34,975 153 455 0
2018-10-18 17:34:23 GMT 38.219620 26.913340 34,975 153 454 0
2018-10-18 17:34:17 GMT 38.229355 26.907095 34,975 153 454 0
2018-10-18 17:34:14 GMT 38.236130 26.902714 34,975 153 454 0
2018-10-18 17:34:07 GMT 38.257652 26.888800 34,975 153 453 0
2018-10-18 17:34:02 GMT 38.257652 26.888800 34,975 153 453 0
2018-10-18 17:33:56 GMT 38.270279 26.880739 34,975 153 454 0
2018-10-18 17:33:52 GMT 38.278061 26.875772 34,975 153 453 0
2018-10-18 17:33:44 GMT 38.293488 26.865837 34,975 153 454 0
2018-10-18 17:33:41 GMT 38.298386 26.862707 34,975 153 453 -64
2018-10-18 17:33:35 GMT 38.310928 26.854677 34,975 153 454 -64
2018-10-18 17:33:29 GMT 38.337433 26.837496 34,975 152 453 -64
2018-10-18 17:33:20 GMT 38.337433 26.837496 35,000 152 453 -64
2018-10-18 17:33:12 GMT 38.352448 26.827738 35,000 153 454 0
2018-10-18 17:33:09 GMT 38.357162 26.824697 35,000 153 454 0
2018-10-18 17:33:00 GMT 38.374126 26.813686 35,000 153 454 0
2018-10-18 17:32:57 GMT 38.380459 26.809626 35,000 153 454 0
2018-10-18 17:32:50 GMT 38.393417 26.801207 35,000 153 454 0
2018-10-18 17:32:46 GMT 38.401016 26.796240 35,000 153 454 0
2018-10-18 17:32:38 GMT 38.415047 26.787170 35,000 153 454 -64
2018-10-18 17:32:35 GMT 38.421936 26.782715 35,000 153 454 0
2018-10-18 17:32:29 GMT 38.432365 26.775940 35,025 152 454 -64
2018-10-18 17:32:24 GMT 38.442673 26.769262 35,025 152 454 -64
2018-10-18 17:32:15 GMT 38.459549 26.758301 35,025 152 454 -64
2018-10-18 17:32:08 GMT 38.472244 26.750036 35,025 152 455 0
2018-10-18 17:32:04 GMT 38.479523 26.745260 35,025 152 455 0
2018-10-18 17:31:53 GMT 38.500332 26.731689 35,025 152 455 0
2018-10-18 17:31:50 GMT 38.505661 26.728245 35,025 152 455 0
2018-10-18 17:31:41 GMT 38.522675 26.717102 35,025 152 455 -64
2018-10-18 17:31:38 GMT 38.528046 26.713615 35,050 152 455 -64
2018-10-18 17:31:31 GMT 38.541992 26.704529 35,050 152 455 0
2018-10-18 17:31:22 GMT 38.557915 26.694214 35,050 152 455 0
2018-10-18 17:31:18 GMT 38.566498 26.688658 35,050 153 456 64
2018-10-18 17:31:09 GMT 38.585083 26.676596 35,050 153 456 64
2018-10-18 17:31:06 GMT 38.587894 26.674744 35,025 153 456 64
2018-10-18 17:31:01 GMT 38.597397 26.668594 35,025 153 456 64
2018-10-18 17:30:56 GMT 38.608521 26.661369 35,025 153 456 0
2018-10-18 17:30:51 GMT 38.616211 26.656355 35,025 152 457 0
2018-10-18 17:30:47 GMT 38.624809 26.650757 35,025 152 457 0
2018-10-18 17:30:40 GMT 38.637589 26.642443 35,025 153 456 64
2018-10-18 17:30:36 GMT 38.647343 26.636108 35,025 153 456 64
2018-10-18 17:30:30 GMT 38.657410 26.629545 35,025 152 457 64
2018-10-18 17:30:23 GMT 38.670200 26.621216 35,025 152 456 64
2018-10-18 17:30:19 GMT 38.677879 26.616211 35,025 152 456 0
2018-10-18 17:30:12 GMT 38.690552 26.607872 35,000 152 456 64
2018-10-18 17:30:00 GMT 38.712891 26.593243 34,975 152 456 64
2018-10-18 17:29:56 GMT 38.720444 26.588287 35,000 152 456 64
2018-10-18 17:29:49 GMT 38.733509 26.579773 34,975 152 456 64
2018-10-18 17:29:46 GMT 38.740311 26.575272 34,975 152 456 64
2018-10-18 17:29:31 GMT 38.767864 26.557190 34,975 152 455 0
2018-10-18 17:29:28 GMT 38.774185 26.553059 34,975 152 455 0
2018-10-18 17:29:24 GMT 38.781006 26.548580 34,975 152 455 0
2018-10-18 17:29:19 GMT 38.791580 26.541595 34,975 152 454 64
2018-10-18 17:29:12 GMT 38.802593 26.534363 34,975 152 454 0
2018-10-18 17:29:08 GMT 38.812183 26.528137 34,975 153 454 0
2018-10-18 17:29:01 GMT 38.822983 26.521116 34,975 153 454 0
2018-10-18 17:28:55 GMT 38.835087 26.513184 34,975 152 453 0
2018-10-18 17:28:50 GMT 38.844177 26.507025 34,975 151 453 0
2018-10-18 17:28:46 GMT 38.854500 26.499695 34,975 150 454 0
2018-10-18 17:28:35 GMT 38.874207 26.484753 34,975 148 455 0
2018-10-18 17:28:24 GMT 38.893791 26.468445 34,975 145 455 -64
2018-10-18 17:28:13 GMT 38.912201 26.451735 35,000 143 455 -64
2018-10-18 17:28:00 GMT 38.932526 26.432508 35,000 143 455 -64
2018-10-18 17:27:54 GMT 38.941830 26.423706 35,000 143 455 -64
2018-10-18 17:27:48 GMT 38.953171 26.412985 35,025 143 454 0
2018-10-18 17:27:42 GMT 38.962269 26.404419 35,025 143 455 0
2018-10-18 17:27:38 GMT 38.969513 26.397579 35,025 143 455 0
2018-10-18 17:27:28 GMT 38.986313 26.381638 35,025 143 455 0
2018-10-18 17:27:25 GMT 38.992107 26.376160 35,025 143 455 0
2018-10-18 17:27:20 GMT 39.000870 26.367844 35,025 143 455 0
2018-10-18 17:27:16 GMT 39.006168 26.362793 35,025 143 455 0
2018-10-18 17:27:03 GMT 39.030048 26.340149 35,025 143 456 0
2018-10-18 17:26:55 GMT 39.044174 26.326765 35,025 143 456 0
2018-10-18 17:26:38 GMT 39.073017 26.299438 35,025 143 456 0
2018-10-18 17:26:28 GMT 39.089127 26.284134 35,000 143 456 64
2018-10-18 17:26:17 GMT 39.106953 26.267151 35,000 143 456 64
2018-10-18 17:26:06 GMT 39.125015 26.250000 35,000 143 456 128
2018-10-18 17:25:58 GMT 39.138607 26.237061 34,975 143 456 64
2018-10-18 17:25:48 GMT 39.156738 26.219769 34,975 143 456 128
2018-10-18 17:25:35 GMT 39.179482 26.198120 34,950 143 456 0
2018-10-18 17:25:24 GMT 39.196564 26.181824 34,950 143 456 0
2018-10-18 17:25:13 GMT 39.215839 26.163452 34,950 143 456 -64
2018-10-18 17:25:03 GMT 39.232830 26.147156 34,975 143 456 -64
2018-10-18 17:24:50 GMT 39.256943 26.124268 34,975 143 455 0
2018-10-18 17:24:41 GMT 39.270630 26.111206 34,975 143 455 -64
2018-10-18 17:24:29 GMT 39.290974 26.091736 35,000 143 455 -64
2018-10-18 17:24:19 GMT 39.307777 26.075562 35,000 143 455 0
2018-10-18 17:24:12 GMT 39.318741 26.065063 35,000 143 455 0
2018-10-18 17:24:07 GMT 39.328400 26.055725 35,000 143 456 0
2018-10-18 17:24:01 GMT 39.338596 26.045959 35,000 143 456 0
2018-10-18 17:23:57 GMT 39.346252 26.038671 35,000 143 456 0
2018-10-18 17:23:51 GMT 39.353943 26.031269 35,000 143 456 0
2018-10-18 17:23:46 GMT 39.365551 26.020142 35,000 143 456 0
2018-10-18 17:23:41 GMT 39.372486 26.013489 35,000 143 456 -64
2018-10-18 17:23:35 GMT 39.383972 26.002548 35,000 143 456 64
2018-10-18 17:23:31 GMT 39.389011 25.997742 35,000 143 456 64
2018-10-18 17:23:23 GMT 39.401825 25.985472 35,000 143 457 64
2018-10-18 17:23:12 GMT 39.421188 25.966843 35,000 143 458 -64
2018-10-18 17:23:06 GMT 39.431946 25.956514 35,000 143 458 0
2018-10-18 17:23:01 GMT 39.439426 25.949280 35,000 143 458 0
2018-10-18 17:22:53 GMT 39.452591 25.936571 35,025 143 458 0
2018-10-18 17:22:50 GMT 39.458954 25.930422 35,025 143 458 0
2018-10-18 17:22:46 GMT 39.465042 25.924570 35,025 143 458 0
2018-10-18 17:22:43 GMT 39.470245 25.919556 35,000 143 458 0
2018-10-18 17:22:40 GMT 39.477787 25.912292 35,025 143 458 0
2018-10-18 17:22:35 GMT 39.484444 25.905884 35,000 143 458 0
2018-10-18 17:22:32 GMT 39.489349 25.901224 35,025 143 458 0
2018-10-18 17:22:29 GMT 39.495621 25.895193 35,025 143 459 0
2018-10-18 17:22:21 GMT 39.507397 25.883789 35,025 143 459 -64
2018-10-18 17:22:14 GMT 39.520340 25.871370 35,025 143 459 0
2018-10-18 17:22:11 GMT 39.525318 25.866577 35,025 143 460 0
2018-10-18 17:22:03 GMT 39.538956 25.853455 35,025 143 459 0
2018-10-18 17:21:58 GMT 39.547668 25.845037 35,025 143 460 0
2018-10-18 17:21:55 GMT 39.554398 25.838530 35,025 143 460 0
2018-10-18 17:21:48 GMT 39.564194 25.829037 35,025 143 460 0
2018-10-18 17:21:43 GMT 39.572662 25.820862 35,025 143 460 0
2018-10-18 17:21:37 GMT 39.582764 25.811157 35,025 143 460 0
2018-10-18 17:21:32 GMT 39.592300 25.801868 35,025 143 460 0
2018-10-18 17:21:27 GMT 39.599304 25.795122 35,025 143 460 0
2018-10-18 17:21:20 GMT 39.614418 25.780518 35,025 143 460 64
2018-10-18 17:21:15 GMT 39.620796 25.774353 35,025 143 460 64
2018-10-18 17:21:10 GMT 39.630852 25.764648 35,025 143 460 64
2018-10-18 17:21:06 GMT 39.635834 25.759775 35,025 143 461 64
2018-10-18 17:20:59 GMT 39.649658 25.746460 35,025 143 461 64
2018-10-18 17:20:55 GMT 39.655293 25.741028 35,025 143 461 0
2018-10-18 17:20:48 GMT 39.669304 25.727478 35,025 143 461 64
2018-10-18 17:20:45 GMT 39.671955 25.724915 35,025 143 461 64
2018-10-18 17:20:35 GMT 39.689693 25.707703 35,000 143 461 64
2018-10-18 17:20:22 GMT 39.710457 25.687439 35,000 143 461 0
2018-10-18 17:20:12 GMT 39.727772 25.670593 35,000 143 461 0
2018-10-18 17:20:02 GMT 39.745743 25.653435 35,000 144 460 -64
2018-10-18 17:19:51 GMT 39.765434 25.635986 35,000 146 459 0
2018-10-18 17:19:41 GMT 39.783077 25.620605 35,025 146 459 0
2018-10-18 17:19:29 GMT 39.803101 25.603100 35,025 146 459 0
2018-10-18 17:19:18 GMT 39.822132 25.586487 35,025 146 459 0
2018-10-18 17:19:10 GMT 39.837799 25.572887 35,025 146 458 0
2018-10-18 17:19:07 GMT 39.842384 25.568848 35,025 146 458 0
2018-10-18 17:18:58 GMT 39.858032 25.555214 35,025 146 457 64
2018-10-18 17:18:54 GMT 39.866180 25.548168 35,025 146 457 64
2018-10-18 17:18:46 GMT 39.881443 25.534912 35,000 146 457 64
2018-10-18 17:18:37 GMT 39.894989 25.523132 35,000 146 457 0
2018-10-18 17:18:34 GMT 39.901566 25.517420 35,000 146 456 0
2018-10-18 17:18:27 GMT 39.912354 25.507935 35,000 145 457 0
2018-10-18 17:18:20 GMT 39.925415 25.496460 35,000 146 456 0
2018-10-18 17:18:16 GMT 39.932236 25.490540 35,000 146 456 0
2018-10-18 17:18:11 GMT 39.941120 25.482788 35,000 146 456 -64
2018-10-18 17:18:05 GMT 39.950592 25.474487 35,000 146 456 0
2018-10-18 17:17:55 GMT 39.969006 25.458319 35,000 145 455 0
2018-10-18 17:17:48 GMT 39.982086 25.446899 35,000 146 455 64
2018-10-18 17:17:44 GMT 39.987579 25.442089 35,000 145 455 64
2018-10-18 17:17:34 GMT 40.005177 25.426670 35,000 145 455 0
2018-10-18 17:17:27 GMT 40.019348 25.414246 35,000 145 455 0
2018-10-18 17:17:24 GMT 40.023560 25.410583 35,000 145 455 -64
2018-10-18 17:17:13 GMT 40.042793 25.393711 35,000 146 454 64
2018-10-18 17:17:03 GMT 40.060528 25.378168 35,000 146 454 64
2018-10-18 17:16:52 GMT 40.079544 25.361450 35,000 146 454 -64
2018-10-18 17:16:40 GMT 40.099491 25.343962 35,000 145 453 0
2018-10-18 17:16:31 GMT 40.115067 25.330200 35,000 145 453 128
2018-10-18 17:16:26 GMT 40.124130 25.322266 34,975 145 453 128
2018-10-18 17:16:21 GMT 40.133385 25.314123 34,975 145 453 64
2018-10-18 17:16:17 GMT 40.140598 25.307756 34,975 145 453 0
2018-10-18 17:16:08 GMT 40.154984 25.295084 34,975 145 453 0
2018-10-18 17:16:04 GMT 40.161873 25.289028 34,975 145 453 0
2018-10-18 17:15:58 GMT 40.173935 25.278381 34,975 145 452 0
2018-10-18 17:15:53 GMT 40.181934 25.271301 34,975 145 452 0
2018-10-18 17:15:49 GMT 40.188782 25.265308 34,975 145 452 0
2018-10-18 17:15:45 GMT 40.194855 25.259949 34,975 145 452 0
2018-10-18 17:15:39 GMT 40.206886 25.249329 34,975 145 452 0
2018-10-18 17:15:34 GMT 40.215088 25.242004 34,975 145 452 64
2018-10-18 17:15:28 GMT 40.225204 25.233093 34,975 145 452 0
2018-10-18 17:15:23 GMT 40.234352 25.224983 34,950 145 452 0
2018-10-18 17:15:18 GMT 40.242920 25.217407 34,975 145 452 -64
2018-10-18 17:15:12 GMT 40.253174 25.208374 34,975 145 451 -64
2018-10-18 17:15:07 GMT 40.261868 25.200640 34,975 145 452 -64
2018-10-18 17:15:00 GMT 40.273499 25.190308 34,975 145 452 -64
2018-10-18 17:14:56 GMT 40.280163 25.184471 34,975 145 451 0
2018-10-18 17:14:49 GMT 40.292683 25.173361 34,975 145 451 0
2018-10-18 17:14:46 GMT 40.298630 25.168091 34,975 145 451 0
2018-10-18 17:14:39 GMT 40.310513 25.157631 34,975 145 451 0
2018-10-18 17:14:35 GMT 40.316704 25.152138 34,975 145 451 0
2018-10-18 17:14:25 GMT 40.341564 25.130102 34,975 145 452 0
2018-10-18 17:14:16 GMT 40.350677 25.121948 34,975 145 452 -64
2018-10-18 17:14:13 GMT 40.354477 25.118591 35,000 145 452 -64
2018-10-18 17:14:06 GMT 40.368073 25.106506 35,000 145 452 -64
2018-10-18 17:14:03 GMT 40.374023 25.101196 35,000 145 452 -64
2018-10-18 17:13:56 GMT 40.385284 25.091187 35,000 145 452 -64
2018-10-18 17:13:52 GMT 40.393890 25.083534 35,025 145 452 -64
2018-10-18 17:13:41 GMT 40.412384 25.067139 35,025 145 452 0
2018-10-18 17:13:33 GMT 40.425034 25.055944 35,025 145 452 -64
2018-10-18 17:13:29 GMT 40.432247 25.049515 35,025 145 453 0
2018-10-18 17:13:22 GMT 40.443283 25.039673 35,025 145 453 -64
2018-10-18 17:13:17 GMT 40.451523 25.032349 35,025 145 453 0
2018-10-18 17:13:11 GMT 40.462189 25.022827 35,025 145 454 0
2018-10-18 17:13:05 GMT 40.472980 25.013247 35,025 145 454 -64
2018-10-18 17:13:01 GMT 40.480335 25.006632 35,050 145 454 0
2018-10-18 17:12:56 GMT 40.490810 24.997267 35,050 145 454 0
2018-10-18 17:12:51 GMT 40.498119 24.990774 35,050 145 454 0
2018-10-18 17:12:40 GMT 40.516434 24.974487 35,050 145 455 0
2018-10-18 17:12:30 GMT 40.534607 24.958313 35,050 145 456 0
2018-10-18 17:12:20 GMT 40.552414 24.942383 35,050 145 456 64
2018-10-18 17:12:09 GMT 40.571346 24.925358 35,025 145 456 64
2018-10-18 17:11:59 GMT 40.588802 24.910002 35,025 147 457 64
2018-10-18 17:11:48 GMT 40.608765 24.893494 35,025 148 456 0
2018-10-18 17:11:38 GMT 40.626709 24.878906 35,025 148 456 0
2018-10-18 17:11:26 GMT 40.647217 24.862122 35,025 148 456 0
2018-10-18 17:11:16 GMT 40.667896 24.845268 35,025 148 455 64
2018-10-18 17:11:03 GMT 40.688095 24.828674 35,000 148 455 0
2018-10-18 17:10:52 GMT 40.708649 24.811890 35,025 148 455 -64
2018-10-18 17:10:44 GMT 40.722363 24.800636 35,025 148 455 0
2018-10-18 17:10:41 GMT 40.727901 24.796080 35,025 148 455 0
2018-10-18 17:10:31 GMT 40.747513 24.780090 35,025 148 454 0
2018-10-18 17:10:22 GMT 40.762390 24.767883 35,000 148 454 0
2018-10-18 17:10:18 GMT 40.768822 24.762623 35,000 147 454 64
2018-10-18 17:10:11 GMT 40.781624 24.752071 35,025 147 454 0
2018-10-18 17:10:08 GMT 40.787888 24.746948 35,000 147 454 0
2018-10-18 17:10:02 GMT 40.798096 24.738525 35,000 147 454 0
2018-10-18 17:09:56 GMT 40.807693 24.730661 35,025 147 454 0
2018-10-18 17:09:49 GMT 40.821655 24.719112 35,025 147 452 0
2018-10-18 17:09:46 GMT 40.827026 24.714722 35,025 147 452 0
2018-10-18 17:09:41 GMT 40.834763 24.708374 35,025 147 452 0
2018-10-18 17:09:38 GMT 40.840347 24.703796 35,025 147 452 0
2018-10-18 17:09:31 GMT 40.853592 24.692835 35,000 147 451 0
2018-10-18 17:09:23 GMT 40.867001 24.681723 35,000 147 451 0
2018-10-18 17:09:20 GMT 40.872208 24.677429 35,000 147 452 0
2018-10-18 17:09:16 GMT 40.879055 24.671736 35,000 147 451 0
2018-10-18 17:09:13 GMT 40.885433 24.666491 35,000 147 451 0
2018-10-18 17:09:10 GMT 40.890015 24.662659 35,000 147 451 0
2018-10-18 17:09:06 GMT 40.896881 24.656982 35,000 148 451 0
2018-10-18 17:09:00 GMT 40.908783 24.647217 35,000 148 451 0
2018-10-18 17:08:54 GMT 40.917835 24.639774 35,000 148 451 0
2018-10-18 17:08:49 GMT 40.927982 24.631411 35,000 147 451 0
2018-10-18 17:08:43 GMT 40.938923 24.622358 35,000 147 450 0
2018-10-18 17:08:39 GMT 40.945999 24.616491 35,000 148 450 0
2018-10-18 17:08:33 GMT 40.964630 24.601196 35,000 148 450 0
2018-10-18 17:08:28 GMT 40.964630 24.601196 35,000 148 450 0
2018-10-18 17:08:20 GMT 40.978306 24.589962 35,000 148 450 0
2018-10-18 17:08:17 GMT 40.983261 24.585876 35,000 148 450 0
2018-10-18 17:08:11 GMT 40.995018 24.576166 35,000 148 449 64
2018-10-18 17:08:07 GMT 41.001766 24.570610 35,000 148 449 64
2018-10-18 17:08:00 GMT 41.013885 24.560608 34,975 147 449 0
2018-10-18 17:07:56 GMT 41.022995 24.553070 34,975 147 449 0
2018-10-18 17:07:51 GMT 41.029560 24.547640 34,975 147 449 0
2018-10-18 17:07:44 GMT 41.044224 24.535467 34,975 147 449 0
2018-10-18 17:07:39 GMT 41.050835 24.529974 34,975 147 449 0
2018-10-18 17:07:34 GMT 41.060394 24.522034 34,975 148 449 0
2018-10-18 17:07:28 GMT 41.070190 24.513916 34,975 148 449 0
2018-10-18 17:07:25 GMT 41.083328 24.503008 34,975 147 448 0
2018-10-18 17:07:17 GMT 41.089661 24.497765 34,975 147 448 64
2018-10-18 17:07:12 GMT 41.098129 24.490709 34,975 147 448 64
2018-10-18 17:07:07 GMT 41.106812 24.483521 34,975 147 448 64
2018-10-18 17:07:02 GMT 41.119675 24.472778 34,975 147 448 64
2018-10-18 17:06:53 GMT 41.132023 24.462559 34,950 147 448 64
2018-10-18 17:06:50 GMT 41.138214 24.457336 34,950 147 448 0
2018-10-18 17:06:47 GMT 41.142635 24.453693 34,950 147 448 0
2018-10-18 17:06:43 GMT 41.150455 24.447203 34,950 148 449 0
2018-10-18 17:06:39 GMT 41.157299 24.441521 34,950 148 449 0
2018-10-18 17:06:32 GMT 41.169296 24.431641 34,950 147 448 0
2018-10-18 17:06:26 GMT 41.179962 24.422729 34,950 147 448 64
2018-10-18 17:06:20 GMT 41.189468 24.414804 34,950 147 448 0
2018-10-18 17:06:14 GMT 41.201294 24.404968 34,950 147 449 0
2018-10-18 17:06:10 GMT 41.207977 24.399414 34,950 147 450 0
2018-10-18 17:06:03 GMT 41.220379 24.389025 34,950 147 450 0
2018-10-18 17:06:00 GMT 41.225601 24.384705 34,950 147 449 0
2018-10-18 17:05:53 GMT 41.237556 24.374729 34,950 147 449 0
2018-10-18 17:05:49 GMT 41.245564 24.368050 35,025 147 452 -64
2018-10-18 17:05:43 GMT 41.255802 24.359497 34,950 147 450 -64
2018-10-18 17:05:39 GMT 41.263161 24.353380 34,950 147 450 -64
2018-10-18 17:05:32 GMT 41.274239 24.344080 34,950 147 450 -64
2018-10-18 17:05:28 GMT 41.281361 24.338150 34,950 147 450 -64
2018-10-18 17:05:21 GMT 41.293854 24.327698 34,975 147 451 -64
2018-10-18 17:05:13 GMT 41.307907 24.315857 34,975 147 451 -64
2018-10-18 17:05:09 GMT 41.315002 24.309875 34,975 147 451 -64
2018-10-18 17:05:05 GMT 41.322140 24.303881 35,000 147 452 -64
2018-10-18 17:04:59 GMT 41.334011 24.293894 35,000 147 452 -64
2018-10-18 17:04:50 GMT 41.348694 24.281555 35,000 147 453 -64
2018-10-18 17:04:44 GMT 41.360275 24.271912 35,000 147 453 -64
2018-10-18 17:04:38 GMT 41.371216 24.262817 35,000 147 453 -64
2018-10-18 17:04:33 GMT 41.379818 24.255629 35,025 147 453 -64
2018-10-18 17:04:21 GMT 41.401512 24.237373 35,025 147 459 64
2018-10-18 17:04:18 GMT 41.405285 24.234179 35,025 147 455 0
2018-10-18 17:04:13 GMT 41.415756 24.225428 35,025 147 455 0
2018-10-18 17:04:07 GMT 41.424866 24.217800 35,025 147 456 0
2018-10-18 17:04:00 GMT 41.438782 24.206064 35,025 147 456 0
2018-10-18 17:03:57 GMT 41.444199 24.201540 35,025 147 456 0
2018-10-18 17:03:52 GMT 41.453247 24.193892 35,025 147 457 64
2018-10-18 17:03:46 GMT 41.463455 24.185278 35,000 147 457 0
2018-10-18 17:03:41 GMT 41.471603 24.178411 35,025 147 457 0
2018-10-18 17:03:36 GMT 41.481812 24.169735 35,000 147 458 0
2018-10-18 17:03:30 GMT 41.491333 24.161682 35,025 147 458 0
2018-10-18 17:03:26 GMT 41.498840 24.155376 35,025 147 458 0
2018-10-18 17:03:19 GMT 41.510971 24.145203 35,000 147 459 64
2018-10-18 17:03:13 GMT 41.522640 24.135429 35,025 147 459 64
2018-10-18 17:03:08 GMT 41.530602 24.128723 35,000 147 461 0
2018-10-18 17:03:03 GMT 41.540703 24.120293 35,025 147 461 0
2018-10-18 17:02:53 GMT 41.558578 24.105282 35,025 147 461 0
2018-10-18 17:02:47 GMT 41.569519 24.096210 35,000 148 461 0
2018-10-18 17:02:42 GMT 41.578766 24.088461 35,025 147 461 0
2018-10-18 17:02:37 GMT 41.586777 24.081781 35,025 148 461 0
2018-10-18 17:02:32 GMT 41.597076 24.073231 35,025 148 461 0
2018-10-18 17:02:28 GMT 41.603668 24.067799 35,025 148 462 0
2018-10-18 17:02:21 GMT 41.616024 24.057505 35,025 148 462 -64
2018-10-18 17:02:14 GMT 41.628937 24.046762 35,025 148 463 -64
2018-10-18 17:02:11 GMT 41.634598 24.042046 35,025 147 463 -64
2018-10-18 17:02:05 GMT 41.645260 24.032848 35,050 146 463 -64
2018-10-18 17:02:00 GMT 41.654114 24.024977 35,050 145 463 0
2018-10-18 17:01:56 GMT 41.661575 24.018236 35,050 145 463 0
2018-10-18 17:01:48 GMT 41.675400 24.005751 35,050 145 463 0
2018-10-18 17:01:45 GMT 41.680824 24.000784 35,050 145 463 64
2018-10-18 17:01:40 GMT 41.700050 23.983410 35,050 145 463 64
2018-10-18 17:01:34 GMT 41.700050 23.983410 35,050 145 463 64
2018-10-18 17:01:29 GMT 41.709221 23.975105 35,025 145 464 64
2018-10-18 17:01:25 GMT 41.716671 23.968336 35,025 145 464 64
2018-10-18 17:01:19 GMT 41.727657 23.958370 35,025 145 464 64
2018-10-18 17:01:08 GMT 41.746902 23.940893 35,025 146 464 64
2018-10-18 17:00:58 GMT 41.765533 23.924229 35,025 146 465 0
2018-10-18 17:00:54 GMT 41.772079 23.918423 35,025 146 465 -64
2018-10-18 17:00:47 GMT 41.784309 23.907528 35,025 146 464 64
2018-10-18 17:00:42 GMT 41.793869 23.898884 35,025 145 464 64
2018-10-18 17:00:35 GMT 41.805084 23.888771 35,025 145 463 64
2018-10-18 17:00:32 GMT 41.810989 23.883404 35,025 145 463 0
2018-10-18 17:00:29 GMT 41.816479 23.878401 35,025 145 463 0
2018-10-18 17:00:26 GMT 41.823929 23.871695 35,025 145 463 0
2018-10-18 17:00:19 GMT 41.834633 23.861921 35,025 145 463 0
2018-10-18 17:00:15 GMT 41.842129 23.855150 35,025 145 463 0
2018-10-18 17:00:10 GMT 41.849670 23.848251 35,025 145 463 0
2018-10-18 17:00:05 GMT 41.860336 23.838585 35,025 145 463 0
2018-10-18 16:59:58 GMT 41.872009 23.827909 35,025 145 463 0
2018-10-18 16:59:54 GMT 41.878967 23.821606 35,025 145 463 0
2018-10-18 16:59:47 GMT 41.898365 23.803860 35,025 145 463 -64
2018-10-18 16:59:44 GMT 41.898365 23.803860 35,025 145 463 -64
2018-10-18 16:59:37 GMT 41.909164 23.793961 35,025 145 462 0
2018-10-18 16:59:33 GMT 41.915962 23.787828 35,025 145 462 -64
2018-10-18 16:59:27 GMT 41.925613 23.779034 35,025 145 462 -64
2018-10-18 16:59:22 GMT 41.934769 23.770670 35,025 145 462 -64
2018-10-18 16:59:18 GMT 41.942093 23.763990 35,025 145 461 64
2018-10-18 16:59:11 GMT 41.953995 23.753189 35,025 145 462 64
2018-10-18 16:59:05 GMT 41.965214 23.742989 35,025 145 461 64
2018-10-18 16:59:02 GMT 41.972473 23.736473 35,000 145 461 64
2018-10-18 16:58:55 GMT 41.982239 23.727535 35,000 145 461 0
2018-10-18 16:58:51 GMT 41.990818 23.719803 35,000 145 462 0
2018-10-18 16:58:48 GMT 41.996246 23.714802 35,000 145 461 0
2018-10-18 16:58:38 GMT 42.013779 23.698757 35,000 145 461 0
2018-10-18 16:58:33 GMT 42.022427 23.690804 35,000 145 460 64
2018-10-18 16:58:30 GMT 42.027924 23.685774 35,000 145 460 64
2018-10-18 16:58:27 GMT 42.032482 23.681604 35,000 145 460 64
2018-10-18 16:58:23 GMT 42.040627 23.674131 35,000 145 459 64
2018-10-18 16:58:20 GMT 42.045868 23.669357 35,000 145 459 64
2018-10-18 16:58:16 GMT 42.053802 23.662060 35,000 145 459 64
2018-10-18 16:58:12 GMT 42.059326 23.656998 35,000 145 459 64
2018-10-18 16:58:08 GMT 42.066010 23.650881 34,975 145 459 64
2018-10-18 16:58:02 GMT 42.079220 23.638746 34,975 145 459 0
2018-10-18 16:57:58 GMT 42.083725 23.634649 34,975 145 459 0
2018-10-18 16:57:54 GMT 42.090958 23.628035 34,975 145 458 0
2018-10-18 16:57:50 GMT 42.098007 23.621605 34,975 145 458 0
2018-10-18 16:57:46 GMT 42.103958 23.616112 34,975 145 458 -64
2018-10-18 16:57:40 GMT 42.115631 23.605499 35,000 145 457 64
2018-10-18 16:57:35 GMT 42.123184 23.598570 34,975 145 457 128
2018-10-18 16:57:29 GMT 42.134754 23.587967 34,975 145 457 64
2018-10-18 16:57:25 GMT 42.140717 23.582474 34,975 145 457 64
2018-10-18 16:57:18 GMT 42.152725 23.571486 34,950 145 457 0
2018-10-18 16:57:15 GMT 42.157928 23.566734 34,950 145 457 0
2018-10-18 16:57:10 GMT 42.166992 23.558434 34,975 145 456 -64
2018-10-18 16:57:04 GMT 42.178162 23.548197 34,975 145 456 -64
2018-10-18 16:57:01 GMT 42.183544 23.543255 34,975 145 455 0
2018-10-18 16:56:58 GMT 42.188324 23.538895 34,975 145 455 0
2018-10-18 16:56:55 GMT 42.196152 23.531654 34,975 145 455 0
2018-10-18 16:56:47 GMT 42.207565 23.521154 34,975 145 455 0
2018-10-18 16:56:44 GMT 42.213364 23.515862 34,975 145 455 0
2018-10-18 16:56:39 GMT 42.223114 23.506872 34,975 145 455 0
2018-10-18 16:56:33 GMT 42.231819 23.498924 34,975 145 455 0
2018-10-18 16:56:27 GMT 42.242058 23.489471 34,975 145 454 0
2018-10-18 16:56:23 GMT 42.249882 23.482191 34,975 145 454 0
2018-10-18 16:56:20 GMT 42.255341 23.477221 34,975 145 454 0
2018-10-18 16:56:13 GMT 42.267429 23.466030 34,975 145 455 -64
2018-10-18 16:56:10 GMT 42.271912 23.461927 34,975 145 455 -64
2018-10-18 16:56:05 GMT 42.281723 23.452936 34,975 145 455 -64
2018-10-18 16:56:02 GMT 42.287586 23.447508 34,975 145 454 0
2018-10-18 16:55:50 GMT 42.307022 23.429531 34,975 145 454 0
2018-10-18 16:55:40 GMT 42.324326 23.413488 34,975 145 454 0
2018-10-18 16:55:33 GMT 42.335957 23.402796 34,975 145 455 0
2018-10-18 16:55:30 GMT 42.341904 23.397259 34,975 145 454 0
2018-10-18 16:55:20 GMT 42.360069 23.380568 34,975 145 455 0
2018-10-18 16:55:08 GMT 42.379486 23.362614 34,975 145 455 0
2018-10-18 16:55:00 GMT 42.395168 23.348055 34,975 145 455 -64
2018-10-18 16:54:51 GMT 42.408646 23.335461 34,975 145 456 0
2018-10-18 16:54:47 GMT 42.416023 23.328636 34,975 145 456 0
2018-10-18 16:54:38 GMT 42.432495 23.313362 34,975 145 456 0
2018-10-18 16:54:29 GMT 42.454151 23.293186 34,975 145 457 -64
2018-10-18 16:54:25 GMT 42.454151 23.293186 35,000 145 457 -64
2018-10-18 16:54:19 GMT 42.466232 23.281963 35,000 145 457 -64
2018-10-18 16:54:16 GMT 42.471359 23.277220 35,000 145 457 0
2018-10-18 16:54:12 GMT 42.476898 23.272039 35,000 145 457 0
2018-10-18 16:54:09 GMT 42.484772 23.264736 35,000 145 458 -64
2018-10-18 16:54:06 GMT 42.487885 23.261864 35,000 145 458 -128
2018-10-18 16:54:03 GMT 42.495438 23.254873 35,000 145 458 -128
2018-10-18 16:53:57 GMT 42.503448 23.247391 35,025 145 458 -64
2018-10-18 16:53:52 GMT 42.513062 23.238457 35,025 145 458 -64
2018-10-18 16:53:42 GMT 42.530777 23.221914 35,025 145 459 0
2018-10-18 16:53:36 GMT 42.539703 23.213612 35,025 145 459 64
2018-10-18 16:53:32 GMT 42.548218 23.205685 35,025 145 460 64
2018-10-18 16:53:26 GMT 42.556892 23.197632 35,000 145 460 64
2018-10-18 16:53:22 GMT 42.565922 23.189199 35,000 145 461 0
2018-10-18 16:53:16 GMT 42.576050 23.179779 35,000 145 461 0
2018-10-18 16:53:11 GMT 42.584267 23.172083 35,025 145 461 0
2018-10-18 16:53:04 GMT 42.596924 23.160303 35,000 145 461 64
2018-10-18 16:53:01 GMT 42.602375 23.155218 35,025 145 461 64
2018-10-18 16:52:53 GMT 42.616013 23.142509 35,000 145 461 64
2018-10-18 16:52:50 GMT 42.621780 23.137144 35,000 145 461 64
2018-10-18 16:52:42 GMT 42.635422 23.124348 35,000 145 462 0
2018-10-18 16:52:39 GMT 42.641010 23.119196 35,000 145 462 64
2018-10-18 16:52:31 GMT 42.657585 23.103609 35,000 145 462 64
2018-10-18 16:52:24 GMT 42.667099 23.094698 35,000 145 462 64
2018-10-18 16:52:21 GMT 42.672573 23.089558 35,000 145 461 64
2018-10-18 16:52:18 GMT 42.677811 23.084709 35,000 145 461 0
2018-10-18 16:52:10 GMT 42.690777 23.072502 35,000 145 460 -64
2018-10-18 16:52:06 GMT 42.698730 23.065046 35,000 145 460 -64
2018-10-18 16:51:58 GMT 42.713379 23.051313 35,000 145 460 0
2018-10-18 16:51:48 GMT 42.731697 23.034178 35,000 145 458 0
2018-10-18 16:51:37 GMT 42.749897 23.017059 35,000 145 458 64
2018-10-18 16:51:34 GMT 42.754166 23.013048 35,000 145 457 -64
2018-10-18 16:51:29 GMT 42.763210 23.004541 35,000 145 458 64
2018-10-18 16:51:25 GMT 42.776184 22.992325 35,025 145 457 -64
2018-10-18 16:51:16 GMT 42.786850 22.982275 35,025 145 458 64
2018-10-18 16:51:12 GMT 42.791981 22.977457 35,025 145 458 64
2018-10-18 16:51:08 GMT 42.799576 22.970352 34,975 145 461 192
2018-10-18 16:51:04 GMT 42.806763 22.963612 35,000 145 459 128
2018-10-18 16:50:58 GMT 42.816925 22.954016 34,975 142 463 1024
2018-10-18 16:50:53 GMT 42.825684 22.945862 34,975 145 461 128
2018-10-18 16:50:47 GMT 42.836533 22.935659 34,975 145 462 0
2018-10-18 16:50:44 GMT 42.842102 22.930384 34,975 144 463 256
2018-10-18 16:50:35 GMT 42.859451 22.913584 34,900 143 462 832
2018-10-18 16:50:32 GMT 42.862381 22.910646 34,900 143 462 832
2018-10-18 16:50:27 GMT 42.870792 22.901917 34,700 142 462 1024
2018-10-18 16:50:21 GMT 42.880989 22.891453 34,750 143 462 1088
2018-10-18 16:50:17 GMT 42.898071 22.873993 34,600 143 462 960
2018-10-18 16:50:13 GMT 42.898071 22.873993 34,550 143 462 1024
2018-10-18 16:50:09 GMT 42.901520 22.870462 34,500 143 462 1024
2018-10-18 16:50:06 GMT 42.908249 22.863571 34,425 142 464 960
2018-10-18 16:50:02 GMT 42.914200 22.857439 34,325 143 465 960
2018-10-18 16:49:58 GMT 42.921066 22.850412 34,275 143 466 1024
2018-10-18 16:49:55 GMT 42.927383 22.844025 34,250 141 467 640
2018-10-18 16:49:52 GMT 42.935715 22.835466 34,175 143 468 1024
2018-10-18 16:49:46 GMT 42.942307 22.828823 34,050 141 467 640
2018-10-18 16:49:39 GMT 42.954540 22.816250 34,025 142 468 640
2018-10-18 16:49:34 GMT 42.962814 22.807552 33,925 142 467 640
2018-10-18 16:49:31 GMT 42.968857 22.801039 33,925 140 466 832
2018-10-18 16:49:26 GMT 42.976364 22.792606 33,850 139 466 896
2018-10-18 16:49:18 GMT 42.989914 22.776703 33,725 138 466 1088
2018-10-18 16:49:14 GMT 42.996140 22.769100 33,650 138 466 1216
2018-10-18 16:49:07 GMT 43.007706 22.754974 33,500 138 467 1344
2018-10-18 16:49:02 GMT 43.015320 22.745659 33,350 138 467 1280
2018-10-18 16:48:59 GMT 43.020950 22.738825 33,325 138 468 1280
2018-10-18 16:48:54 GMT 43.029957 22.727770 33,200 138 468 1152
2018-10-18 16:48:46 GMT 43.040909 22.714424 33,100 138 468 640
2018-10-18 16:48:42 GMT 43.047363 22.706505 33,075 138 468 576
2018-10-18 16:48:36 GMT 43.057663 22.693920 33,000 138 468 0
2018-10-18 16:48:33 GMT 43.062836 22.687597 33,000 138 468 0
2018-10-18 16:48:25 GMT 43.074554 22.673231 33,000 138 469 0
2018-10-18 16:48:22 GMT 43.081070 22.665253 33,000 138 469 0
2018-10-18 16:48:14 GMT 43.093414 22.650167 33,000 138 469 0
2018-10-18 16:48:11 GMT 43.097408 22.645243 33,000 138 470 0
2018-10-18 16:48:04 GMT 43.108704 22.631390 33,000 138 470 0
2018-10-18 16:48:01 GMT 43.113518 22.625492 33,000 138 470 0
2018-10-18 16:47:55 GMT 43.124771 22.611715 33,000 138 470 0
2018-10-18 16:47:51 GMT 43.131042 22.603924 33,000 137 471 0
2018-10-18 16:47:43 GMT 43.143497 22.588610 33,000 137 471 64
2018-10-18 16:47:40 GMT 43.147064 22.584249 33,000 137 471 64
2018-10-18 16:47:32 GMT 43.160843 22.567324 33,000 138 471 0
2018-10-18 16:47:21 GMT 43.178505 22.545580 33,000 138 470 0
2018-10-18 16:47:10 GMT 43.196045 22.524017 33,000 138 470 0
2018-10-18 16:47:01 GMT 43.211277 22.505297 33,000 138 470 0
2018-10-18 16:46:49 GMT 43.229759 22.482540 33,000 138 470 0
2018-10-18 16:46:38 GMT 43.247215 22.461090 33,000 138 469 0
2018-10-18 16:46:29 GMT 43.262997 22.441603 33,000 137 469 0
2018-10-18 16:46:18 GMT 43.279953 22.420668 33,000 137 469 0
2018-10-18 16:46:08 GMT 43.296890 22.399654 33,000 137 470 0
2018-10-18 16:45:57 GMT 43.313278 22.379406 33,000 137 470 0
2018-10-18 16:45:54 GMT 43.318954 22.372379 33,000 137 470 0
2018-10-18 16:45:49 GMT 43.327705 22.361559 33,000 137 469 0
2018-10-18 16:45:46 GMT 43.332550 22.355581 33,000 137 469 0
2018-10-18 16:45:35 GMT 43.349770 22.334225 33,000 137 469 0
2018-10-18 16:45:29 GMT 43.359501 22.322191 33,000 137 469 0
2018-10-18 16:45:25 GMT 43.366745 22.313169 33,000 137 469 64
2018-10-18 16:45:16 GMT 43.380112 22.296625 33,000 137 470 64
2018-10-18 16:45:13 GMT 43.385101 22.290344 33,000 137 470 0
2018-10-18 16:45:06 GMT 43.396545 22.276121 33,000 137 470 64
2018-10-18 16:45:03 GMT 43.401768 22.269548 33,000 137 471 64
2018-10-18 16:44:55 GMT 43.414337 22.253920 33,000 137 470 0
2018-10-18 16:44:52 GMT 43.419479 22.247505 33,000 137 470 0
2018-10-18 16:44:44 GMT 43.431335 22.232687 33,000 137 470 0
2018-10-18 16:44:41 GMT 43.436077 22.226847 33,000 137 469 0
2018-10-18 16:44:34 GMT 43.447998 22.211992 33,000 137 470 0
2018-10-18 16:44:30 GMT 43.455093 22.203178 33,000 137 469 0
2018-10-18 16:44:23 GMT 43.465034 22.190748 33,000 137 468 0
2018-10-18 16:44:20 GMT 43.469971 22.184589 33,000 137 469 0
2018-10-18 16:44:12 GMT 43.482536 22.168970 33,000 137 468 0
2018-10-18 16:44:09 GMT 43.487705 22.162563 33,000 137 468 -64
2018-10-18 16:44:03 GMT 43.498363 22.149221 33,000 137 468 0
2018-10-18 16:43:59 GMT 43.504696 22.141310 33,000 137 467 0
2018-10-18 16:43:52 GMT 43.514969 22.128445 33,000 137 468 0
2018-10-18 16:43:48 GMT 43.521606 22.120140 33,000 137 468 0
2018-10-18 16:43:42 GMT 43.537491 22.100277 33,000 137 469 0
2018-10-18 16:43:39 GMT 43.537491 22.100277 33,000 137 470 0
2018-10-18 16:43:31 GMT 43.548874 22.085985 33,000 137 469 0
2018-10-18 16:43:27 GMT 43.554794 22.078560 33,000 137 469 0
2018-10-18 16:43:21 GMT 43.565121 22.065647 33,000 137 470 64
2018-10-18 16:43:17 GMT 43.572693 22.056204 33,000 137 470 0
2018-10-18 16:43:10 GMT 43.582066 22.044394 33,000 137 470 0
2018-10-18 16:43:06 GMT 43.590179 22.034294 33,000 137 470 0
2018-10-18 16:43:00 GMT 43.599197 22.022989 33,000 137 470 0
2018-10-18 16:42:55 GMT 43.606598 22.013723 33,000 137 470 -64
2018-10-18 16:42:50 GMT 43.616188 22.001692 33,000 137 471 0
2018-10-18 16:42:45 GMT 43.624149 21.991621 33,000 137 471 0
2018-10-18 16:42:39 GMT 43.633224 21.980242 33,000 137 470 64
2018-10-18 16:42:34 GMT 43.641724 21.969526 33,000 137 470 0
2018-10-18 16:42:29 GMT 43.650101 21.958986 33,000 137 470 0
2018-10-18 16:42:23 GMT 43.659157 21.947544 33,000 137 470 0
2018-10-18 16:42:18 GMT 43.667267 21.937334 33,000 137 471 0
2018-10-18 16:42:12 GMT 43.676559 21.925646 33,000 137 471 0
2018-10-18 16:42:09 GMT 43.680801 21.920275 33,000 137 471 0
2018-10-18 16:42:06 GMT 43.685898 21.913893 33,000 137 471 0
2018-10-18 16:42:00 GMT 43.696014 21.901117 33,000 137 471 0
2018-10-18 16:41:56 GMT 43.701828 21.893835 33,000 137 469 0
2018-10-18 16:41:51 GMT 43.710411 21.883064 33,000 137 470 0
2018-10-18 16:41:44 GMT 43.721603 21.868925 33,000 137 469 0
2018-10-18 16:41:41 GMT 43.726704 21.862532 33,000 137 469 0
2018-10-18 16:41:38 GMT 43.731537 21.856405 33,000 137 469 0
2018-10-18 16:41:34 GMT 43.739643 21.846184 33,000 137 469 0
2018-10-18 16:41:29 GMT 43.745834 21.838335 33,000 137 469 0
2018-10-18 16:41:24 GMT 43.753006 21.829323 33,000 137 469 0
2018-10-18 16:41:20 GMT 43.759552 21.821018 33,000 137 469 0
2018-10-18 16:41:17 GMT 43.763672 21.815783 33,000 137 469 0
2018-10-18 16:41:14 GMT 43.769211 21.808756 33,000 137 469 0
2018-10-18 16:41:08 GMT 43.779190 21.796108 33,000 137 470 0
2018-10-18 16:41:04 GMT 43.785690 21.787933 33,000 137 470 0
2018-10-18 16:40:58 GMT 43.794800 21.776436 33,000 137 469 0
2018-10-18 16:40:47 GMT 43.812965 21.753387 33,000 137 469 64
2018-10-18 16:40:35 GMT 43.831352 21.730106 33,000 137 469 -64
2018-10-18 16:40:31 GMT 43.837917 21.721802 33,000 137 469 0
2018-10-18 16:40:24 GMT 43.848808 21.708002 33,000 137 469 0
2018-10-18 16:40:13 GMT 43.867664 21.684069 33,000 137 468 0
2018-10-18 16:40:05 GMT 43.885025 21.661909 33,000 137 467 0
2018-10-18 16:39:54 GMT 43.896526 21.647318 33,000 137 467 0
2018-10-18 16:39:51 GMT 43.902622 21.639469 33,000 137 467 0
2018-10-18 16:39:41 GMT 43.918499 21.619263 33,000 137 467 0
2018-10-18 16:39:32 GMT 43.933628 21.599907 33,000 137 468 -64
2018-10-18 16:39:23 GMT 43.946339 21.583754 33,000 137 468 -64
2018-10-18 16:39:20 GMT 43.958221 21.568588 33,000 137 469 0
2018-10-18 16:39:11 GMT 43.967560 21.556644 33,000 137 469 0
2018-10-18 16:39:08 GMT 43.970993 21.552301 33,000 137 469 0
2018-10-18 16:38:57 GMT 43.988235 21.530195 33,000 137 469 0
2018-10-18 16:38:48 GMT 44.003128 21.511168 33,000 137 469 0
2018-10-18 16:38:43 GMT 44.010624 21.501682 33,000 137 469 0
2018-10-18 16:38:36 GMT 44.022034 21.487085 33,000 137 469 64
2018-10-18 16:38:26 GMT 44.037186 21.467669 33,000 137 469 0
2018-10-18 16:38:23 GMT 44.042839 21.460419 33,000 137 469 0
2018-10-18 16:38:18 GMT 44.051239 21.449656 33,000 137 468 0
2018-10-18 16:38:14 GMT 44.057098 21.442055 33,000 137 468 -64
2018-10-18 16:38:04 GMT 44.073303 21.421295 33,000 137 468 0
2018-10-18 16:37:58 GMT 44.083008 21.408840 33,000 137 468 -64
2018-10-18 16:37:53 GMT 44.089809 21.400126 33,000 137 469 -64
2018-10-18 16:37:50 GMT 44.094910 21.393576 33,000 137 469 0
2018-10-18 16:37:47 GMT 44.099586 21.387569 33,000 137 469 0
2018-10-18 16:37:40 GMT 44.111435 21.372305 33,000 137 469 64
2018-10-18 16:37:37 GMT 44.116207 21.366184 33,000 137 469 64
2018-10-18 16:37:33 GMT 44.122490 21.358076 33,000 137 469 0
2018-10-18 16:37:26 GMT 44.133545 21.343882 33,000 137 469 0
2018-10-18 16:37:20 GMT 44.143158 21.331425 33,000 137 469 0
2018-10-18 16:37:16 GMT 44.151028 21.321323 33,000 137 469 0
2018-10-18 16:37:12 GMT 44.165359 21.302874 33,000 137 469 0
2018-10-18 16:37:06 GMT 44.165359 21.302874 33,000 137 469 0
2018-10-18 16:37:02 GMT 44.172180 21.294060 33,000 137 469 0
2018-10-18 16:36:59 GMT 44.176350 21.288692 33,000 137 469 64
2018-10-18 16:36:51 GMT 44.187973 21.273684 33,000 137 468 0
2018-10-18 16:36:48 GMT 44.193604 21.266464 33,000 137 468 0
2018-10-18 16:36:44 GMT 44.199875 21.258348 33,000 137 468 0
2018-10-18 16:36:41 GMT 44.205215 21.251511 33,000 137 469 0
2018-10-18 16:36:37 GMT 44.211033 21.244007 33,000 137 468 0
2018-10-18 16:36:34 GMT 44.216034 21.237553 33,000 137 468 0
2018-10-18 16:36:28 GMT 44.225647 21.225063 33,000 137 468 0
2018-10-18 16:36:20 GMT 44.238052 21.209042 33,000 136 467 0
2018-10-18 16:36:13 GMT 44.250824 21.192495 33,000 136 467 0
2018-10-18 16:36:09 GMT 44.255444 21.186464 33,000 136 467 0
2018-10-18 16:35:59 GMT 44.271179 21.166033 33,000 136 467 0
2018-10-18 16:35:48 GMT 44.287937 21.144394 33,000 137 467 0
2018-10-18 16:35:43 GMT 44.297199 21.132336 33,000 137 466 0
2018-10-18 16:35:37 GMT 44.306187 21.120680 33,000 136 467 0
2018-10-18 16:35:31 GMT 44.315403 21.108755 33,000 136 466 0
2018-10-18 16:35:22 GMT 44.329514 21.090414 33,000 136 467 0
2018-10-18 16:35:16 GMT 44.338863 21.078276 33,000 137 466 0
2018-10-18 16:35:11 GMT 44.346920 21.067825 33,000 137 466 0
2018-10-18 16:35:05 GMT 44.357765 21.053690 33,000 137 466 0
2018-10-18 16:35:00 GMT 44.363911 21.045717 33,000 136 466 0
2018-10-18 16:34:56 GMT 44.371445 21.035940 33,000 136 466 0
2018-10-18 16:34:51 GMT 44.378357 21.026852 33,000 136 466 0
2018-10-18 16:34:45 GMT 44.390579 21.010895 33,000 136 466 0
2018-10-18 16:34:42 GMT 44.395332 21.004721 33,000 136 467 0
2018-10-18 16:34:35 GMT 44.404644 20.992529 33,000 136 467 0
2018-10-18 16:34:31 GMT 44.410927 20.984356 33,000 136 467 0
2018-10-18 16:34:24 GMT 44.422165 20.969696 33,000 136 467 0
2018-10-18 16:34:19 GMT 44.428848 20.960934 33,000 136 468 0
2018-10-18 16:34:14 GMT 44.437408 20.949816 33,000 136 467 0
2018-10-18 16:34:11 GMT 44.442818 20.942688 33,000 136 467 0
2018-10-18 16:34:04 GMT 44.455433 20.926208 33,000 136 467 0
2018-10-18 16:34:00 GMT 44.471260 20.905441 33,000 136 467 0
2018-10-18 16:33:53 GMT 44.471260 20.905441 33,000 136 467 64
2018-10-18 16:33:50 GMT 44.475494 20.899855 33,000 136 467 0
2018-10-18 16:33:46 GMT 44.482086 20.891289 33,000 136 467 0
2018-10-18 16:33:42 GMT 44.488495 20.882917 33,000 136 467 0
2018-10-18 16:33:38 GMT 44.494995 20.874416 33,000 136 467 0
2018-10-18 16:33:33 GMT 44.503372 20.863428 33,000 136 467 0
2018-10-18 16:33:27 GMT 44.513306 20.850416 33,000 136 466 0
2018-10-18 16:33:22 GMT 44.519669 20.842045 33,000 136 466 0
2018-10-18 16:33:16 GMT 44.529190 20.829556 33,000 136 466 0
2018-10-18 16:33:12 GMT 44.535553 20.821184 33,000 136 466 0
2018-10-18 16:33:08 GMT 44.541641 20.813206 33,000 136 466 0
2018-10-18 16:33:05 GMT 44.546535 20.806833 33,000 136 466 0
2018-10-18 16:32:59 GMT 44.557388 20.792542 33,000 136 466 0
2018-10-18 16:32:55 GMT 44.562130 20.786333 33,000 136 466 0
2018-10-18 16:32:52 GMT 44.568230 20.778296 33,000 136 466 0
2018-10-18 16:32:47 GMT 44.574837 20.769587 33,000 136 466 0
2018-10-18 16:32:44 GMT 44.579636 20.763309 33,000 136 466 0
2018-10-18 16:32:40 GMT 44.585033 20.756187 33,000 136 466 0
2018-10-18 16:32:34 GMT 44.594833 20.743299 33,000 136 466 0
2018-10-18 16:32:30 GMT 44.601196 20.734928 33,000 136 466 0
2018-10-18 16:32:27 GMT 44.605701 20.728991 33,000 136 466 0
2018-10-18 16:32:20 GMT 44.616669 20.714525 33,000 136 465 0
2018-10-18 16:32:17 GMT 44.621624 20.708023 33,000 136 465 0
2018-10-18 16:32:11 GMT 44.632782 20.693272 33,000 136 465 0
2018-10-18 16:32:06 GMT 44.638824 20.685293 33,000 136 465 0
2018-10-18 16:32:00 GMT 44.648392 20.672737 33,000 136 465 0
2018-10-18 16:31:57 GMT 44.654526 20.664696 33,000 136 465 0
2018-10-18 16:31:49 GMT 44.665661 20.650009 33,000 136 466 0
2018-10-18 16:31:45 GMT 44.671761 20.641905 33,000 136 466 0
2018-10-18 16:31:38 GMT 44.682404 20.627811 33,000 136 466 0
2018-10-18 16:31:34 GMT 44.688675 20.619572 33,000 136 465 0
2018-10-18 16:31:29 GMT 44.703648 20.599768 33,000 136 464 0
2018-10-18 16:31:25 GMT 44.703648 20.599768 33,000 136 465 0
2018-10-18 16:31:20 GMT 44.713284 20.586971 33,000 136 464 0
2018-10-18 16:31:14 GMT 44.719894 20.578129 33,000 136 464 0
2018-10-18 16:31:09 GMT 44.728928 20.566137 33,000 136 465 0
2018-10-18 16:31:05 GMT 44.735306 20.557697 33,000 136 465 64
2018-10-18 16:30:59 GMT 44.744801 20.545103 33,000 136 465 64
2018-10-18 16:30:54 GMT 44.752670 20.534691 33,000 136 464 0
2018-10-18 16:30:48 GMT 44.760441 20.524338 33,000 136 464 -64
2018-10-18 16:30:44 GMT 44.769566 20.512211 33,000 136 464 -64
2018-10-18 16:30:37 GMT 44.777756 20.501337 33,000 136 464 -64
2018-10-18 16:30:34 GMT 44.782230 20.495398 33,000 136 464 0
2018-10-18 16:30:30 GMT 44.789612 20.485579 33,000 136 464 0
2018-10-18 16:30:27 GMT 44.794285 20.479385 33,000 136 463 0
2018-10-18 16:30:22 GMT 44.802292 20.468706 33,000 136 464 0
2018-10-18 16:30:15 GMT 44.812859 20.454666 33,000 136 463 0
2018-10-18 16:30:12 GMT 44.819145 20.446295 33,025 136 463 0
2018-10-18 16:30:07 GMT 44.825382 20.437986 33,025 136 463 0
2018-10-18 16:30:03 GMT 44.838730 20.420183 33,000 136 463 0
2018-10-18 16:29:58 GMT 44.838730 20.420183 33,000 136 464 0
2018-10-18 16:29:54 GMT 44.845734 20.410896 33,000 136 464 64
2018-10-18 16:29:50 GMT 44.851410 20.403313 33,000 136 464 0
2018-10-18 16:29:46 GMT 44.859692 20.392300 33,000 136 465 64
2018-10-18 16:29:42 GMT 44.864456 20.385983 33,000 136 466 0
2018-10-18 16:29:35 GMT 44.875240 20.371668 33,000 136 465 0
2018-10-18 16:29:31 GMT 44.889313 20.352959 33,000 136 465 0
2018-10-18 16:29:26 GMT 44.889313 20.352959 33,000 136 466 64
2018-10-18 16:29:22 GMT 44.895813 20.344259 33,000 136 465 0
2018-10-18 16:29:19 GMT 44.901718 20.336348 33,000 136 465 0
2018-10-18 16:29:10 GMT 44.913849 20.320129 33,000 136 464 0
2018-10-18 16:29:06 GMT 44.920486 20.311235 33,000 136 464 0
2018-10-18 16:29:01 GMT 44.927982 20.301262 33,000 136 464 0
2018-10-18 16:28:55 GMT 44.937618 20.288465 33,000 136 464 0
2018-10-18 16:28:50 GMT 44.945297 20.278212 33,000 136 464 0
2018-10-18 16:28:47 GMT 44.951614 20.269840 33,000 136 464 0
2018-10-18 16:28:43 GMT 44.955460 20.264675 33,000 136 464 0
2018-10-18 16:28:40 GMT 44.960861 20.257416 33,000 136 463 0
2018-10-18 16:28:34 GMT 44.970840 20.244011 33,000 136 463 0
2018-10-18 16:28:29 GMT 44.978073 20.234203 33,000 136 463 0
2018-10-18 16:28:23 GMT 44.987244 20.221811 33,000 136 462 0
2018-10-18 16:28:15 GMT 45.001602 20.202484 33,000 136 461 64
2018-10-18 16:28:09 GMT 45.009544 20.191799 33,000 136 459 -64
2018-10-18 16:28:03 GMT 45.018436 20.179874 32,975 136 459 0
2018-10-18 16:28:00 GMT 45.023834 20.172640 33,000 136 459 -64
2018-10-18 16:27:53 GMT 45.033379 20.159779 33,000 136 459 -64
2018-10-18 16:27:48 GMT 45.040787 20.149841 33,000 136 458 -64
2018-10-18 16:27:43 GMT 45.049484 20.138140 33,025 136 457 0
2018-10-18 16:27:37 GMT 45.057587 20.127220 33,000 136 457 64
2018-10-18 16:27:33 GMT 45.065460 20.116621 33,000 136 456 0
2018-10-18 16:27:28 GMT 45.072155 20.107660 33,000 136 457 0
2018-10-18 16:27:21 GMT 45.081848 20.094584 33,000 136 457 0
2018-10-18 16:27:11 GMT 45.098553 20.072021 33,000 136 456 0
2018-10-18 16:27:05 GMT 45.107071 20.060432 33,000 136 456 64
2018-10-18 16:26:59 GMT 45.116100 20.048174 33,000 136 457 64
2018-10-18 16:26:49 GMT 45.132843 20.025526 33,000 136 456 0
2018-10-18 16:26:39 GMT 45.147339 20.005836 33,000 136 456 0
2018-10-18 16:26:35 GMT 45.154320 19.996456 33,000 136 456 0
2018-10-18 16:26:28 GMT 45.165306 19.981518 33,000 136 456 0
2018-10-18 16:26:25 GMT 45.170197 19.974886 33,000 136 456 0
2018-10-18 16:26:18 GMT 45.179306 19.962551 33,000 136 456 0
2018-10-18 16:26:15 GMT 45.184708 19.955227 33,000 136 457 0
2018-10-18 16:26:08 GMT 45.195751 19.940319 33,000 136 457 0
2018-10-18 16:26:03 GMT 45.204086 19.929066 33,000 136 459 64
2018-10-18 16:25:55 GMT 45.214142 19.915466 33,000 136 459 0
2018-10-18 16:25:50 GMT 45.222610 19.903957 33,000 136 459 0
2018-10-18 16:25:46 GMT 45.229084 19.895235 33,000 136 460 0
2018-10-18 16:25:42 GMT 45.245190 19.873262 33,000 136 461 64
2018-10-18 16:25:35 GMT 45.245190 19.873262 33,000 136 461 0
2018-10-18 16:25:30 GMT 45.261154 19.851444 33,000 136 462 0
2018-10-18 16:25:25 GMT 45.261154 19.851444 33,000 136 461 0
2018-10-18 16:25:21 GMT 45.266605 19.844055 33,000 136 462 0
2018-10-18 16:25:17 GMT 45.273075 19.835279 33,000 136 461 0
2018-10-18 16:25:13 GMT 45.278477 19.827845 33,000 136 462 0
2018-10-18 16:25:08 GMT 45.287201 19.815935 33,000 136 462 0
2018-10-18 16:25:04 GMT 45.294441 19.806005 33,000 136 462 0
2018-10-18 16:24:59 GMT 45.299377 19.799326 33,000 136 462 0
2018-10-18 16:24:52 GMT 45.310547 19.784023 33,000 136 463 0
2018-10-18 16:24:49 GMT 45.326111 19.762835 33,000 136 462 0
2018-10-18 16:24:43 GMT 45.326111 19.762835 33,000 136 463 0
2018-10-18 16:24:38 GMT 45.332382 19.754269 33,000 136 463 0
2018-10-18 16:24:32 GMT 45.342316 19.740665 33,000 136 462 0
2018-10-18 16:24:25 GMT 45.351654 19.727915 33,000 135 463 0
2018-10-18 16:24:22 GMT 45.359104 19.717712 33,000 135 463 0
2018-10-18 16:24:16 GMT 45.366074 19.708164 33,000 135 463 0
2018-10-18 16:24:11 GMT 45.374279 19.696878 33,000 136 462 0
2018-10-18 16:24:06 GMT 45.382370 19.685865 33,000 136 462 64
2018-10-18 16:23:59 GMT 45.393414 19.670687 33,000 136 462 0
2018-10-18 16:23:50 GMT 45.406265 19.653103 33,000 136 462 0
2018-10-18 16:23:41 GMT 45.421249 19.632568 33,000 135 461 0
2018-10-18 16:23:37 GMT 45.426044 19.626003 33,000 135 461 0
2018-10-18 16:23:33 GMT 45.431992 19.617855 33,000 136 461 64
2018-10-18 16:23:26 GMT 45.442886 19.602879 33,000 135 460 64
2018-10-18 16:23:23 GMT 45.448204 19.595591 33,000 135 460 64
2018-10-18 16:23:17 GMT 45.456299 19.584503 33,000 135 460 0
2018-10-18 16:23:10 GMT 45.467197 19.569530 33,000 135 459 0
2018-10-18 16:23:06 GMT 45.474472 19.559523 33,000 135 459 -64
2018-10-18 16:23:03 GMT 45.483856 19.546574 33,000 135 458 0
2018-10-18 16:22:56 GMT 45.489395 19.538988 33,000 135 457 0
2018-10-18 16:22:51 GMT 45.495987 19.529833 33,000 135 457 0
2018-10-18 16:22:48 GMT 45.502857 19.520428 33,000 135 457 0
2018-10-18 16:22:45 GMT 45.505371 19.516951 33,000 135 457 0
2018-10-18 16:22:39 GMT 45.515518 19.502876 33,000 135 457 0
2018-10-18 16:22:36 GMT 45.521339 19.494904 33,000 135 457 0
2018-10-18 16:22:29 GMT 45.530510 19.482176 33,000 135 457 0
2018-10-18 16:22:24 GMT 45.539822 19.469248 33,000 135 458 0
2018-10-18 16:22:18 GMT 45.547485 19.458664 33,000 135 458 0
2018-10-18 16:22:15 GMT 45.552658 19.451563 33,025 135 458 64
2018-10-18 16:22:12 GMT 45.557835 19.444359 33,025 135 458 64
2018-10-18 16:22:07 GMT 45.564072 19.435707 33,025 135 458 64
2018-10-18 16:22:03 GMT 45.571884 19.424900 33,000 135 459 128
2018-10-18 16:21:59 GMT 45.575226 19.420279 33,000 135 459 128
2018-10-18 16:21:55 GMT 45.581810 19.411125 32,975 135 459 128
2018-10-18 16:21:52 GMT 45.587311 19.403597 33,000 135 461 64
2018-10-18 16:21:48 GMT 45.592052 19.396980 32,975 135 461 0
2018-10-18 16:21:43 GMT 45.600712 19.385033 33,000 135 461 0
2018-10-18 16:21:37 GMT 45.608734 19.373854 33,000 135 460 0
2018-10-18 16:21:33 GMT 45.616352 19.363266 33,000 135 460 0
2018-10-18 16:21:25 GMT 45.626999 19.348465 33,000 135 458 -64
2018-10-18 16:21:22 GMT 45.632355 19.341028 33,000 135 458 0
2018-10-18 16:21:17 GMT 45.640373 19.329895 33,000 135 458 0
2018-10-18 16:21:14 GMT 45.644005 19.324883 33,000 135 458 -64
2018-10-18 16:21:11 GMT 45.649033 19.317879 33,000 135 456 0
2018-10-18 16:21:07 GMT 45.656155 19.307991 33,000 135 456 0
2018-10-18 16:21:01 GMT 45.664066 19.297005 33,000 135 456 0
2018-10-18 16:20:56 GMT 45.672272 19.285561 33,000 135 456 0
2018-10-18 16:20:51 GMT 45.691299 19.259033 33,000 135 456 0
2018-10-18 16:20:43 GMT 45.691299 19.259033 33,000 135 457 64
2018-10-18 16:20:40 GMT 45.695118 19.253677 33,000 135 457 0
2018-10-18 16:20:34 GMT 45.705505 19.239338 33,000 135 457 0
2018-10-18 16:20:30 GMT 45.711456 19.231031 33,000 135 458 0
2018-10-18 16:20:24 GMT 45.720749 19.218102 33,000 135 458 0
2018-10-18 16:20:17 GMT 45.732010 19.202427 33,000 135 458 0
2018-10-18 16:20:14 GMT 45.735901 19.196934 33,000 135 458 0
2018-10-18 16:20:08 GMT 45.744232 19.185278 33,000 135 458 0
2018-10-18 16:20:02 GMT 45.753708 19.171946 33,000 135 458 0
2018-10-18 16:19:58 GMT 45.760025 19.163103 33,000 135 459 0
2018-10-18 16:19:51 GMT 45.769684 19.149572 33,000 135 460 0
2018-10-18 16:19:47 GMT 45.776863 19.139488 33,000 135 460 0
2018-10-18 16:19:37 GMT 45.792225 19.117996 33,000 135 460 0
2018-10-18 16:19:32 GMT 45.801304 19.105293 33,000 135 460 0
2018-10-18 16:19:29 GMT 45.803722 19.101929 33,000 135 459 0
2018-10-18 16:19:26 GMT 45.808319 19.095510 33,000 135 459 0
2018-10-18 16:19:20 GMT 45.818527 19.081242 33,000 135 458 0
2018-10-18 16:19:15 GMT 45.825138 19.071991 33,000 135 458 0
2018-10-18 16:19:09 GMT 45.845444 19.043528 33,000 135 458 0
2018-10-18 16:19:02 GMT 45.845444 19.043528 33,000 135 456 0
2018-10-18 16:18:57 GMT 45.852467 19.033676 33,000 135 457 0
2018-10-18 16:18:54 GMT 45.856796 19.027515 33,000 135 456 0
2018-10-18 16:18:50 GMT 45.863205 19.018539 33,000 135 456 0
2018-10-18 16:18:47 GMT 45.867920 19.011909 33,000 135 456 0
2018-10-18 16:18:43 GMT 45.874020 19.003326 33,000 135 456 0
2018-10-18 16:18:40 GMT 45.879513 18.995636 33,000 135 456 0
2018-10-18 16:18:37 GMT 45.884354 18.988701 33,000 135 456 0
2018-10-18 16:18:33 GMT 45.889099 18.982109 33,000 132 457 0
2018-10-18 16:18:28 GMT 45.895294 18.973320 33,000 135 456 0
2018-10-18 16:18:25 GMT 45.902435 18.963272 33,000 135 456 0
2018-10-18 16:18:22 GMT 45.904633 18.960192 33,000 132 457 0
2018-10-18 16:18:17 GMT 45.911957 18.949808 33,000 135 456 0
2018-10-18 16:18:11 GMT 45.921021 18.937014 33,000 135 455 0
2018-10-18 16:18:04 GMT 45.933277 18.919899 33,000 135 455 64
2018-10-18 16:18:01 GMT 45.937050 18.914612 33,000 135 455 64
2018-10-18 16:17:53 GMT 45.950180 18.896015 33,000 134 455 64
2018-10-18 16:17:50 GMT 45.953293 18.891394 33,000 133 457 0
2018-10-18 16:17:43 GMT 45.963261 18.876091 33,000 131 457 0
2018-10-18 16:17:38 GMT 45.972057 18.861946 33,000 130 458 -64
2018-10-18 16:17:32 GMT 45.980484 18.847733 33,000 130 458 0
2018-10-18 16:17:29 GMT 45.983089 18.843407 33,000 130 458 0
2018-10-18 16:17:26 GMT 45.986984 18.836929 33,000 130 457 0
2018-10-18 16:17:19 GMT 45.997055 18.820198 33,000 130 457 0
2018-10-18 16:17:16 GMT 46.002689 18.810722 33,000 130 457 0
2018-10-18 16:17:08 GMT 46.012253 18.794861 33,000 130 456 0
2018-10-18 16:17:04 GMT 46.017792 18.785683 33,000 130 456 0
2018-10-18 16:16:59 GMT 46.026199 18.771652 33,000 130 457 64
2018-10-18 16:16:56 GMT 46.028183 18.768467 33,000 130 456 64
2018-10-18 16:16:53 GMT 46.032806 18.760735 33,000 130 457 64
2018-10-18 16:16:45 GMT 46.043327 18.743156 33,000 130 457 0
2018-10-18 16:16:42 GMT 46.047054 18.736908 33,000 130 458 -64
2018-10-18 16:16:34 GMT 46.062649 18.710747 33,000 130 458 0
2018-10-18 16:16:27 GMT 46.070114 18.698330 33,000 130 458 0
2018-10-18 16:16:21 GMT 46.077171 18.686508 33,000 130 458 64
2018-10-18 16:16:13 GMT 46.089157 18.666508 33,000 130 458 0
2018-10-18 16:16:10 GMT 46.092453 18.660948 33,000 130 458 0
2018-10-18 16:16:03 GMT 46.101566 18.645721 33,000 130 458 0
2018-10-18 16:16:00 GMT 46.107151 18.636246 33,000 130 458 0
2018-10-18 16:15:52 GMT 46.118183 18.617706 33,000 130 459 0
2018-10-18 16:15:47 GMT 46.123585 18.608643 33,025 130 458 0
2018-10-18 16:15:41 GMT 46.137177 18.585915 33,000 130 458 0
2018-10-18 16:15:38 GMT 46.137177 18.585915 33,000 130 458 0
2018-10-18 16:15:33 GMT 46.143089 18.575958 33,000 130 458 0
2018-10-18 16:15:30 GMT 46.146698 18.569908 33,000 130 458 0
2018-10-18 16:15:27 GMT 46.157867 18.551085 33,000 130 458 0
2018-10-18 16:15:22 GMT 46.157867 18.551085 33,000 130 458 0
2018-10-18 16:15:19 GMT 46.161804 18.544441 33,000 130 458 0
2018-10-18 16:15:15 GMT 46.169403 18.531525 33,000 130 459 0
2018-10-18 16:15:12 GMT 46.172150 18.526901 33,000 130 460 0
2018-10-18 16:15:09 GMT 46.176422 18.519722 33,000 130 460 0
2018-10-18 16:15:04 GMT 46.184242 18.506470 33,000 130 460 0
2018-10-18 16:14:59 GMT 46.190964 18.495014 33,000 130 460 0
2018-10-18 16:14:53 GMT 46.198673 18.481888 33,000 130 459 0
2018-10-18 16:14:49 GMT 46.203468 18.473785 33,000 130 460 0
2018-10-18 16:14:46 GMT 46.208820 18.464790 33,000 130 461 0
2018-10-18 16:14:40 GMT 46.217995 18.449341 33,000 130 460 0
2018-10-18 16:14:37 GMT 46.219902 18.446114 33,000 130 460 0
2018-10-18 16:14:34 GMT 46.229305 18.430183 33,000 130 461 0
2018-10-18 16:14:28 GMT 46.234192 18.421875 33,000 130 461 0
2018-10-18 16:14:24 GMT 46.238567 18.414459 33,000 130 461 0
2018-10-18 16:14:21 GMT 46.243744 18.405649 33,000 130 461 0
2018-10-18 16:14:17 GMT 46.247368 18.399490 33,000 130 462 0
2018-10-18 16:14:14 GMT 46.251465 18.392555 33,025 130 462 0
2018-10-18 16:14:10 GMT 46.258255 18.380999 33,025 130 462 0
2018-10-18 16:14:07 GMT 46.261799 18.374977 33,000 130 462 0
2018-10-18 16:14:03 GMT 46.267197 18.365845 33,025 130 462 0
2018-10-18 16:13:59 GMT 46.272785 18.356300 33,000 130 462 0
2018-10-18 16:13:56 GMT 46.278137 18.347168 33,000 130 462 64
2018-10-18 16:13:53 GMT 46.281631 18.341194 33,000 130 461 64
2018-10-18 16:13:48 GMT 46.289406 18.328011 33,000 130 463 64
2018-10-18 16:13:42 GMT 46.295593 18.317436 33,000 130 464 64
2018-10-18 16:13:39 GMT 46.299728 18.310457 33,000 130 464 64
2018-10-18 16:13:35 GMT 46.310165 18.292639 33,000 130 464 64
2018-10-18 16:13:26 GMT 46.319477 18.276855 33,000 130 464 64
2018-10-18 16:13:23 GMT 46.327019 18.264015 33,000 130 463 64
2018-10-18 16:13:20 GMT 46.327019 18.264015 33,000 130 462 0
2018-10-18 16:13:13 GMT 46.338089 18.245142 33,000 130 462 0
2018-10-18 16:13:10 GMT 46.340099 18.241699 33,000 130 462 0
2018-10-18 16:13:01 GMT 46.353413 18.219040 33,000 130 461 -64
2018-10-18 16:12:58 GMT 46.356903 18.212988 33,000 130 459 -64
2018-10-18 16:12:55 GMT 46.361885 18.204552 33,025 130 459 0
2018-10-18 16:12:52 GMT 46.371941 18.187386 33,025 130 456 0
2018-10-18 16:12:48 GMT 46.371941 18.187386 33,025 130 459 0
2018-10-18 16:12:42 GMT 46.380413 18.172966 33,025 130 457 0
2018-10-18 16:12:38 GMT 46.386326 18.162872 33,025 130 456 0
2018-10-18 16:12:32 GMT 46.393959 18.149895 33,000 130 458 0
2018-10-18 16:12:28 GMT 46.400570 18.138565 33,000 130 456 0
2018-10-18 16:12:25 GMT 46.403782 18.133072 33,000 130 458 0
2018-10-18 16:12:20 GMT 46.408764 18.124557 33,000 130 458 0
2018-10-18 16:12:15 GMT 46.419331 18.106499 33,000 130 459 0
2018-10-18 16:12:11 GMT 46.423050 18.100178 33,000 130 459 64
2018-10-18 16:12:06 GMT 46.428589 18.090731 33,000 130 459 0
2018-10-18 16:12:03 GMT 46.432972 18.083221 33,000 129 460 0
2018-10-18 16:12:00 GMT 46.437286 18.075859 33,000 130 459 0
2018-10-18 16:11:54 GMT 46.444145 18.064133 33,000 129 460 0
2018-10-18 16:11:50 GMT 46.449684 18.054588 33,000 129 460 0
2018-10-18 16:11:46 GMT 46.455734 18.044172 33,000 129 460 0
2018-10-18 16:11:42 GMT 46.463417 18.030899 33,025 129 460 0
2018-10-18 16:11:36 GMT 46.469513 18.020391 33,000 129 460 0
2018-10-18 16:11:32 GMT 46.474960 18.011080 33,000 130 461 0
2018-10-18 16:11:29 GMT 46.480911 18.000832 33,000 130 461 0
2018-10-18 16:11:20 GMT 46.493534 17.979126 33,000 130 462 0
2018-10-18 16:11:17 GMT 46.506317 17.957220 33,000 130 462 64
2018-10-18 16:11:11 GMT 46.506317 17.957220 33,000 130 462 64
2018-10-18 16:11:08 GMT 46.509129 17.952347 33,000 130 463 64
2018-10-18 16:11:04 GMT 46.513226 17.945343 33,000 130 463 64
2018-10-18 16:11:01 GMT 46.517742 17.937515 33,000 130 464 0
2018-10-18 16:10:58 GMT 46.522018 17.930157 33,000 130 466 0
2018-10-18 16:10:55 GMT 46.526306 17.922821 33,000 130 466 0
2018-10-18 16:10:50 GMT 46.533417 17.910528 33,000 129 465 64
2018-10-18 16:10:44 GMT 46.541153 17.897198 33,025 129 465 0
2018-10-18 16:10:40 GMT 46.546417 17.888077 33,025 129 465 64
2018-10-18 16:10:35 GMT 46.553680 17.875511 33,000 130 464 64
2018-10-18 16:10:32 GMT 46.558319 17.867521 33,000 130 464 64
2018-10-18 16:10:28 GMT 46.563766 17.858143 33,000 130 464 0
2018-10-18 16:10:23 GMT 46.570766 17.845985 33,000 130 464 0
2018-10-18 16:10:19 GMT 46.576073 17.836853 33,000 130 464 -64
2018-10-18 16:10:15 GMT 46.582172 17.826347 33,000 130 464 -64
2018-10-18 16:10:12 GMT 46.585785 17.820091 33,000 130 464 0
2018-10-18 16:10:07 GMT 46.592876 17.807808 33,000 130 463 0
2018-10-18 16:10:02 GMT 46.600979 17.793800 33,000 130 463 0
2018-10-18 16:09:57 GMT 46.610962 17.776548 33,000 130 463 -64
2018-10-18 16:09:54 GMT 46.610962 17.776548 33,000 130 463 -64
2018-10-18 16:09:51 GMT 46.616043 17.767773 33,000 130 463 0
2018-10-18 16:09:48 GMT 46.620716 17.759743 33,000 130 463 0
2018-10-18 16:09:44 GMT 46.625603 17.751297 33,000 130 463 0
2018-10-18 16:09:40 GMT 46.631191 17.741615 33,000 130 463 -64
2018-10-18 16:09:33 GMT 46.640034 17.726234 33,025 129 462 -64
2018-10-18 16:09:29 GMT 46.646164 17.715654 33,025 129 462 0
2018-10-18 16:09:24 GMT 46.651703 17.706009 33,025 129 462 64
2018-10-18 16:09:21 GMT 46.657654 17.695625 33,000 129 462 64
2018-10-18 16:09:18 GMT 46.661915 17.688194 33,000 129 462 64
2018-10-18 16:09:15 GMT 46.664055 17.684555 33,000 129 462 64
2018-10-18 16:09:08 GMT 46.675694 17.664162 33,000 129 462 0
2018-10-18 16:09:05 GMT 46.680038 17.656637 33,000 129 464 -64
2018-10-18 16:08:59 GMT 46.687054 17.644386 33,000 129 464 -64
2018-10-18 16:08:53 GMT 46.694920 17.630722 33,000 129 464 -64
2018-10-18 16:08:48 GMT 46.702835 17.616852 33,000 129 464 0
2018-10-18 16:08:40 GMT 46.713402 17.598450 33,000 129 464 0
2018-10-18 16:08:37 GMT 46.717575 17.591188 33,000 129 464 0
2018-10-18 16:08:33 GMT 46.722805 17.582039 33,000 129 464 0
2018-10-18 16:08:29 GMT 46.729294 17.570757 33,000 129 464 0
2018-10-18 16:08:26 GMT 46.732674 17.564804 33,000 129 464 0
2018-10-18 16:08:19 GMT 46.742706 17.547310 33,000 129 465 0
2018-10-18 16:08:15 GMT 46.748383 17.537462 33,000 129 465 0
2018-10-18 16:08:10 GMT 46.753693 17.528217 33,000 129 465 0
2018-10-18 16:08:07 GMT 46.758957 17.518972 33,000 129 465 0
2018-10-18 16:08:03 GMT 46.763119 17.511726 33,000 129 465 0
2018-10-18 16:07:59 GMT 46.768845 17.501701 33,000 129 465 0
2018-10-18 16:07:56 GMT 46.773239 17.494053 33,000 129 466 0
2018-10-18 16:07:52 GMT 46.779087 17.483711 33,000 129 465 0
2018-10-18 16:07:49 GMT 46.782486 17.477806 33,000 129 466 0
2018-10-18 16:07:46 GMT 46.790585 17.463455 33,000 129 466 0
2018-10-18 16:07:43 GMT 46.790585 17.463455 33,000 129 466 0
2018-10-18 16:07:40 GMT 46.796776 17.452538 33,000 129 466 0
2018-10-18 16:07:37 GMT 46.799973 17.446825 33,000 129 466 0
2018-10-18 16:07:33 GMT 46.804970 17.438049 33,000 129 466 64
2018-10-18 16:07:30 GMT 46.809673 17.429810 33,000 129 466 64
2018-10-18 16:07:27 GMT 46.812420 17.425003 33,000 129 465 64
2018-10-18 16:07:24 GMT 46.822815 17.406832 33,000 129 465 0
2018-10-18 16:07:21 GMT 46.828400 17.397053 33,000 129 466 0
2018-10-18 16:07:17 GMT 46.828400 17.397053 33,000 129 466 0
2018-10-18 16:07:11 GMT 46.834995 17.385452 33,000 129 466 0
2018-10-18 16:07:08 GMT 46.838654 17.379030 33,000 129 466 0
2018-10-18 16:07:05 GMT 46.847580 17.363289 33,000 129 465 0
2018-10-18 16:06:59 GMT 46.851849 17.355858 33,000 129 465 0
2018-10-18 16:06:54 GMT 46.859715 17.341919 33,000 129 465 0
2018-10-18 16:06:51 GMT 46.862370 17.337250 33,000 129 465 0
2018-10-18 16:06:47 GMT 46.868465 17.326496 33,000 129 464 0
2018-10-18 16:06:43 GMT 46.873077 17.318466 33,000 129 465 0
2018-10-18 16:06:40 GMT 46.877426 17.310745 33,000 129 466 0
2018-10-18 16:06:37 GMT 46.883148 17.300652 33,000 129 465 0
2018-10-18 16:06:32 GMT 46.890114 17.288324 33,000 129 466 0
2018-10-18 16:06:27 GMT 46.895466 17.278889 33,000 129 465 0
2018-10-18 16:06:23 GMT 46.900822 17.269451 33,000 129 465 0
2018-10-18 16:06:20 GMT 46.906548 17.259380 33,000 129 465 0
2018-10-18 16:06:14 GMT 46.913818 17.246544 33,000 129 465 0
2018-10-18 16:06:11 GMT 46.917301 17.240437 33,000 129 465 0
2018-10-18 16:06:08 GMT 46.921646 17.232742 33,000 129 464 0
2018-10-18 16:06:03 GMT 46.929428 17.218872 33,000 129 464 0
2018-10-18 16:06:00 GMT 46.931946 17.214409 33,000 129 464 0
2018-10-18 16:05:56 GMT 46.938995 17.201843 33,000 129 465 0
2018-10-18 16:05:51 GMT 46.944489 17.191984 33,000 129 465 0
2018-10-18 16:05:48 GMT 46.950352 17.181631 33,000 129 464 -64
2018-10-18 16:05:42 GMT 46.957535 17.168884 33,000 129 464 -64
2018-10-18 16:05:39 GMT 46.962479 17.160095 33,025 129 464 -64
2018-10-18 16:05:34 GMT 46.969624 17.147545 33,025 129 464 -64
2018-10-18 16:05:30 GMT 46.975025 17.137968 33,025 129 463 0
2018-10-18 16:05:25 GMT 46.987175 17.116278 33,000 129 463 0
2018-10-18 16:05:21 GMT 46.987175 17.116278 33,025 129 465 0
2018-10-18 16:05:15 GMT 46.994251 17.103882 33,000 129 465 64
2018-10-18 16:05:10 GMT 47.002350 17.089445 33,000 129 466 0
2018-10-18 16:05:05 GMT 47.008392 17.078796 33,000 129 467 0
2018-10-18 16:05:01 GMT 47.013245 17.070148 33,000 129 468 0
2018-10-18 16:04:57 GMT 47.019653 17.058746 33,000 129 468 64
2018-10-18 16:04:50 GMT 47.034210 17.032722 33,000 129 470 64
2018-10-18 16:04:46 GMT 47.034210 17.032722 33,000 129 470 64
2018-10-18 16:04:43 GMT 47.038383 17.025288 33,000 129 470 0
2018-10-18 16:04:39 GMT 47.043224 17.016695 32,975 129 471 0
2018-10-18 16:04:35 GMT 47.049137 17.006132 33,000 129 471 0
2018-10-18 16:04:29 GMT 47.057701 16.990919 33,000 129 471 0
2018-10-18 16:04:26 GMT 47.061844 16.983524 33,000 129 470 0
2018-10-18 16:04:23 GMT 47.067032 16.974358 33,000 129 470 -64
2018-10-18 16:04:18 GMT 47.073765 16.962399 33,000 129 470 0
2018-10-18 16:04:14 GMT 47.078522 16.953896 33,000 129 470 0
2018-10-18 16:04:09 GMT 47.084984 16.942326 33,000 129 470 0
2018-10-18 16:04:05 GMT 47.090195 16.933029 33,000 129 470 0
2018-10-18 16:04:02 GMT 47.094955 16.924507 33,000 129 469 0
2018-10-18 16:03:57 GMT 47.101414 16.912958 33,000 129 469 0
2018-10-18 16:03:54 GMT 47.105301 16.905968 33,000 129 469 0
2018-10-18 16:03:51 GMT 47.110565 16.896561 33,000 129 469 0
2018-10-18 16:03:48 GMT 47.114777 16.889015 33,000 129 469 0
2018-10-18 16:03:45 GMT 47.118988 16.881454 33,000 129 469 0
2018-10-18 16:03:42 GMT 47.121803 16.876337 33,000 129 468 0
2018-10-18 16:03:38 GMT 47.126953 16.867172 33,000 129 469 0
2018-10-18 16:03:35 GMT 47.132675 16.856873 33,000 129 470 0
2018-10-18 16:03:32 GMT 47.136887 16.849365 33,000 129 470 0
2018-10-18 16:03:29 GMT 47.141373 16.841354 33,000 129 469 -64
2018-10-18 16:03:25 GMT 47.144939 16.834858 33,000 129 470 -64
2018-10-18 16:03:21 GMT 47.150387 16.825138 33,000 129 470 0
2018-10-18 16:03:17 GMT 47.156628 16.813871 33,000 129 470 -64
2018-10-18 16:03:13 GMT 47.161980 16.804293 33,000 129 470 -64
2018-10-18 16:03:10 GMT 47.166916 16.795420 33,025 129 469 0
2018-10-18 16:03:07 GMT 47.170406 16.789082 33,000 129 470 0
2018-10-18 16:03:03 GMT 47.176529 16.778046 33,000 129 470 0
2018-10-18 16:02:58 GMT 47.183346 16.765772 33,000 129 468 0
2018-10-18 16:02:55 GMT 47.186050 16.760880 33,000 129 469 0
2018-10-18 16:02:52 GMT 47.190857 16.752296 33,000 129 469 0
2018-10-18 16:02:45 GMT 47.201797 16.732658 33,000 129 470 0
2018-10-18 16:02:42 GMT 47.206203 16.724712 33,000 129 470 0
2018-10-18 16:02:34 GMT 47.222824 16.694923 33,000 129 471 0
2018-10-18 16:02:30 GMT 47.222824 16.694923 33,000 129 471 0
2018-10-18 16:02:23 GMT 47.235397 16.672302 33,000 129 471 0
2018-10-18 16:02:20 GMT 47.235397 16.672302 33,000 129 471 0
2018-10-18 16:02:15 GMT 47.242420 16.659569 33,000 129 471 0
2018-10-18 16:02:12 GMT 47.246017 16.653145 33,000 129 473 0
2018-10-18 16:02:09 GMT 47.252060 16.642296 33,000 129 473 0
2018-10-18 16:02:02 GMT 47.261322 16.625624 33,000 129 473 0
2018-10-18 16:01:58 GMT 47.267853 16.613800 33,000 129 474 0
2018-10-18 16:01:52 GMT 47.276321 16.598557 33,000 129 474 0
2018-10-18 16:01:48 GMT 47.279114 16.593475 33,000 129 474 0
2018-10-18 16:01:45 GMT 47.284332 16.584000 33,000 129 474 0
2018-10-18 16:01:41 GMT 47.289780 16.574181 33,000 129 474 -64
2018-10-18 16:01:37 GMT 47.296097 16.562782 33,000 129 474 -64
2018-10-18 16:01:29 GMT 47.304893 16.546820 33,025 128 474 -64
2018-10-18 16:01:26 GMT 47.311363 16.535057 33,025 128 474 0
2018-10-18 16:01:22 GMT 47.317043 16.524706 33,025 129 474 0
2018-10-18 16:01:17 GMT 47.322166 16.515478 33,025 129 474 0
2018-10-18 16:01:14 GMT 47.326263 16.508125 33,000 128 477 64
2018-10-18 16:01:11 GMT 47.330265 16.500832 33,000 129 474 0
2018-10-18 16:01:07 GMT 47.337341 16.487938 33,000 128 475 64
2018-10-18 16:01:03 GMT 47.341393 16.480619 33,000 128 477 64
2018-10-18 16:01:00 GMT 47.345673 16.472832 33,000 128 477 64
2018-10-18 16:00:57 GMT 47.351303 16.462532 33,000 128 477 64
2018-10-18 16:00:52 GMT 47.358009 16.450336 33,000 128 478 0
2018-10-18 16:00:46 GMT 47.364250 16.438997 33,000 128 479 0
2018-10-18 16:00:43 GMT 47.370667 16.427238 33,000 128 477 0
2018-10-18 16:00:40 GMT 47.373505 16.422157 33,000 128 479 0
2018-10-18 16:00:35 GMT 47.381332 16.407875 33,000 128 479 0
2018-10-18 16:00:32 GMT 47.386173 16.399067 33,000 128 479 0
2018-10-18 16:00:28 GMT 47.395523 16.382057 33,000 128 479 0
2018-10-18 16:00:24 GMT 47.395523 16.382057 33,000 128 479 -64
2018-10-18 16:00:20 GMT 47.402653 16.368925 33,000 128 477 -64
2018-10-18 16:00:16 GMT 47.407681 16.359770 33,000 128 477 0
2018-10-18 16:00:13 GMT 47.410660 16.354347 33,000 128 477 0
2018-10-18 16:00:10 GMT 47.419132 16.338854 33,000 128 477 0
2018-10-18 16:00:02 GMT 47.426697 16.324997 33,000 128 477 0
2018-10-18 15:59:59 GMT 47.432144 16.315109 33,000 128 477 0
2018-10-18 15:59:55 GMT 47.436543 16.307020 33,000 128 477 0
2018-10-18 15:59:51 GMT 47.443314 16.294647 33,000 128 476 0
2018-10-18 15:59:48 GMT 47.446785 16.288429 33,000 128 476 0
2018-10-18 15:59:45 GMT 47.450043 16.282372 33,000 128 476 0
2018-10-18 15:59:42 GMT 47.455769 16.271879 33,000 128 477 0
2018-10-18 15:59:38 GMT 47.459152 16.265739 33,000 128 477 0
2018-10-18 15:59:35 GMT 47.464417 16.256058 33,000 128 478 0
2018-10-18 15:59:31 GMT 47.469955 16.245895 33,000 128 478 0
2018-10-18 15:59:28 GMT 47.473480 16.239441 33,000 128 478 0
2018-10-18 15:59:25 GMT 47.478607 16.230103 33,000 128 478 0
2018-10-18 15:59:22 GMT 47.483097 16.221806 33,000 128 478 0
2018-10-18 15:59:19 GMT 47.485237 16.217934 33,000 128 478 0
2018-10-18 15:59:16 GMT 47.495316 16.199409 33,000 128 478 0
2018-10-18 15:59:09 GMT 47.499668 16.191454 33,000 128 478 0
2018-10-18 15:59:03 GMT 47.509186 16.173935 33,000 128 478 0
2018-10-18 15:58:58 GMT 47.515594 16.162056 33,000 128 478 0
2018-10-18 15:58:52 GMT 47.524574 16.145536 33,000 128 478 0
2018-10-18 15:58:49 GMT 47.526760 16.141451 33,000 128 478 0
2018-10-18 15:58:46 GMT 47.532955 16.129972 33,000 128 478 0
2018-10-18 15:58:41 GMT 47.539719 16.117561 33,000 128 478 0
2018-10-18 15:58:37 GMT 47.545120 16.107674 33,000 128 478 0
2018-10-18 15:58:33 GMT 47.550980 16.096893 33,000 128 478 -64
2018-10-18 15:58:29 GMT 47.555206 16.089125 33,000 128 478 -64
2018-10-18 15:58:26 GMT 47.559952 16.080345 33,000 128 478 0
2018-10-18 15:58:22 GMT 47.564896 16.071213 33,000 128 477 0
2018-10-18 15:58:19 GMT 47.569794 16.062286 33,000 128 477 -64
2018-10-18 15:58:15 GMT 47.574757 16.052998 33,000 128 477 -64
2018-10-18 15:58:12 GMT 47.579926 16.043489 33,000 128 477 -64
2018-10-18 15:58:08 GMT 47.584259 16.035439 33,000 128 477 -64
2018-10-18 15:58:04 GMT 47.589752 16.025276 33,000 128 477 -64
2018-10-18 15:58:01 GMT 47.593891 16.017645 33,000 128 477 -64
2018-10-18 15:57:58 GMT 47.598312 16.009483 33,000 128 477 -64
2018-10-18 15:57:54 GMT 47.604458 15.998066 33,000 128 478 0
2018-10-18 15:57:49 GMT 47.615585 15.977431 33,000 128 478 0
2018-10-18 15:57:46 GMT 47.620377 15.968491 33,000 128 481 64
2018-10-18 15:57:42 GMT 47.620377 15.968491 33,000 128 478 0
2018-10-18 15:57:39 GMT 47.625687 15.958603 33,000 128 481 0
2018-10-18 15:57:35 GMT 47.629971 15.950670 33,000 128 479 0
2018-10-18 15:57:31 GMT 47.634857 15.941585 33,000 128 480 0
2018-10-18 15:57:28 GMT 47.639420 15.933060 33,000 128 481 64
2018-10-18 15:57:24 GMT 47.644775 15.923172 33,000 128 481 0
2018-10-18 15:57:20 GMT 47.649612 15.914189 33,000 128 481 0
2018-10-18 15:57:14 GMT 47.661392 15.892410 33,000 128 483 0
2018-10-18 15:57:08 GMT 47.666611 15.882797 33,000 128 484 0
2018-10-18 15:57:05 GMT 47.671585 15.873554 33,000 128 483 0
2018-10-18 15:57:00 GMT 47.679642 15.858694 33,000 128 484 0
2018-10-18 15:56:57 GMT 47.681717 15.854851 33,000 128 485 -64
2018-10-18 15:56:54 GMT 47.686432 15.846130 33,000 128 483 0
2018-10-18 15:56:49 GMT 47.694992 15.830338 33,000 128 484 0
2018-10-18 15:56:46 GMT 47.698425 15.823883 33,000 128 484 0
2018-10-18 15:56:43 GMT 47.701263 15.818596 33,000 128 486 0
2018-10-18 15:56:40 GMT 47.705524 15.810805 33,000 128 485 0
2018-10-18 15:56:36 GMT 47.713810 15.795382 33,000 128 485 0
2018-10-18 15:56:33 GMT 47.716511 15.790311 33,000 128 485 0
2018-10-18 15:56:29 GMT 47.722778 15.778633 33,000 128 486 0
2018-10-18 15:56:26 GMT 47.727169 15.770522 33,000 128 486 0
2018-10-18 15:56:22 GMT 47.730755 15.763761 33,000 128 486 0
2018-10-18 15:56:18 GMT 47.737839 15.750618 33,000 128 486 0
2018-10-18 15:56:15 GMT 47.740585 15.745468 33,000 128 486 0
2018-10-18 15:56:12 GMT 47.745575 15.736130 33,000 128 486 0
2018-10-18 15:56:08 GMT 47.752075 15.724041 33,000 128 485 -64
2018-10-18 15:56:05 GMT 47.759903 15.709351 33,000 128 485 0
2018-10-18 15:55:55 GMT 47.770042 15.690308 33,000 128 483 0
2018-10-18 15:55:52 GMT 47.774235 15.682631 33,000 128 484 0
2018-10-18 15:55:46 GMT 47.782799 15.666574 33,000 128 484 -64
2018-10-18 15:55:43 GMT 47.786198 15.660166 33,000 128 485 -64
2018-10-18 15:55:40 GMT 47.790253 15.652565 33,000 128 485 -64
2018-10-18 15:55:37 GMT 47.794064 15.645376 33,000 128 485 -64
2018-10-18 15:55:34 GMT 47.798813 15.636429 33,000 128 485 -64
2018-10-18 15:55:30 GMT 47.804077 15.626472 33,025 128 485 -64
2018-10-18 15:55:26 GMT 47.809937 15.615486 33,025 128 485 0
2018-10-18 15:55:23 GMT 47.813339 15.609107 33,000 128 485 0
2018-10-18 15:55:20 GMT 47.818691 15.599107 33,000 128 485 0
2018-10-18 15:55:15 GMT 47.825489 15.586290 33,000 128 486 64
2018-10-18 15:55:11 GMT 47.830421 15.577064 33,000 128 486 64
2018-10-18 15:55:08 GMT 47.834106 15.570236 33,000 128 486 64
2018-10-18 15:55:04 GMT 47.840698 15.557739 33,000 128 487 0
2018-10-18 15:55:01 GMT 47.843765 15.551971 33,000 128 487 0
2018-10-18 15:54:58 GMT 47.850208 15.539950 33,000 128 487 0
2018-10-18 15:54:54 GMT 47.855560 15.529809 33,000 128 487 0
2018-10-18 15:54:51 GMT 47.858353 15.524597 33,000 128 487 0
2018-10-18 15:54:47 GMT 47.864498 15.512977 33,000 128 487 0
2018-10-18 15:54:40 GMT 47.874298 15.494568 33,000 128 487 0
2018-10-18 15:54:37 GMT 47.884190 15.475933 33,000 128 487 0
2018-10-18 15:54:30 GMT 47.888893 15.467060 33,000 128 487 -64
2018-10-18 15:54:27 GMT 47.891827 15.461496 33,000 128 487 -64
2018-10-18 15:54:23 GMT 47.898560 15.448837 33,000 128 487 -64
2018-10-18 15:54:20 GMT 47.902672 15.441073 33,000 128 487 -64
2018-10-18 15:54:17 GMT 47.907143 15.432692 33,000 128 487 -64
2018-10-18 15:54:14 GMT 47.910049 15.427208 33,000 128 487 -64
2018-10-18 15:54:11 GMT 47.914635 15.418466 33,000 128 486 -64
2018-10-18 15:54:08 GMT 47.917614 15.412832 33,000 128 486 -64
2018-10-18 15:54:05 GMT 47.924011 15.400841 33,000 128 486 -64
2018-10-18 15:54:02 GMT 47.927490 15.394180 33,025 128 486 -64
2018-10-18 15:53:58 GMT 47.937790 15.374817 33,025 128 486 64
2018-10-18 15:53:55 GMT 47.937790 15.374817 33,000 128 486 64
2018-10-18 15:53:49 GMT 47.945663 15.359917 33,000 128 485 64
2018-10-18 15:53:46 GMT 47.950573 15.350577 33,000 128 485 64
2018-10-18 15:53:43 GMT 47.952576 15.346802 33,000 128 485 64
2018-10-18 15:53:39 GMT 47.959900 15.332932 33,000 128 485 0
2018-10-18 15:53:36 GMT 47.963840 15.325435 33,000 128 485 0
2018-10-18 15:53:33 GMT 47.967148 15.319167 33,000 128 487 0
2018-10-18 15:53:29 GMT 47.973724 15.306702 33,000 128 487 0
2018-10-18 15:53:25 GMT 47.979172 15.296402 33,000 128 486 0
2018-10-18 15:53:22 GMT 47.984558 15.286067 33,000 128 486 0
2018-10-18 15:53:18 GMT 47.988235 15.279236 33,000 128 485 0
2018-10-18 15:53:14 GMT 47.995029 15.266278 33,000 128 485 0
2018-10-18 15:53:11 GMT 47.997684 15.261207 33,000 128 485 0
2018-10-18 15:53:06 GMT 48.005219 15.246895 33,000 128 484 0
2018-10-18 15:53:03 GMT 48.010117 15.237625 33,000 128 484 0
2018-10-18 15:53:00 GMT 48.020401 15.218107 33,000 128 484 0
2018-10-18 15:52:54 GMT 48.020401 15.218107 33,000 128 484 0
2018-10-18 15:52:51 GMT 48.026138 15.207275 33,000 128 483 0
2018-10-18 15:52:48 GMT 48.028931 15.201920 33,000 127 483 0
2018-10-18 15:52:43 GMT 48.038177 15.184273 33,000 127 483 0
2018-10-18 15:52:40 GMT 48.044285 15.172683 33,000 128 482 0
2018-10-18 15:52:34 GMT 48.049915 15.161837 33,000 128 482 0
2018-10-18 15:52:31 GMT 48.052616 15.156696 33,000 127 481 0
2018-10-18 15:52:28 GMT 48.056622 15.148949 33,000 127 481 0
2018-10-18 15:52:21 GMT 48.066910 15.129301 33,000 127 480 -64
2018-10-18 15:52:18 GMT 48.071655 15.120216 33,000 127 480 -64
2018-10-18 15:52:15 GMT 48.074448 15.114863 33,000 127 480 0
2018-10-18 15:52:11 GMT 48.081894 15.100639 33,000 127 479 0
2018-10-18 15:52:08 GMT 48.086136 15.092468 33,000 127 479 0
2018-10-18 15:52:05 GMT 48.089172 15.086700 33,000 127 479 0
2018-10-18 15:52:02 GMT 48.093861 15.077749 33,000 127 479 0
2018-10-18 15:51:58 GMT 48.098557 15.068779 33,000 127 478 0
2018-10-18 15:51:54 GMT 48.103500 15.059303 33,000 128 478 0
2018-10-18 15:51:51 GMT 48.107548 15.051551 33,000 128 478 0
2018-10-18 15:51:48 GMT 48.112152 15.042755 33,000 128 478 0
2018-10-18 15:51:45 GMT 48.116730 15.034035 33,000 128 478 0
2018-10-18 15:51:42 GMT 48.119568 15.028610 33,000 128 478 0
2018-10-18 15:51:39 GMT 48.123749 15.020635 33,000 127 478 0
2018-10-18 15:51:36 GMT 48.127945 15.012543 33,000 127 478 0
2018-10-18 15:51:32 GMT 48.134968 14.999084 33,000 127 478 0
2018-10-18 15:51:29 GMT 48.137760 14.993803 33,000 127 478 0
2018-10-18 15:51:25 GMT 48.144287 14.981300 33,000 127 477 0
2018-10-18 15:51:21 GMT 48.154007 14.962604 33,000 127 477 -64
2018-10-18 15:51:17 GMT 48.154007 14.962604 33,000 127 477 0
2018-10-18 15:51:12 GMT 48.161781 14.947622 33,000 127 477 -64
2018-10-18 15:51:09 GMT 48.164806 14.941768 33,000 127 477 0
2018-10-18 15:51:06 GMT 48.170113 14.931576 33,000 127 477 0
2018-10-18 15:51:01 GMT 48.176399 14.919361 33,000 127 476 0
2018-10-18 15:50:57 GMT 48.184032 14.904761 33,000 127 477 0
2018-10-18 15:50:54 GMT 48.191761 14.889872 33,000 127 477 0
2018-10-18 15:50:50 GMT 48.191761 14.889872 33,000 127 476 0
2018-10-18 15:50:44 GMT 48.198349 14.877249 33,000 127 477 0
2018-10-18 15:50:40 GMT 48.203842 14.866544 33,000 127 479 0
2018-10-18 15:50:37 GMT 48.207497 14.859587 33,000 127 478 0
2018-10-18 15:50:34 GMT 48.212940 14.849034 33,000 127 478 0
2018-10-18 15:50:30 GMT 48.221134 14.833205 33,000 127 478 0
2018-10-18 15:50:27 GMT 48.221134 14.833205 33,000 127 478 0
2018-10-18 15:50:23 GMT 48.227234 14.821496 33,000 127 478 0
2018-10-18 15:50:19 GMT 48.233322 14.809711 33,000 127 478 0
2018-10-18 15:50:16 GMT 48.240780 14.795331 33,000 127 479 0
2018-10-18 15:50:10 GMT 48.245483 14.786224 33,000 127 479 0
2018-10-18 15:50:06 GMT 48.250168 14.777104 33,000 127 479 0
2018-10-18 15:50:02 GMT 48.256283 14.765264 33,000 127 479 0
2018-10-18 15:49:58 GMT 48.261913 14.754350 33,000 127 479 0
2018-10-18 15:49:55 GMT 48.264664 14.749146 33,000 127 479 0
2018-10-18 15:49:51 GMT 48.271408 14.735976 33,000 127 480 0
2018-10-18 15:49:46 GMT 48.281792 14.715825 33,000 127 479 0
2018-10-18 15:49:43 GMT 48.281792 14.715825 33,000 127 479 0
2018-10-18 15:49:37 GMT 48.289566 14.700791 33,000 127 480 0
2018-10-18 15:49:34 GMT 48.293243 14.693721 33,000 127 479 0
2018-10-18 15:49:31 GMT 48.298599 14.683298 33,000 127 479 0
2018-10-18 15:49:28 GMT 48.300888 14.678861 33,000 127 479 0
2018-10-18 15:49:24 GMT 48.307816 14.665447 33,000 127 479 0
2018-10-18 15:49:21 GMT 48.311260 14.658725 33,000 127 479 0
2018-10-18 15:49:17 GMT 48.316429 14.648678 33,000 127 478 0
2018-10-18 15:49:14 GMT 48.320480 14.640832 33,000 127 478 0
2018-10-18 15:49:11 GMT 48.326065 14.629986 33,000 127 478 0
2018-10-18 15:49:08 GMT 48.329277 14.623742 33,000 127 478 0
2018-10-18 15:49:05 GMT 48.332626 14.617165 33,000 127 479 0
2018-10-18 15:49:02 GMT 48.336594 14.609492 33,000 127 478 -64
2018-10-18 15:48:58 GMT 48.341381 14.600035 33,000 127 479 0
2018-10-18 15:48:55 GMT 48.347305 14.588576 33,000 127 479 0
2018-10-18 15:48:52 GMT 48.351852 14.579725 33,000 127 478 0
2018-10-18 15:48:49 GMT 48.353951 14.575677 33,000 127 478 0
2018-10-18 15:48:46 GMT 48.358704 14.566392 33,000 127 477 0
2018-10-18 15:48:43 GMT 48.362236 14.559487 33,000 127 477 0
2018-10-18 15:48:39 GMT 48.368008 14.548139 33,000 127 477 0
2018-10-18 15:48:36 GMT 48.372849 14.538743 33,000 127 477 0
2018-10-18 15:48:33 GMT 48.375549 14.533539 33,000 127 477 -64
2018-10-18 15:48:30 GMT 48.379166 14.526391 33,000 127 477 -64
2018-10-18 15:48:27 GMT 48.383465 14.517999 33,000 127 477 0
2018-10-18 15:48:23 GMT 48.389561 14.506073 33,000 127 477 0
2018-10-18 15:48:20 GMT 48.397568 14.490461 33,000 127 477 -64
2018-10-18 15:48:17 GMT 48.397568 14.490461 33,000 127 477 -64
2018-10-18 15:48:13 GMT 48.402176 14.481426 33,000 127 477 -64
2018-10-18 15:48:10 GMT 48.406952 14.472093 33,000 127 477 -64
2018-10-18 15:48:07 GMT 48.411022 14.464151 33,000 127 477 0
2018-10-18 15:48:00 GMT 48.419586 14.447303 33,000 127 477 0
2018-10-18 15:47:57 GMT 48.423592 14.439432 33,000 127 477 -64
2018-10-18 15:47:54 GMT 48.428192 14.430401 33,000 127 477 0
2018-10-18 15:47:51 GMT 48.433868 14.419344 33,000 127 477 0
2018-10-18 15:47:45 GMT 48.441467 14.404414 33,000 127 478 0
2018-10-18 15:47:41 GMT 48.446682 14.394114 33,000 127 478 0
2018-10-18 15:47:33 GMT 48.456409 14.375104 33,000 127 478 0
2018-10-18 15:47:29 GMT 48.462044 14.364118 33,000 127 478 0
2018-10-18 15:47:26 GMT 48.466278 14.355750 33,000 127 478 0
2018-10-18 15:47:23 GMT 48.469677 14.349084 33,000 127 478 0
2018-10-18 15:47:20 GMT 48.479324 14.330186 33,000 127 478 0
2018-10-18 15:47:17 GMT 48.479324 14.330186 33,000 127 478 0
2018-10-18 15:47:14 GMT 48.482758 14.323425 33,000 127 479 0
2018-10-18 15:47:07 GMT 48.491978 14.305356 33,000 127 479 0
2018-10-18 15:47:04 GMT 48.494770 14.299790 33,000 127 479 0
2018-10-18 15:47:01 GMT 48.502777 14.284106 33,000 127 479 0
2018-10-18 15:46:55 GMT 48.507431 14.274926 33,000 127 479 0
2018-10-18 15:46:51 GMT 48.512974 14.264012 33,000 127 479 0
2018-10-18 15:46:46 GMT 48.521351 14.247533 33,000 127 479 0
2018-10-18 15:46:43 GMT 48.528847 14.232716 33,000 127 479 0
2018-10-18 15:46:36 GMT 48.533661 14.223140 33,000 127 479 64
2018-10-18 15:46:33 GMT 48.540016 14.210671 33,000 127 480 64
2018-10-18 15:46:30 GMT 48.542858 14.205033 33,000 127 480 0
2018-10-18 15:46:27 GMT 48.546387 14.198068 33,000 127 480 0
2018-10-18 15:46:24 GMT 48.556267 14.178507 33,000 127 480 0
2018-10-18 15:46:20 GMT 48.556267 14.178507 33,000 127 480 0
2018-10-18 15:46:14 GMT 48.564274 14.162678 33,000 127 480 0
2018-10-18 15:46:11 GMT 48.568314 14.154757 33,000 127 478 -64
2018-10-18 15:46:07 GMT 48.573120 14.145250 33,000 127 480 -64
2018-10-18 15:46:03 GMT 48.577633 14.136296 33,000 127 480 -64
2018-10-18 15:45:59 GMT 48.583218 14.125238 33,000 127 478 0
2018-10-18 15:45:55 GMT 48.589920 14.111938 33,000 127 478 -64
2018-10-18 15:45:52 GMT 48.592392 14.107079 33,000 127 478 -64
2018-10-18 15:45:49 GMT 48.597046 14.097844 33,000 127 478 -64
2018-10-18 15:45:45 GMT 48.602463 14.087078 33,000 127 478 0
2018-10-18 15:45:42 GMT 48.606636 14.078763 33,000 127 478 0
2018-10-18 15:45:38 GMT 48.610703 14.070740 33,000 127 478 0
2018-10-18 15:45:35 GMT 48.616608 14.058979 33,000 127 477 64
2018-10-18 15:45:31 GMT 48.620789 14.050646 33,000 127 478 0
2018-10-18 15:45:27 GMT 48.625534 14.041178 33,000 127 478 0
2018-10-18 15:45:23 GMT 48.632126 14.028062 33,000 127 477 0
2018-10-18 15:45:20 GMT 48.635239 14.021865 33,000 127 477 64
2018-10-18 15:45:17 GMT 48.639362 14.013640 33,000 127 478 0
2018-10-18 15:45:13 GMT 48.645584 14.001230 33,000 127 478 0
2018-10-18 15:45:10 GMT 48.649555 13.993257 33,000 127 479 0
2018-10-18 15:45:07 GMT 48.653824 13.984821 33,000 127 478 0
2018-10-18 15:45:04 GMT 48.656570 13.979328 33,000 127 478 -64
2018-10-18 15:45:01 GMT 48.661743 13.969046 33,000 127 479 -64
2018-10-18 15:44:58 GMT 48.664993 13.962567 33,000 127 479 0
2018-10-18 15:44:55 GMT 48.669205 13.954186 33,000 127 479 0
2018-10-18 15:44:48 GMT 48.677765 13.937143 33,000 127 479 0
2018-10-18 15:44:45 GMT 48.682377 13.927917 33,000 127 479 0
2018-10-18 15:44:40 GMT 48.687866 13.916931 33,000 127 479 0
2018-10-18 15:44:37 GMT 48.692944 13.906812 33,000 127 478 -64
2018-10-18 15:44:32 GMT 48.698868 13.895029 33,000 127 478 -64
2018-10-18 15:44:27 GMT 48.705746 13.881226 33,000 127 478 0
2018-10-18 15:44:22 GMT 48.712051 13.868619 33,000 127 477 0
2018-10-18 15:44:17 GMT 48.720932 13.850872 33,000 127 477 0
2018-10-18 15:44:12 GMT 48.726738 13.839232 33,000 127 477 0
2018-10-18 15:44:05 GMT 48.736588 13.819604 32,975 126 476 384
2018-10-18 15:44:01 GMT 48.740753 13.811260 32,975 126 476 1024
2018-10-18 15:43:57 GMT 48.752014 13.788687 32,975 126 477 0
2018-10-18 15:43:50 GMT 48.759232 13.774181 32,975 126 477 128
2018-10-18 15:43:44 GMT 48.764587 13.763412 32,950 126 477 960
2018-10-18 15:43:41 GMT 48.768402 13.755728 32,950 126 476 384
2018-10-18 15:43:38 GMT 48.770359 13.751847 32,900 126 476 832
2018-10-18 15:43:33 GMT 48.778519 13.735445 32,850 126 476 960
2018-10-18 15:43:30 GMT 48.782509 13.727417 32,850 126 477 960
2018-10-18 15:43:27 GMT 48.785397 13.721562 32,800 126 477 960
2018-10-18 15:43:22 GMT 48.792572 13.707064 32,700 126 477 1024
2018-10-18 15:43:19 GMT 48.796707 13.698795 32,650 126 478 1024
2018-10-18 15:43:16 GMT 48.800171 13.691782 32,625 126 481 1024
2018-10-18 15:43:13 GMT 48.804577 13.682893 32,575 126 479 1024
2018-10-18 15:43:10 GMT 48.808456 13.675091 32,350 126 482 1024
2018-10-18 15:43:07 GMT 48.811932 13.668076 32,050 126 483 1024
2018-10-18 15:43:03 GMT 48.819260 13.653330 32,375 126 481 1024
2018-10-18 15:43:00 GMT 48.821457 13.648893 32,175 126 482 960
2018-10-18 15:42:57 GMT 48.830830 13.629986 32,175 126 482 960
2018-10-18 15:42:54 GMT 48.830830 13.629986 32,225 126 482 1024
2018-10-18 15:42:51 GMT 48.832855 13.625934 32,200 126 482 1024
2018-10-18 15:42:48 GMT 48.838978 13.613434 32,125 126 483 1024
2018-10-18 15:42:41 GMT 48.847404 13.596448 32,050 126 483 1024
2018-10-18 15:42:36 GMT 48.853500 13.584102 31,950 126 482 1024
2018-10-18 15:42:33 GMT 48.859039 13.572975 31,775 126 483 1024
2018-10-18 15:42:30 GMT 48.861603 13.567763 31,725 126 482 1024
2018-10-18 15:42:26 GMT 48.867977 13.554888 31,775 126 483 1024
2018-10-18 15:42:23 GMT 48.872681 13.545368 31,575 126 483 960
2018-10-18 15:42:19 GMT 48.876221 13.538192 31,625 126 483 1024
2018-10-18 15:42:14 GMT 48.882504 13.525399 31,575 126 483 1024
2018-10-18 15:42:10 GMT 48.890278 13.509642 31,500 126 483 1024
2018-10-18 15:42:03 GMT 48.898819 13.492338 31,400 126 483 960
2018-10-18 15:41:58 GMT 48.904037 13.481704 31,325 126 483 960
2018-10-18 15:41:53 GMT 48.911320 13.466925 31,250 126 483 960
2018-10-18 15:41:50 GMT 48.914612 13.460224 31,125 126 483 1024
2018-10-18 15:41:47 GMT 48.918503 13.452336 31,125 126 483 1024
2018-10-18 15:41:44 GMT 48.924725 13.439676 31,075 126 482 1024
2018-10-18 15:41:40 GMT 48.934021 13.420715 31,000 126 482 1024
2018-10-18 15:41:37 GMT 48.934021 13.420715 30,950 126 482 1024
2018-10-18 15:41:32 GMT 48.938644 13.411349 30,900 126 482 1024
2018-10-18 15:41:25 GMT 48.949402 13.389376 30,775 126 481 960
2018-10-18 15:41:22 GMT 48.952835 13.382263 30,775 126 481 960
2018-10-18 15:41:19 GMT 48.956894 13.373975 30,550 126 482 1024
2018-10-18 15:41:15 GMT 48.962723 13.361981 30,625 126 482 1024
2018-10-18 15:41:12 GMT 48.966248 13.354727 30,550 126 481 960
2018-10-18 15:41:06 GMT 48.981445 13.323810 30,350 127 481 1024
2018-10-18 15:41:01 GMT 48.981445 13.323810 30,400 126 481 1024
2018-10-18 15:40:58 GMT 48.984833 13.316979 29,875 127 478 1088
2018-10-18 15:40:55 GMT 48.990280 13.306063 30,250 127 481 960
2018-10-18 15:40:52 GMT 48.995956 13.294866 29,925 127 481 960
2018-10-18 15:40:45 GMT 49.002560 13.281820 30,000 127 480 960
2018-10-18 15:40:42 GMT 49.010849 13.265413 29,925 127 480 1024
2018-10-18 15:40:38 GMT 49.016247 13.254716 29,925 127 480 1024
2018-10-18 15:40:34 GMT 49.016247 13.254716 29,750 127 479 960
2018-10-18 15:40:29 GMT 49.024021 13.239320 29,800 127 480 1024
2018-10-18 15:40:26 GMT 49.028320 13.230849 29,800 127 480 1024
2018-10-18 15:40:23 GMT 49.031067 13.225426 29,750 127 480 960
2018-10-18 15:40:20 GMT 49.041504 13.204721 29,650 127 479 960
2018-10-18 15:40:17 GMT 49.041504 13.204721 29,625 127 479 960
2018-10-18 15:40:14 GMT 49.045483 13.196893 29,575 127 479 960
2018-10-18 15:40:09 GMT 49.051208 13.185545 29,450 127 477 1024
2018-10-18 15:40:03 GMT 49.059769 13.168523 29,375 127 477 1024
2018-10-18 15:40:00 GMT 49.063778 13.160681 29,375 127 477 1024
2018-10-18 15:39:55 GMT 49.069550 13.149189 29,100 127 476 1088
2018-10-18 15:39:52 GMT 49.073776 13.140775 29,225 127 477 1088
2018-10-18 15:39:49 GMT 49.077789 13.132854 29,100 127 476 1088
2018-10-18 15:39:43 GMT 49.086456 13.115633 29,100 127 469 1216
2018-10-18 15:39:40 GMT 49.089104 13.110376 29,025 127 476 1088
2018-10-18 15:39:36 GMT 49.094501 13.099751 28,875 127 476 1152
2018-10-18 15:39:33 GMT 49.099205 13.090355 28,900 127 476 1088
2018-10-18 15:39:30 GMT 49.103165 13.082604 28,700 127 475 1088
2018-10-18 15:39:27 GMT 49.108566 13.071829 28,150 127 475 1088
2018-10-18 15:39:23 GMT 49.112427 13.064190 28,600 127 475 1088
2018-10-18 15:39:20 GMT 49.116348 13.056335 28,650 127 475 1088
2018-10-18 15:39:16 GMT 49.127197 13.034715 28,150 127 474 1088
2018-10-18 15:39:09 GMT 49.130672 13.027834 28,275 118 459 1024
2018-10-18 15:39:05 GMT 49.138184 13.012742 28,325 127 473 1152
2018-10-18 15:39:01 GMT 49.141521 13.006150 28,300 127 474 1152
2018-10-18 15:38:56 GMT 49.148712 12.991756 28,200 127 473 1088
2018-10-18 15:38:53 GMT 49.153393 12.982443 28,150 127 473 960
2018-10-18 15:38:50 GMT 49.157394 12.974348 28,100 127 472 960
2018-10-18 15:38:47 GMT 49.160793 12.967553 27,825 127 469 1216
2018-10-18 15:38:44 GMT 49.164001 12.961121 28,050 127 472 1024
2018-10-18 15:38:40 GMT 49.169586 12.949923 27,950 127 471 1088
2018-10-18 15:38:36 GMT 49.176064 12.936980 27,850 127 470 1088
2018-10-18 15:38:32 GMT 49.179932 12.929288 27,450 127 468 1280
2018-10-18 15:38:26 GMT 49.188080 12.912950 26,450 127 464 1280
2018-10-18 15:38:23 GMT 49.192539 12.904021 27,525 127 470 1152
2018-10-18 15:38:18 GMT 49.198608 12.891893 27,450 127 468 1280
2018-10-18 15:38:14 GMT 49.207485 12.874097 27,450 127 468 1216
2018-10-18 15:38:11 GMT 49.217239 12.854567 27,350 127 468 1216
2018-10-18 15:38:04 GMT 49.217239 12.854567 27,125 127 468 1152
2018-10-18 15:38:00 GMT 49.222092 12.844778 26,825 127 465 1088
2018-10-18 15:37:57 GMT 49.227585 12.833792 27,100 127 468 1152
2018-10-18 15:37:53 GMT 49.232483 12.824003 27,025 127 468 1152
2018-10-18 15:37:50 GMT 49.237137 12.814540 26,950 127 468 1152
2018-10-18 15:37:46 GMT 49.239929 12.808902 26,900 127 467 1216
2018-10-18 15:37:42 GMT 49.245987 12.796678 26,650 127 467 1344
2018-10-18 15:37:39 GMT 49.251022 12.786537 26,725 127 467 1344
2018-10-18 15:37:32 GMT 49.259491 12.769423 26,475 127 464 1344
2018-10-18 15:37:29 GMT 49.262787 12.762788 26,525 127 466 1024
2018-10-18 15:37:25 GMT 49.267456 12.753296 26,525 127 466 1024
2018-10-18 15:37:21 GMT 49.273308 12.741611 26,425 127 465 1216
2018-10-18 15:37:16 GMT 49.280319 12.727309 26,300 127 464 1344
2018-10-18 15:37:11 GMT 49.286808 12.714290 26,225 127 464 1472
2018-10-18 15:37:07 GMT 49.290848 12.706111 26,050 127 464 1536
2018-10-18 15:37:04 GMT 49.294785 12.698223 26,050 127 464 1600
2018-10-18 15:37:00 GMT 49.300552 12.686603 25,950 127 465 1664
2018-10-18 15:36:57 GMT 49.304638 12.678439 25,800 127 465 1664
2018-10-18 15:36:54 GMT 49.309944 12.667815 25,725 127 465 1536
2018-10-18 15:36:49 GMT 49.314461 12.658635 25,600 126 465 1408
2018-10-18 15:36:45 GMT 49.319954 12.647287 25,425 119 459 1024
2018-10-18 15:36:42 GMT 49.324936 12.635867 25,350 111 453 1280
2018-10-18 15:36:38 GMT 49.328476 12.627164 25,425 119 460 1024
2018-10-18 15:36:35 GMT 49.331593 12.618737 25,400 119 459 1024
2018-10-18 15:36:31 GMT 49.334656 12.609840 25,250 114 456 1152
2018-10-18 15:36:28 GMT 49.338669 12.597126 25,250 114 456 1152
2018-10-18 15:36:25 GMT 49.340717 12.589898 25,175 112 455 1280
2018-10-18 15:36:22 GMT 49.343262 12.580402 25,075 111 453 1280
2018-10-18 15:36:19 GMT 49.345467 12.571251 24,925 108 451 1408
2018-10-18 15:36:15 GMT 49.348072 12.559831 24,975 107 450 1472
2018-10-18 15:36:12 GMT 49.350586 12.547543 24,850 107 450 1472
2018-10-18 15:36:09 GMT 49.351891 12.541183 24,775 107 450 1344
2018-10-18 15:36:05 GMT 49.354889 12.526668 24,700 107 448 832
2018-10-18 15:36:00 GMT 49.356964 12.516391 24,650 107 449 960
2018-10-18 15:35:57 GMT 49.359245 12.505405 24,550 107 448 832
2018-10-18 15:35:54 GMT 49.361759 12.493117 24,525 107 445 832
2018-10-18 15:35:48 GMT 49.365437 12.475482 24,475 107 444 1024
2018-10-18 15:35:45 GMT 49.366741 12.469121 24,275 107 443 1472
2018-10-18 15:35:42 GMT 49.368881 12.458641 24,300 107 443 1408
2018-10-18 15:35:38 GMT 49.371582 12.445341 24,250 107 443 1472
2018-10-18 15:35:34 GMT 49.373337 12.436805 24,175 107 442 1472
2018-10-18 15:35:28 GMT 49.377045 12.418776 24,000 107 442 1344
2018-10-18 15:35:24 GMT 49.380100 12.404143 23,925 107 441 1216
2018-10-18 15:35:18 GMT 49.383545 12.387437 23,825 107 439 1344
2018-10-18 15:35:13 GMT 49.386570 12.372629 23,725 107 439 1664
2018-10-18 15:35:10 GMT 49.388077 12.365394 23,575 107 438 1856
2018-10-18 15:35:06 GMT 49.392975 12.341731 23,475 107 439 2048
2018-10-18 15:35:03 GMT 49.392975 12.341731 23,300 107 439 2048
2018-10-18 15:35:00 GMT 49.394257 12.335604 23,125 107 430 1408
2018-10-18 15:34:57 GMT 49.396729 12.323421 23,200 107 436 1088
2018-10-18 15:34:52 GMT 49.398861 12.313144 22,800 106 415 1408
2018-10-18 15:34:49 GMT 49.400757 12.304054 23,000 107 440 1408
2018-10-18 15:34:46 GMT 49.405380 12.281306 22,875 107 437 1088
2018-10-18 15:34:42 GMT 49.405380 12.281306 22,850 107 437 1024
2018-10-18 15:34:35 GMT 49.409519 12.260887 22,675 107 435 1152
2018-10-18 15:34:32 GMT 49.411896 12.249178 22,650 107 433 1216
2018-10-18 15:34:28 GMT 49.413437 12.241587 22,450 107 430 1408
2018-10-18 15:34:25 GMT 49.415619 12.230963 22,300 107 432 1408
2018-10-18 15:34:22 GMT 49.417763 12.220483 22,450 107 431 1408
2018-10-18 15:34:18 GMT 49.419754 12.210670 22,400 107 430 1408
2018-10-18 15:34:14 GMT 49.422180 12.198979 22,275 107 429 1344
2018-10-18 15:34:09 GMT 49.424885 12.185717 22,175 107 428 1280
2018-10-18 15:34:06 GMT 49.427162 12.174731 22,100 107 426 1472
2018-10-18 15:34:03 GMT 49.428314 12.169021 22,050 107 427 1408
2018-10-18 15:33:59 GMT 49.431122 12.155481 21,925 107 426 1728
2018-10-18 15:33:54 GMT 49.433681 12.143085 21,775 107 426 1984
2018-10-18 15:33:51 GMT 49.437744 12.123269 21,600 107 426 1856
2018-10-18 15:33:48 GMT 49.437744 12.123269 21,600 107 426 1856
2018-10-18 15:33:43 GMT 49.441177 12.106572 21,425 107 425 1600
2018-10-18 15:33:37 GMT 49.443741 12.094068 21,275 107 425 1600
2018-10-18 15:33:34 GMT 49.445507 12.085332 21,125 106 417 1920
2018-10-18 15:33:31 GMT 49.447952 12.073324 21,125 107 424 1472
2018-10-18 15:33:27 GMT 49.449741 12.064324 21,000 107 421 1472
2018-10-18 15:33:24 GMT 49.451797 12.054243 20,200 106 417 1856
2018-10-18 15:33:21 GMT 49.454086 12.042967 20,850 107 420 1536
2018-10-18 15:33:16 GMT 49.456375 12.031403 20,700 106 420 1600
2018-10-18 15:33:13 GMT 49.458031 12.023126 20,675 106 418 1664
2018-10-18 15:33:10 GMT 49.460312 12.011546 20,575 106 418 1728
2018-10-18 15:33:06 GMT 49.462219 12.001747 20,475 106 417 1856
2018-10-18 15:33:02 GMT 49.464157 11.991939 20,375 106 417 1920
2018-10-18 15:32:58 GMT 49.466309 11.980735 20,175 106 417 1856
2018-10-18 15:32:55 GMT 49.467945 11.972351 20,050 106 416 1728
2018-10-18 15:32:51 GMT 49.470566 11.959124 20,025 106 416 1600
2018-10-18 15:32:48 GMT 49.471985 11.951824 19,500 106 409 1408
2018-10-18 15:32:44 GMT 49.473862 11.942066 19,775 106 414 1408
2018-10-18 15:32:41 GMT 49.475578 11.933454 19,800 106 414 1408
2018-10-18 15:32:38 GMT 49.477524 11.923274 19,650 106 411 1408
2018-10-18 15:32:32 GMT 49.481304 11.903761 19,550 106 411 1408
2018-10-18 15:32:28 GMT 49.482605 11.897181 19,500 106 410 1408
2018-10-18 15:32:25 GMT 49.484283 11.888321 19,425 106 408 1408
2018-10-18 15:32:21 GMT 49.486240 11.878373 19,325 106 408 1408
2018-10-18 15:32:17 GMT 49.489777 11.859815 19,225 106 406 1472
2018-10-18 15:32:12 GMT 49.491531 11.850634 19,025 106 405 1472
2018-10-18 15:32:07 GMT 49.494232 11.836684 18,975 106 403 1536
2018-10-18 15:32:04 GMT 49.495605 11.829529 18,900 106 402 1600
2018-10-18 15:32:00 GMT 49.497391 11.819988 18,825 106 402 1600
2018-10-18 15:31:56 GMT 49.499908 11.806833 18,650 106 400 1728
2018-10-18 15:31:53 GMT 49.501324 11.799391 18,550 106 399 1920
2018-10-18 15:31:50 GMT 49.502609 11.792739 18,525 106 400 1856
2018-10-18 15:31:43 GMT 49.506866 11.770333 18,275 106 398 2112
2018-10-18 15:31:40 GMT 49.508148 11.763683 18,175 106 398 2176
2018-10-18 15:31:32 GMT 49.512268 11.742144 17,925 106 397 1984
2018-10-18 15:31:29 GMT 49.513657 11.734883 17,850 106 396 1344
2018-10-18 15:31:24 GMT 49.516544 11.719666 17,625 106 395 1152
2018-10-18 15:31:21 GMT 49.517941 11.712242 17,525 106 390 1024
2018-10-18 15:31:18 GMT 49.519272 11.705354 17,550 105 386 1664
2018-10-18 15:31:11 GMT 49.522968 11.685667 17,125 105 386 1664
2018-10-18 15:31:08 GMT 49.524490 11.677672 17,400 105 386 1600
2018-10-18 15:31:03 GMT 49.527420 11.661770 17,250 105 385 2112
2018-10-18 15:31:00 GMT 49.528648 11.655232 17,050 105 385 2304
2018-10-18 15:30:56 GMT 49.530075 11.647532 16,225 105 382 1600
2018-10-18 15:30:52 GMT 49.532700 11.632963 16,800 105 385 2368
2018-10-18 15:30:49 GMT 49.533875 11.626571 16,700 105 385 2368
2018-10-18 15:30:46 GMT 49.534790 11.621439 16,625 105 385 2304
2018-10-18 15:30:40 GMT 49.537632 11.606016 16,425 105 385 1920
2018-10-18 15:30:36 GMT 49.539963 11.593178 16,125 105 378 2112
2018-10-18 15:30:30 GMT 49.542664 11.578361 16,150 105 381 1664
2018-10-18 15:30:26 GMT 49.544384 11.569123 16,050 105 381 1792
2018-10-18 15:30:23 GMT 49.545731 11.561665 16,025 105 380 1920
2018-10-18 15:30:18 GMT 49.548569 11.546197 15,650 105 378 2304
2018-10-18 15:30:15 GMT 49.550014 11.538168 15,600 105 378 2368
2018-10-18 15:30:12 GMT 49.551086 11.532609 15,500 105 378 2432
2018-10-18 15:30:09 GMT 49.552715 11.523470 15,425 105 378 2432
2018-10-18 15:30:04 GMT 49.555508 11.508253 15,175 105 378 2432
2018-10-18 15:30:01 GMT 49.556255 11.504170 15,125 105 378 2432
2018-10-18 15:29:58 GMT 49.558136 11.493940 15,050 105 378 2368
2018-10-18 15:29:55 GMT 49.559139 11.488433 14,875 105 376 2048
2018-10-18 15:29:52 GMT 49.560562 11.480641 14,700 105 376 2112
2018-10-18 15:29:49 GMT 49.562351 11.470840 14,650 105 376 2112
2018-10-18 15:29:45 GMT 49.563766 11.462932 14,550 105 375 1984
2018-10-18 15:29:39 GMT 49.566776 11.446418 14,325 105 372 1792
2018-10-18 15:29:36 GMT 49.568775 11.435283 14,200 105 371 1792
2018-10-18 15:29:27 GMT 49.572098 11.417036 14,000 105 369 1600
2018-10-18 15:29:24 GMT 49.573524 11.409153 13,925 105 368 1472
2018-10-18 15:29:15 GMT 49.577808 11.385399 13,600 105 361 1792
2018-10-18 15:29:07 GMT 49.581486 11.364911 13,450 105 356 2432
2018-10-18 15:29:04 GMT 49.582718 11.358056 13,325 105 358 2048
2018-10-18 15:28:57 GMT 49.585629 11.341899 13,125 105 356 2496
2018-10-18 15:28:54 GMT 49.587204 11.333193 12,850 105 356 2304
2018-10-18 15:28:47 GMT 49.590328 11.315918 12,600 105 354 2240
2018-10-18 15:28:43 GMT 49.592285 11.305221 12,575 105 354 2176
2018-10-18 15:28:39 GMT 49.593540 11.298177 12,450 105 353 2432
2018-10-18 15:28:33 GMT 49.598103 11.272715 12,025 105 352 2560
2018-10-18 15:28:30 GMT 49.598103 11.272715 12,025 105 352 2496
2018-10-18 15:28:25 GMT 49.599781 11.263510 11,875 105 351 2304
2018-10-18 15:28:22 GMT 49.601547 11.253637 11,725 105 350 1920
2018-10-18 15:28:16 GMT 49.604343 11.238346 11,550 105 347 1472
2018-10-18 15:28:10 GMT 49.606670 11.225503 11,450 105 344 1216
2018-10-18 15:28:04 GMT 49.608673 11.214517 11,325 105 339 1216
2018-10-18 15:27:58 GMT 49.611465 11.199116 11,225 105 334 1216
2018-10-18 15:27:53 GMT 49.615746 11.175248 11,075 105 327 1216
2018-10-18 15:27:48 GMT 49.615746 11.175248 11,025 105 324 1216
2018-10-18 15:27:39 GMT 49.618912 11.157062 10,800 104 314 1152
2018-10-18 15:27:35 GMT 49.620850 11.146136 10,675 104 311 1152
2018-10-18 15:27:31 GMT 49.621941 11.139766 10,675 104 308 1152
2018-10-18 15:27:28 GMT 49.623474 11.130858 10,600 104 303 1152
2018-10-18 15:27:24 GMT 49.624779 11.123286 10,500 105 292 1600
2018-10-18 15:27:20 GMT 49.627304 11.108696 10,375 105 293 1472
2018-10-18 15:27:16 GMT 49.627304 11.108696 10,200 105 288 2560
2018-10-18 15:27:12 GMT 49.629017 11.098938 10,225 105 288 2368
2018-10-18 15:27:06 GMT 49.630829 11.088747 10,025 105 288 2624
2018-10-18 15:26:59 GMT 49.633160 11.075481 9,725 104 287 2816
2018-10-18 15:26:55 GMT 49.634602 11.066796 9,525 102 287 2560
2018-10-18 15:26:47 GMT 49.636459 11.048632 9,250 92 282 2368
2018-10-18 15:26:43 GMT 49.636463 11.042447 9,050 89 281 2368
2018-10-18 15:26:37 GMT 49.635487 11.030719 8,800 74 273 2368
2018-10-18 15:26:34 GMT 49.634674 11.025069 8,700 75 274 2496
2018-10-18 15:26:26 GMT 49.632019 11.009819 8,075 75 269 2112
2018-10-18 15:26:23 GMT 49.631111 11.004738 8,275 75 272 2304
2018-10-18 15:26:13 GMT 49.627712 10.985215 7,900 75 267 1984
2018-10-18 15:26:08 GMT 49.626114 10.976137 7,750 73 264 2112
2018-10-18 15:26:02 GMT 49.624191 10.966596 7,525 68 259 2688
2018-10-18 15:25:52 GMT 49.617657 10.948396 6,975 49 259 3264
2018-10-18 15:25:48 GMT 49.609863 10.937323 6,525 39 259 3008
2018-10-18 15:25:39 GMT 49.598923 10.929590 6,225 10 258 2368
2018-10-18 15:25:29 GMT 49.592377 10.927462 5,900 8 257 2432
2018-10-18 15:25:20 GMT 49.584549 10.926626 5,625 1 257 3008
2018-10-18 15:25:13 GMT 49.576691 10.926274 5,375 1 256 3136
2018-10-18 15:25:09 GMT 49.571709 10.926052 5,050 1 256 3264
2018-10-18 15:25:04 GMT 49.566010 10.925759 4,875 1 256 3328
2018-10-18 15:24:59 GMT 49.558640 10.925397 4,475 0 258 3072
2018-10-18 15:24:54 GMT 49.549458 10.925309 4,125 0 256 2560
2018-10-18 15:24:46 GMT 49.543579 10.925325 3,900 358 254 2176
2018-10-18 15:24:42 GMT 49.540009 10.925606 3,800 352 252 1664
2018-10-18 15:24:34 GMT 49.527969 10.931396 3,550 324 239 960
2018-10-18 15:24:31 GMT 49.527969 10.931396 3,575 329 242 1024
2018-10-18 15:24:26 GMT 49.522083 10.937558 3,450 308 226 448
2018-10-18 15:24:21 GMT 49.518219 10.943395 3,400 310 228 512
2018-10-18 15:24:14 GMT 49.514465 10.951345 3,350 300 219 640
2018-10-18 15:24:10 GMT 49.512169 10.958268 3,250 293 214 1088
2018-10-18 15:24:04 GMT 49.510529 10.965512 3,175 285 210 1024
2018-10-18 15:23:59 GMT 49.509430 10.973463 3,075 279 205 1024
2018-10-18 15:23:50 GMT 49.508286 10.985678 2,925 279 196 1088
2018-10-18 15:23:47 GMT 49.507885 10.989817 2,875 279 193 1088
2018-10-18 15:23:41 GMT 49.507233 10.996809 2,775 278 187 1152
2018-10-18 15:23:36 GMT 49.506500 11.004615 2,675 279 183 1216
2018-10-18 15:23:32 GMT 49.506042 11.009746 2,600 279 179 1280
2018-10-18 15:23:25 GMT 49.505184 11.018396 2,425 279 175 1792
2018-10-18 15:23:22 GMT 49.504807 11.022034 2,375 280 174 1728
2018-10-18 15:23:13 GMT 49.503433 11.033960 2,000 281 170 2688
2018-10-18 15:23:05 GMT 49.502438 11.042373 1,675 281 170 2752
2018-10-18 15:23:02 GMT 49.502060 11.045452 1,550 281 170 2752
2018-10-18 15:22:55 GMT 49.501041 11.054473 1,225 279 173 2048
2018-10-18 15:22:51 GMT 49.500626 11.058630 1,075 279 172 2432
2018-10-18 15:22:41 GMT 49.499321 11.071769 800 279 142 -64
2018-10-18 15:22:28 GMT 49.498016 11.085205 875 279 111 -64
2018-10-18 15:22:17 GMT 49.497311 11.092234 0 278 63
2018-10-18 15:22:08 GMT 49.497017 11.095059 0 278 19
2018-10-18 15:21:56 GMT 49.496983 11.095393 0 278 0
2018-10-18 15:21:45 GMT 49.496983 11.095412 0 278 0
2018-10-18 15:21:34 GMT 49.496990 11.095487 0 286 5
2018-10-18 15:21:24 GMT 49.496899 11.095776 0 5 6
2018-10-18 15:21:13 GMT 49.496395 11.095685 0 33 12
2018-10-18 15:21:03 GMT 49.496098 11.095252 0 53 6
2018-10-18 15:20:41 GMT 49.495995 11.095035 0 53 0
2018-10-18 15:20:30 GMT 49.495991 11.095022 0 53 0
2018-10-18 15:20:19 GMT 49.495983 11.095017 0 53 2
2018-10-18 15:20:07 GMT 49.495842 11.094707 0 53 9
2018-10-18 15:19:57 GMT 49.495571 11.094168 0 53 10
2018-10-18 15:19:46 GMT 49.495296 11.093481 0 84 10
2018-10-18 15:19:32 GMT 49.495338 11.092610 0 98 14
2018-10-18 15:19:23 GMT 49.495434 11.091638 0 98 15
2018-10-18 15:19:12 GMT 49.495537 11.090554 0 98 16
2018-10-18 15:18:58 GMT 49.495686 11.089072 0 98 16
2018-10-18 15:18:50 GMT 49.495770 11.088193 0 98 15
2018-10-18 15:18:39 GMT 49.495892 11.087012 0 98 16
2018-10-18 15:18:28 GMT 49.496002 11.085855 0 98 15
2018-10-18 15:18:16 GMT 49.496109 11.084789 0 98 12
2018-10-18 15:18:05 GMT 49.496143 11.083962 0 56 10
2018-10-18 15:17:53 GMT 49.495781 11.083572 0 11 9
2018-10-18 15:17:42 GMT 49.495411 11.083362 0 64 9
2018-10-18 15:17:31 GMT 49.495361 11.082663 0 98 12
2018-10-18 15:17:19 GMT 49.495468 11.081642 0 98 12
2018-10-18 15:17:10 GMT 49.495525 11.080959 0 98 11
2018-10-18 15:16:57 GMT 49.495628 11.079983 0 98 10
2018-10-18 15:16:07 GMT 49.495735 11.078877 0 98 0
2018-10-18 15:15:48 GMT 49.495735 11.078858 0 98 0
2018-10-18 15:15:33 GMT 49.495731 11.078845 0 98 0
2018-10-18 15:15:12 GMT 49.495731 11.078863 0 98 0
2018-10-18 15:14:44 GMT 49.495735 11.078858 0 98 0
2018-10-18 15:14:33 GMT 49.495743 11.078845 0 98 0
2018-10-18 15:14:22 GMT 49.495743 11.078827 0 98 1
2018-10-18 15:14:12 GMT 49.495754 11.078718 0 98 3
2018-10-18 15:13:55 GMT 49.495792 11.078283 0 98 5
2018-10-18 15:13:49 GMT 49.495815 11.078097 0 98 5
2018-10-18 15:13:39 GMT 49.495842 11.077800 0 98 5
2018-10-18 15:13:28 GMT 49.495876 11.077485 0 98 4
2018-10-18 15:13:16 GMT 49.495914 11.077182 0 98 4
2018-10-18 15:13:03 GMT 49.495945 11.076835 0 92 4
2018-10-18 15:12:52 GMT 49.495960 11.076622 0 98 2
2018-10-18 15:12:43 GMT 49.495968 11.076557 0 98 0

Making use of Plane Finder data

You are free to use the raw flight data, aircraft information and images provided in this report for your own purposes provided the data is correctly attributed to Plane Finder. We ask that you please credit Plane Finder and link to planefinder.net in close proximity to the content.

Optionally one of the following logos (no smaller then 150x24px) can be used and must link to planefinder.net

Embedding the Plane Finder map

You are welcome to embed the Plane Finder playback map on your website to offer visitors a more interactive experience. We suggest using the following HTML code:

<iframe src="//planefinder.net/data/report/GMI26KG-D-ASTF-7700-squawk-2018-10-18/map" width="800" height="600" seamless="seamless"></iframe>

Where our data comes from

Plane Finder has a global network of data feeds and antenna radars that receive data broadcast directly from aircraft. The primary technologies used are ADS-B and MLAT. We also show feeds from the FAA and a FLARM glider feed.

Click here to find out more about the Plane Finder network.

How we collect our data